Darstellungsparameter: Aktuell verwendete Einstellungen:
Skalierung der Graphiken ... ?
xyx+y,   Skalierungsfaktor:      Skalierung: Modus: x, Faktor: 1
Darstellungszeitraum ... ?
Vom - - bis: - -   Zeitraum: 21.06.2008 - 20.12.2008
Min/Max/Avg-Anzeige ... ?
Zeige MMA aktuell
Zeige MMA Monat
Zeige MMA alles
Zeige --A aktuell
Zeige --A Monat
Zeige --A alles
Keine MMA-Anzeige
MMA:
Keine MMA-Graphiken
MMA-Basis: 21.06.2008 - 20.12.2008
Quicknavigation für Darstellung... ?
Tage:      1T, 2T, 3T, 5T -1T -2T -3T -5T +1T +2T +3T +5T
Wochen: 1W, 2W, 3W -1W -2W -3W +1W +2W +3W
Monate: 1M, 3M, 6M -1M -3M -6M +1M +3M +6M
Jahre:    1J, 3J, 5J, 10J -1J -3J -5J -10J +1J +3J +5J +10J
Nutze für die Darstellung ... ?
Originaldaten oder Mittelwerte auf ...
Stundenbasis Tagesbasis Wochenbasis
Monatsbasis Jahresbasis      Datenbasis: Original-Daten
Darstellen als:
Statistik (Auto) Statistik J:M      Darstellung:
Zur Graphik,    zurück zur Übersicht aller Sensoren.
 
Tabellarische Datenbersicht: ?
 
Sensor: Nr:Datum:Temp:Abs-Feuchte:Windchill:Wind:
Aussen-T/F 1 21-06-2008 00:11:01 19 C 7.82 g/m*3 19 C 0 km/h
2 21-06-2008 00:23:01 19 C 7.33 g/m*3 19 C 0 km/h
3 21-06-2008 00:35:01 18.9 C 7.29 g/m*3 18.9 C 0 km/h
4 21-06-2008 00:47:01 18.9 C 7.29 g/m*3 18.9 C 0 km/h
5 21-06-2008 00:59:01 18.6 C 7.64 g/m*3 18.6 C 0 km/h
6 21-06-2008 01:11:01 18.5 C 7.59 g/m*3 18.5 C 0 km/h
7 21-06-2008 01:23:02 18.3 C 7.51 g/m*3 18.3 C 0 km/h
8 21-06-2008 01:35:01 18.3 C 7.35 g/m*3 18.3 C 0 km/h
9 21-06-2008 01:47:01 18.3 C 7.35 g/m*3 18.3 C 0 km/h
10 21-06-2008 01:59:01 18.2 C 7.31 g/m*3 18.2 C 0 km/h
11 21-06-2008 02:11:01 18.1 C 7.73 g/m*3 18.1 C 0 km/h
12 21-06-2008 02:23:02 17.8 C 7.74 g/m*3 17.8 C 0 km/h
13 21-06-2008 02:35:01 17.9 C 8.09 g/m*3 17.9 C 0 km/h
14 21-06-2008 02:47:01 17.9 C 7.94 g/m*3 17.9 C 0 km/h
15 21-06-2008 02:59:01 17.9 C 8.09 g/m*3 17.9 C 0 km/h
16 21-06-2008 03:11:01 17.7 C 7.85 g/m*3 17.7 C 0 km/h
17 21-06-2008 03:23:01 17.6 C 7.95 g/m*3 17.6 C 0 km/h
18 21-06-2008 03:35:02 17.5 C 8.05 g/m*3 17.5 C 0 km/h
19 21-06-2008 03:47:02 17.5 C 8.2 g/m*3 17.5 C 0 km/h
20 21-06-2008 03:59:02 17.2 C 8.2 g/m*3 17.2 C 0 km/h
21 21-06-2008 04:11:01 16.6 C 8.62 g/m*3 16.6 C 0 km/h
22 21-06-2008 04:23:01 16.5 C 8.57 g/m*3 16.5 C 0 km/h
23 21-06-2008 04:35:02 16.8 C 8.72 g/m*3 16.8 C 0 km/h
24 21-06-2008 04:47:01 16.9 C 8.63 g/m*3 16.9 C 0 km/h
25 21-06-2008 04:59:01 16.9 C 8.49 g/m*3 16.9 C 0 km/h
Sensor: Nr:Datum:Temp:Abs-Feuchte:Windchill:Wind:
Aussen-T/F 26 21-06-2008 05:11:02 16.9 C 8.49 g/m*3 16.9 C 0 km/h
27 21-06-2008 05:23:01 16.9 C 8.49 g/m*3 16.9 C 0 km/h
28 21-06-2008 05:35:01 16.9 C 8.49 g/m*3 16.9 C 0 km/h
29 21-06-2008 05:47:02 16.9 C 8.49 g/m*3 16.9 C 0 km/h
30 21-06-2008 05:59:02 16.8 C 8.44 g/m*3 16.8 C 0 km/h
31 21-06-2008 06:11:01 16.7 C 8.24 g/m*3 16.7 C 0 km/h
32 21-06-2008 06:23:01 16.4 C 8.37 g/m*3 16.4 C 0 km/h
33 21-06-2008 06:35:02 16.4 C 8.65 g/m*3 16.4 C 0 km/h
34 21-06-2008 06:47:02 16.2 C 8.83 g/m*3 16.2 C 0 km/h
35 21-06-2008 06:59:02 16.3 C 9.02 g/m*3 16.3 C 0 km/h
36 21-06-2008 07:11:01 16.4 C 9.07 g/m*3 16.4 C 0 km/h
37 21-06-2008 07:23:01 16.5 C 8.99 g/m*3 16.5 C 0 km/h
38 21-06-2008 07:35:02 16.5 C 8.99 g/m*3 16.5 C 0 km/h
39 21-06-2008 07:47:02 16.3 C 9.02 g/m*3 16.3 C 0 km/h
40 21-06-2008 07:59:02 16.5 C 9.27 g/m*3 16.5 C 0 km/h
41 21-06-2008 08:11:02 16.6 C 9.32 g/m*3 16.6 C 0 km/h
42 21-06-2008 08:23:01 16.6 C 9.18 g/m*3 16.6 C 0 km/h
43 21-06-2008 08:35:01 16.9 C 9.35 g/m*3 16.9 C 0 km/h
44 21-06-2008 08:47:01 17.1 C 9.46 g/m*3 17.1 C 0 km/h
45 21-06-2008 08:59:01 17.7 C 9.51 g/m*3 17.7 C 0 km/h
46 21-06-2008 09:11:02 18.3 C 9.38 g/m*3 18.3 C 0 km/h
47 21-06-2008 09:23:01 19 C 9.13 g/m*3 19 C 0 km/h
48 21-06-2008 09:35:01 19 C 9.13 g/m*3 19 C 0 km/h
49 21-06-2008 09:47:01 19.6 C 9.28 g/m*3 19.6 C 0 km/h
50 21-06-2008 09:59:01 20.7 C 9.18 g/m*3 20.7 C 0 km/h
Sensor: Nr:Datum:Temp:Abs-Feuchte:Windchill:Wind:
Aussen-T/F 51 21-06-2008 10:11:02 21.4 C 8.81 g/m*3 21.4 C 0 km/h
52 21-06-2008 10:23:01 22 C 8.54 g/m*3 22 C 0 km/h
53 21-06-2008 10:35:01 22.3 C 8.69 g/m*3 22.3 C 0 km/h
54 21-06-2008 10:47:01 22 C 8.93 g/m*3 22 C 0 km/h
55 21-06-2008 10:59:01 22.4 C 8.94 g/m*3 22.4 C 0 km/h
56 21-06-2008 11:11:01 22.5 C 9.19 g/m*3 22.5 C 0 km/h
57 21-06-2008 11:23:02 23.1 C 9.1 g/m*3 23.1 C 0 km/h
58 21-06-2008 11:35:01 24.2 C 9.02 g/m*3 24.2 C 0 km/h
59 21-06-2008 11:47:01 25 C 8.75 g/m*3 25 C 0 km/h
60 21-06-2008 11:59:01 25.6 C 8.81 g/m*3 25.6 C 0 km/h
61 21-06-2008 12:11:01 25.3 C 9.13 g/m*3 25.3 C 0 km/h
62 21-06-2008 12:23:01 24.9 C 9.16 g/m*3 24.9 C 0 km/h
63 21-06-2008 12:35:02 25.2 C 9.08 g/m*3 25.2 C 0 km/h
64 21-06-2008 12:47:02 25.6 C 9.05 g/m*3 25.6 C 0 km/h
65 21-06-2008 12:59:02 24.5 C 8.95 g/m*3 24.5 C 0 km/h
66 21-06-2008 13:11:02 24.3 C 9.29 g/m*3 24.3 C 0 km/h
67 21-06-2008 13:23:01 25.5 C 9.47 g/m*3 25.5 C 0 km/h
68 21-06-2008 13:35:01 26.6 C 8.81 g/m*3 26.6 C 0 km/h
69 21-06-2008 13:47:02 28.1 C 8.2 g/m*3 28.1 C 0 km/h
70 21-06-2008 13:59:02 28.4 C 8.34 g/m*3 28.4 C 0 km/h
71 21-06-2008 14:11:01 27.9 C 8.65 g/m*3 27.9 C 0 km/h
72 21-06-2008 14:23:01 27.3 C 8.63 g/m*3 27.3 C 0 km/h
73 21-06-2008 14:35:01 27.2 C 8.85 g/m*3 27.2 C 0 km/h
74 21-06-2008 14:47:01 28.3 C 9.12 g/m*3 28.3 C 0 km/h
75 21-06-2008 14:59:01 28.7 C 9.04 g/m*3 28.7 C 0 km/h
Sensor: Nr:Datum:Temp:Abs-Feuchte:Windchill:Wind:
Aussen-T/F 76 21-06-2008 15:11:01 29.6 C 9.2 g/m*3 29.6 C 0 km/h
77 21-06-2008 15:23:02 30.4 C 8.99 g/m*3 30.4 C 0 km/h
78 21-06-2008 15:35:02 30.7 C 8.19 g/m*3 30.7 C 0 km/h
79 21-06-2008 15:47:02 30.7 C 8.19 g/m*3 30.7 C 0 km/h
80 21-06-2008 15:59:02 31.2 C 8.09 g/m*3 31.2 C 0 km/h
81 21-06-2008 16:11:01 30.8 C 8.23 g/m*3 30.8 C 0 km/h
82 21-06-2008 16:23:01 30.7 C 7.87 g/m*3 30.7 C 0 km/h
83 21-06-2008 16:35:02 31.6 C 8.26 g/m*3 31.6 C 0 km/h
84 21-06-2008 16:47:01 32.1 C 7.47 g/m*3 32.1 C 0 km/h
85 21-06-2008 16:59:01 32.5 C 7.28 g/m*3 32.5 C 0 km/h
86 21-06-2008 17:11:02 32.4 C 7.24 g/m*3 32.4 C 0 km/h
87 21-06-2008 17:23:01 32.6 C 6.97 g/m*3 32.6 C 0 km/h
88 21-06-2008 17:35:01 33 C 7.12 g/m*3 33 C 0 km/h
89 21-06-2008 17:47:01 32.8 C 7.04 g/m*3 32.8 C 0 km/h
90 21-06-2008 17:59:01 32.4 C 6.9 g/m*3 32.4 C 0 km/h
91 21-06-2008 18:11:02 31.4 C 6.87 g/m*3 31.4 C 0 km/h
92 21-06-2008 18:23:02 31.5 C 6.9 g/m*3 31.5 C 0 km/h
93 21-06-2008 18:35:01 31.2 C 6.79 g/m*3 31.2 C 0 km/h
94 21-06-2008 18:47:01 31 C 6.72 g/m*3 31 C 0 km/h
95 21-06-2008 18:59:01 30.8 C 7.28 g/m*3 30.8 C 0 km/h
96 21-06-2008 19:11:01 30.7 C 7.24 g/m*3 30.7 C 0 km/h
97 21-06-2008 19:23:02 30.7 C 7.56 g/m*3 30.7 C 0 km/h
98 21-06-2008 19:35:02 30.4 C 7.75 g/m*3 30.4 C 0 km/h
99 21-06-2008 19:47:01 30.4 C 8.06 g/m*3 30.4 C 0 km/h
100 21-06-2008 19:59:01 30.4 C 8.06 g/m*3 30.4 C 0 km/h
Sensor: Nr:Datum:Temp:Abs-Feuchte:Windchill:Wind:
Aussen-T/F 101 21-06-2008 20:11:01 30.4 C 8.37 g/m*3 30.4 C 0 km/h
102 21-06-2008 20:23:02 30.1 C 9.15 g/m*3 30.1 C 0 km/h
103 21-06-2008 20:35:02 29.7 C 9.25 g/m*3 29.7 C 0 km/h
104 21-06-2008 20:47:02 29.2 C 9 g/m*3 29.2 C 0 km/h
105 21-06-2008 20:59:02 28.3 C 9.12 g/m*3 28.3 C 0 km/h
106 21-06-2008 21:11:02 27.2 C 9.63 g/m*3 27.2 C 0 km/h
107 21-06-2008 21:23:01 26.3 C 9.9 g/m*3 26.3 C 0 km/h
108 21-06-2008 21:35:01 25.6 C 9.52 g/m*3 25.6 C 0 km/h
109 21-06-2008 21:47:01 24.5 C 9.62 g/m*3 24.5 C 0 km/h
110 21-06-2008 21:59:01 24.1 C 9.63 g/m*3 24.1 C 0 km/h
111 21-06-2008 22:11:02 23.5 C 9.73 g/m*3 23.5 C 0 km/h
112 21-06-2008 22:23:01 23.3 C 9.83 g/m*3 23.3 C 0 km/h
113 21-06-2008 22:35:01 23.1 C 9.92 g/m*3 23.1 C 0 km/h
114 21-06-2008 22:47:01 22.7 C 10.1 g/m*3 22.7 C 0 km/h
115 21-06-2008 22:59:01 22.7 C 10.3 g/m*3 22.7 C 0 km/h
116 21-06-2008 23:11:02 22.2 C 10.41 g/m*3 22.2 C 0 km/h
117 21-06-2008 23:24:02 22.2 C 10.41 g/m*3 22.2 C 0 km/h
118 21-06-2008 23:36:02 22.1 C 10.54 g/m*3 22.1 C 0 km/h
119 21-06-2008 23:48:03 22 C 10.48 g/m*3 22 C 0 km/h
120 22-06-2008 00:00:03 22 C 10.48 g/m*3 22 C 0 km/h
121 22-06-2008 00:12:03 21.7 C 10.68 g/m*3 21.7 C 0 km/h
122 22-06-2008 00:24:03 21.5 C 10.56 g/m*3 21.5 C 0 km/h
123 22-06-2008 00:36:03 21.4 C 10.69 g/m*3 21.4 C 0 km/h
124 22-06-2008 00:48:03 21.3 C 10.81 g/m*3 21.3 C 0 km/h
125 22-06-2008 01:00:03 21 C 10.62 g/m*3 21 C 0 km/h
Sensor: Nr:Datum:Temp:Abs-Feuchte:Windchill:Wind:
Aussen-T/F 126 22-06-2008 01:12:03 20.7 C 10.8 g/m*3 20.7 C 0 km/h
127 22-06-2008 01:24:03 20.6 C 10.92 g/m*3 20.6 C 0 km/h
128 22-06-2008 01:36:03 20.2 C 10.84 g/m*3 20.2 C 0 km/h
129 22-06-2008 01:48:03 20 C 10.89 g/m*3 20 C 0 km/h
130 22-06-2008 02:00:03 19.8 C 10.93 g/m*3 19.8 C 0 km/h
131 22-06-2008 02:12:03 19.6 C 10.97 g/m*3 19.6 C 0 km/h
132 22-06-2008 02:24:03 19.4 C 11.01 g/m*3 19.4 C 0 km/h
133 22-06-2008 02:36:03 19.2 C 11.05 g/m*3 19.2 C 0 km/h
134 22-06-2008 02:48:03 19.1 C 11.15 g/m*3 19.1 C 0 km/h
135 22-06-2008 03:00:03 19 C 11.08 g/m*3 19 C 0 km/h
136 22-06-2008 03:12:03 18.7 C 11.05 g/m*3 18.7 C 0 km/h
137 22-06-2008 03:24:03 18.5 C 11.08 g/m*3 18.5 C 0 km/h
138 22-06-2008 03:36:04 18.3 C 10.94 g/m*3 18.3 C 0 km/h
139 22-06-2008 03:48:04 18.1 C 10.97 g/m*3 18.1 C 0 km/h
140 22-06-2008 04:00:04 17.9 C 10.99 g/m*3 17.9 C 0 km/h
141 22-06-2008 04:12:04 17.8 C 10.93 g/m*3 17.8 C 0 km/h
142 22-06-2008 04:24:04 17.7 C 11.01 g/m*3 17.7 C 0 km/h
143 22-06-2008 04:36:04 17.6 C 10.95 g/m*3 17.6 C 0 km/h
144 22-06-2008 04:48:04 17.5 C 10.88 g/m*3 17.5 C 0 km/h
145 22-06-2008 05:00:04 17.3 C 10.9 g/m*3 17.3 C 0 km/h
146 22-06-2008 05:12:04 17.2 C 11.13 g/m*3 17.2 C 0 km/h
147 22-06-2008 05:24:04 17 C 11 g/m*3 17 C 0 km/h
148 22-06-2008 05:36:04 16.9 C 11.08 g/m*3 16.9 C 0 km/h
149 22-06-2008 05:48:04 16.7 C 11.08 g/m*3 16.7 C 0 km/h
150 22-06-2008 06:00:04 16.7 C 11.08 g/m*3 16.7 C 0 km/h
Sensor: Nr:Datum:Temp:Abs-Feuchte:Windchill:Wind:
Aussen-T/F 151 22-06-2008 06:12:02 16.9 C 11.22 g/m*3 16.9 C 0 km/h
152 22-06-2008 06:24:02 16.8 C 11.29 g/m*3 16.8 C 0 km/h
153 22-06-2008 06:36:03 17 C 11.29 g/m*3 17 C 0 km/h
154 22-06-2008 06:48:02 17.1 C 11.21 g/m*3 17.1 C 0 km/h
155 22-06-2008 07:00:02 17.3 C 11.34 g/m*3 17.3 C 0 km/h
156 22-06-2008 07:12:02 17.3 C 11.34 g/m*3 17.3 C 0 km/h
157 22-06-2008 07:24:02 17.5 C 11.48 g/m*3 17.5 C 0 km/h
158 22-06-2008 07:36:01 17.7 C 11.62 g/m*3 17.7 C 0 km/h
159 22-06-2008 07:48:02 17.9 C 11.6 g/m*3 17.9 C 0 km/h
160 22-06-2008 08:00:02 18.1 C 11.43 g/m*3 18.1 C 0 km/h
161 22-06-2008 08:12:02 18.4 C 11.64 g/m*3 18.4 C 0 km/h
162 22-06-2008 08:24:02 18.9 C 11.83 g/m*3 18.9 C 0 km/h
163 22-06-2008 08:36:02 19.5 C 11.92 g/m*3 19.5 C 0 km/h
164 22-06-2008 08:48:01 20.2 C 11.54 g/m*3 20.2 C 0 km/h
165 22-06-2008 09:00:01 20.9 C 11.66 g/m*3 20.9 C 0 km/h
166 22-06-2008 09:12:01 21.8 C 12.09 g/m*3 21.8 C 0 km/h
167 22-06-2008 09:24:01 22.8 C 11.99 g/m*3 22.8 C 0 km/h
168 22-06-2008 09:36:02 23.4 C 11.99 g/m*3 23.4 C 0 km/h
169 22-06-2008 09:48:02 24.4 C 11.79 g/m*3 24.4 C 0 km/h
170 22-06-2008 10:00:02 25.1 C 11.57 g/m*3 25.1 C 0 km/h
171 22-06-2008 10:12:02 26.1 C 11.51 g/m*3 26.1 C 0 km/h
172 22-06-2008 10:24:02 26.7 C 11.39 g/m*3 26.7 C 0 km/h
173 22-06-2008 10:36:02 27.3 C 11.51 g/m*3 27.3 C 0 km/h
174 22-06-2008 10:48:02 27.3 C 11.51 g/m*3 27.3 C 0 km/h
175 22-06-2008 11:00:02 28 C 11.69 g/m*3 28 C 0 km/h
Sensor: Nr:Datum:Temp:Abs-Feuchte:Windchill:Wind:
Aussen-T/F 176 22-06-2008 11:12:02 28.7 C 12.15 g/m*3 28.7 C 0 km/h
177 22-06-2008 11:24:01 29.3 C 12.26 g/m*3 29.3 C 0 km/h
178 22-06-2008 11:36:02 29.5 C 11.22 g/m*3 29.5 C 0 km/h
179 22-06-2008 11:48:03 29.5 C 10.92 g/m*3 29.5 C 0 km/h
180 22-06-2008 12:00:03 29.6 C 10.98 g/m*3 29.6 C 0 km/h
181 22-06-2008 12:12:02 29.9 C 10.56 g/m*3 29.9 C 0 km/h
182 22-06-2008 12:24:02 29.7 C 10.74 g/m*3 29.7 C 0 km/h
183 22-06-2008 12:36:03 30.1 C 10.37 g/m*3 30.1 C 0 km/h
184 22-06-2008 12:48:02 29.9 C 10.86 g/m*3 29.9 C 0 km/h
185 22-06-2008 13:00:02 29.7 C 11.04 g/m*3 29.7 C 0 km/h
186 22-06-2008 13:12:02 29.2 C 11.03 g/m*3 29.2 C 0 km/h
187 22-06-2008 13:24:02 29.2 C 11.32 g/m*3 29.2 C 0 km/h
188 22-06-2008 13:36:02 30 C 11.52 g/m*3 30 C 0 km/h
189 22-06-2008 13:48:02 29.8 C 11.7 g/m*3 29.8 C 0 km/h
190 22-06-2008 14:00:02 29.1 C 11.26 g/m*3 29.1 C 0 km/h
191 22-06-2008 14:12:02 29 C 11.49 g/m*3 29 C 0 km/h
192 22-06-2008 14:24:02 29.5 C 11.22 g/m*3 29.5 C 0 km/h
193 22-06-2008 14:36:01 29.1 C 10.4 g/m*3 29.1 C 0 km/h
194 22-06-2008 14:48:01 28.8 C 10.23 g/m*3 28.8 C 0 km/h
195 22-06-2008 15:00:01 28.3 C 9.95 g/m*3 28.3 C 0 km/h
196 22-06-2008 15:12:02 28.7 C 9.89 g/m*3 28.7 C 0 km/h
197 22-06-2008 15:24:02 30 C 10.01 g/m*3 30 C 0 km/h
198 22-06-2008 15:36:01 30.5 C 9.97 g/m*3 30.5 C 0 km/h
199 22-06-2008 15:48:01 31 C 9.92 g/m*3 31 C 0 km/h
200 22-06-2008 16:00:01 31.5 C 9.2 g/m*3 31.5 C 0 km/h
Sensor: Nr:Datum:Temp:Abs-Feuchte:Windchill:Wind:
Aussen-T/F 201 22-06-2008 16:12:02 31.5 C 9.2 g/m*3 31.5 C 0 km/h
202 22-06-2008 16:24:02 31.5 C 8.55 g/m*3 31.5 C 0 km/h
203 22-06-2008 16:36:01 31.9 C 8.39 g/m*3 31.9 C 0 km/h
204 22-06-2008 16:48:01 31.9 C 7.72 g/m*3 31.9 C 0 km/h
205 22-06-2008 17:00:01 32.1 C 7.47 g/m*3 32.1 C 0 km/h
206 22-06-2008 17:12:02 32.3 C 6.86 g/m*3 32.3 C 0 km/h
207 22-06-2008 17:24:02 32.3 C 6.86 g/m*3 32.3 C 0 km/h
208 22-06-2008 17:36:01 32.1 C 7.13 g/m*3 32.1 C 0 km/h
209 22-06-2008 17:48:02 32.3 C 7.2 g/m*3 32.3 C 0 km/h
210 22-06-2008 18:00:02 32.1 C 7.47 g/m*3 32.1 C 0 km/h
211 22-06-2008 18:12:01 30.9 C 7.96 g/m*3 30.9 C 0 km/h
212 22-06-2008 18:24:02 30.5 C 8.41 g/m*3 30.5 C 0 km/h
213 22-06-2008 18:36:02 30.2 C 8.89 g/m*3 30.2 C 0 km/h
214 22-06-2008 18:48:02 30 C 8.79 g/m*3 30 C 0 km/h
215 22-06-2008 19:00:02 29.4 C 8.81 g/m*3 29.4 C 0 km/h
216 22-06-2008 19:12:02 28.3 C 9.68 g/m*3 28.3 C 0 km/h
217 22-06-2008 19:24:02 28.4 C 9.73 g/m*3 28.4 C 0 km/h
218 22-06-2008 19:36:02 28.2 C 9.9 g/m*3 28.2 C 0 km/h
219 22-06-2008 19:48:02 27.9 C 10.28 g/m*3 27.9 C 0 km/h
220 22-06-2008 20:00:02 27.9 C 10.28 g/m*3 27.9 C 0 km/h
221 22-06-2008 20:12:01 28.3 C 9.95 g/m*3 28.3 C 0 km/h
222 22-06-2008 20:24:01 27.5 C 10.05 g/m*3 27.5 C 0 km/h
223 22-06-2008 20:36:01 27.3 C 9.94 g/m*3 27.3 C 0 km/h
224 22-06-2008 20:48:01 26.9 C 10.75 g/m*3 26.9 C 0 km/h
225 22-06-2008 21:00:01 24.2 C 13.86 g/m*3 24.2 C 0 km/h
Sensor: Nr:Datum:Temp:Abs-Feuchte:Windchill:Wind:
Aussen-T/F 226 22-06-2008 21:12:01 23 C 14.39 g/m*3 23 C 0 km/h
227 22-06-2008 21:24:02 23.5 C 14.17 g/m*3 23.5 C 0 km/h
228 22-06-2008 21:36:02 23.4 C 13.88 g/m*3 23.4 C 0 km/h
229 22-06-2008 21:48:02 23.5 C 13.53 g/m*3 23.5 C 0 km/h
230 22-06-2008 22:00:02 23.5 C 13.53 g/m*3 23.5 C 0 km/h
231 22-06-2008 22:12:02 23.4 C 13.46 g/m*3 23.4 C 0 km/h
232 22-06-2008 22:24:02 23.4 C 13.25 g/m*3 23.4 C 0 km/h
233 22-06-2008 22:36:02 23.4 C 13.46 g/m*3 23.4 C 0 km/h
234 22-06-2008 22:49:04 23.1 C 13.64 g/m*3 23.1 C 0 km/h
235 22-06-2008 23:01:04 22.7 C 13.94 g/m*3 22.7 C 0 km/h
236 22-06-2008 23:13:04 21.9 C 14.86 g/m*3 21.9 C 0 km/h
237 22-06-2008 23:25:04 21 C 15.2 g/m*3 21 C 0 km/h
238 22-06-2008 23:37:04 20.5 C 14.95 g/m*3 20.5 C 0 km/h
239 22-06-2008 23:49:04 20.4 C 14.68 g/m*3 20.4 C 0 km/h
240 23-06-2008 00:01:04 20.3 C 14.6 g/m*3 20.3 C 0 km/h
241 23-06-2008 00:13:04 20.1 C 14.08 g/m*3 20.1 C 0 km/h
242 23-06-2008 00:25:04 20.1 C 13.73 g/m*3 20.1 C 0 km/h
243 23-06-2008 00:37:04 19.8 C 13.84 g/m*3 19.8 C 0 km/h
244 23-06-2008 00:49:04 19.8 C 13.84 g/m*3 19.8 C 0 km/h
245 23-06-2008 01:01:05 19.9 C 13.74 g/m*3 19.9 C 0 km/h
246 23-06-2008 01:13:05 20 C 13.65 g/m*3 20 C 0 km/h
247 23-06-2008 01:25:05 20.1 C 13.73 g/m*3 20.1 C 0 km/h
248 23-06-2008 01:37:05 20.3 C 13.72 g/m*3 20.3 C 0 km/h
249 23-06-2008 01:49:05 20.5 C 13.88 g/m*3 20.5 C 0 km/h
250 23-06-2008 02:01:05 20.4 C 13.98 g/m*3 20.4 C 0 km/h
Sensor: Nr:Datum:Temp:Abs-Feuchte:Windchill:Wind:
Aussen-T/F 251 23-06-2008 02:13:05 20.3 C 13.89 g/m*3 20.3 C 0 km/h
252 23-06-2008 02:25:05 20.4 C 13.98 g/m*3 20.4 C 0 km/h
253 23-06-2008 02:37:05 20.3 C 13.89 g/m*3 20.3 C 0 km/h
254 23-06-2008 02:49:05 20.4 C 13.98 g/m*3 20.4 C 0 km/h
255 23-06-2008 03:01:05 20.3 C 13.72 g/m*3 20.3 C 0 km/h
256 23-06-2008 03:13:05 20 C 12.96 g/m*3 20 C 0 km/h
257 23-06-2008 03:25:05 19.6 C 13 g/m*3 19.6 C 0 km/h
258 23-06-2008 03:37:05 19.6 C 13 g/m*3 19.6 C 0 km/h
259 23-06-2008 03:49:05 19.6 C 13 g/m*3 19.6 C 0 km/h
260 23-06-2008 04:01:05 19.7 C 13.25 g/m*3 19.7 C 0 km/h
261 23-06-2008 04:13:05 19.7 C 12.91 g/m*3 19.7 C 0 km/h
262 23-06-2008 04:25:05 18.8 C 10.95 g/m*3 18.8 C 0 km/h
263 23-06-2008 04:37:05 18.1 C 10.66 g/m*3 18.1 C 0 km/h
264 23-06-2008 04:49:05 17.8 C 10.47 g/m*3 17.8 C 0 km/h
265 23-06-2008 05:01:05 17.3 C 10.16 g/m*3 17.3 C 0 km/h
266 23-06-2008 05:13:06 17 C 9.69 g/m*3 17 C 0 km/h
267 23-06-2008 05:25:06 16.7 C 8.53 g/m*3 16.7 C 0 km/h
268 23-06-2008 05:37:06 16.2 C 8.55 g/m*3 16.2 C 0 km/h
269 23-06-2008 05:49:06 16.4 C 8.79 g/m*3 16.4 C 0 km/h
270 23-06-2008 06:01:06 16.4 C 8.65 g/m*3 16.4 C 0 km/h
271 23-06-2008 06:13:06 16.3 C 8.46 g/m*3 16.3 C 0 km/h
272 23-06-2008 06:25:06 16 C 8.58 g/m*3 16 C 0 km/h
273 23-06-2008 06:37:06 15.8 C 8.48 g/m*3 15.8 C 0 km/h
274 23-06-2008 06:49:06 15.8 C 8.21 g/m*3 15.8 C 0 km/h
275 23-06-2008 07:01:06 15.7 C 7.76 g/m*3 15.7 C 0 km/h
Sensor: Nr:Datum:Temp:Abs-Feuchte:Windchill:Wind:
Aussen-T/F 276 23-06-2008 07:13:06 15.6 C 7.58 g/m*3 15.6 C 0 km/h
277 23-06-2008 07:25:06 15.7 C 7.23 g/m*3 15.7 C 0 km/h
278 23-06-2008 07:37:06 15.7 C 6.82 g/m*3 15.7 C 0 km/h
279 23-06-2008 07:49:06 15.7 C 6.56 g/m*3 15.7 C 0 km/h
280 23-06-2008 08:01:06 15.8 C 6.6 g/m*3 15.8 C 0 km/h
281 23-06-2008 08:13:06 16 C 5.72 g/m*3 16 C 0 km/h
282 23-06-2008 08:25:06 16.2 C 5.65 g/m*3 16.2 C 0 km/h
283 23-06-2008 08:37:06 16.2 C 5.65 g/m*3 16.2 C 0 km/h
284 23-06-2008 08:49:06 16.4 C 5.72 g/m*3 16.4 C 0 km/h
285 23-06-2008 09:01:03 16.6 C 6.07 g/m*3 16.6 C 0 km/h
286 23-06-2008 09:13:03 16.9 C 6.18 g/m*3 16.9 C 0 km/h
287 23-06-2008 09:25:03 17.2 C 6.15 g/m*3 17.2 C 0 km/h
288 23-06-2008 09:37:03 17.5 C 6.11 g/m*3 17.5 C 0 km/h
289 23-06-2008 09:49:02 17.7 C 6.04 g/m*3 17.7 C 0 km/h
290 23-06-2008 10:01:02 17.9 C 6.11 g/m*3 17.9 C 0 km/h
291 23-06-2008 10:13:02 18.6 C 6.05 g/m*3 18.6 C 0 km/h
292 23-06-2008 10:25:02 18.7 C 6.08 g/m*3 18.7 C 0 km/h
293 23-06-2008 10:37:01 19.6 C 6.25 g/m*3 19.6 C 0 km/h
294 23-06-2008 10:49:01 19.7 C 6.11 g/m*3 19.7 C 0 km/h
295 23-06-2008 11:01:02 20.1 C 6.08 g/m*3 20.1 C 0 km/h
296 23-06-2008 11:13:02 20.6 C 6.26 g/m*3 20.6 C 0 km/h
297 23-06-2008 11:25:01 21.2 C 6.12 g/m*3 21.2 C 0 km/h
298 23-06-2008 11:37:02 21.3 C 5.78 g/m*3 21.3 C 0 km/h
299 23-06-2008 11:49:02 21.9 C 6.18 g/m*3 21.9 C 0 km/h
300 23-06-2008 12:01:02 22.2 C 5.69 g/m*3 22.2 C 0 km/h
Sensor: Nr:Datum:Temp:Abs-Feuchte:Windchill:Wind:
Aussen-T/F 301 23-06-2008 12:13:02 22.9 C 5.72 g/m*3 22.9 C 0 km/h
302 23-06-2008 12:25:02 24.7 C 5.66 g/m*3 24.7 C 0 km/h
303 23-06-2008 12:37:02 24.8 C 5.69 g/m*3 24.8 C 0 km/h
304 23-06-2008 12:49:02 26.2 C 5.42 g/m*3 26.2 C 0 km/h
305 23-06-2008 13:01:01 26 C 5.11 g/m*3 26 C 0 km/h
306 23-06-2008 13:13:01 26.5 C 5.01 g/m*3 26.5 C 0 km/h
307 23-06-2008 13:25:02 28 C 5.44 g/m*3 28 C 0 km/h
308 23-06-2008 13:37:01 27.7 C 5.35 g/m*3 27.7 C 0 km/h
309 23-06-2008 13:49:02 27.9 C 5.41 g/m*3 27.9 C 0 km/h
310 23-06-2008 14:01:01 26.6 C 5.03 g/m*3 26.6 C 0 km/h
311 23-06-2008 14:13:01 26.9 C 5.12 g/m*3 26.9 C 0 km/h
312 23-06-2008 14:25:02 26.7 C 5.06 g/m*3 26.7 C 0 km/h
313 23-06-2008 14:37:02 27.4 C 5.53 g/m*3 27.4 C 0 km/h
314 23-06-2008 14:49:02 28.7 C 5.65 g/m*3 28.7 C 0 km/h
315 23-06-2008 15:01:02 29.1 C 5.78 g/m*3 29.1 C 0 km/h
316 23-06-2008 15:13:02 30.2 C 6.13 g/m*3 30.2 C 0 km/h
317 23-06-2008 15:25:02 29.6 C 5.94 g/m*3 29.6 C 0 km/h
318 23-06-2008 15:37:02 28.9 C 5.71 g/m*3 28.9 C 0 km/h
319 23-06-2008 15:49:02 29 C 5.74 g/m*3 29 C 0 km/h
320 23-06-2008 16:01:02 29 C 5.74 g/m*3 29 C 0 km/h
321 23-06-2008 16:13:02 30.6 C 6.26 g/m*3 30.6 C 0 km/h
322 23-06-2008 16:25:01 31.3 C 6.5 g/m*3 31.3 C 0 km/h
323 23-06-2008 16:37:02 30.8 C 6.33 g/m*3 30.8 C 0 km/h
324 23-06-2008 16:49:02 30.3 C 6.16 g/m*3 30.3 C 0 km/h
325 23-06-2008 17:01:01 31 C 6.4 g/m*3 31 C 0 km/h
Sensor: Nr:Datum:Temp:Abs-Feuchte:Windchill:Wind:
Aussen-T/F 326 23-06-2008 17:13:01 30.3 C 6.16 g/m*3 30.3 C 0 km/h
327 23-06-2008 17:25:01 31.2 C 6.47 g/m*3 31.2 C 0 km/h
328 23-06-2008 17:37:02 30.7 C 6.3 g/m*3 30.7 C 0 km/h
329 23-06-2008 17:49:02 30.9 C 6.37 g/m*3 30.9 C 0 km/h
330 23-06-2008 18:01:02 30.4 C 6.2 g/m*3 30.4 C 0 km/h
331 23-06-2008 18:13:02 30.6 C 6.26 g/m*3 30.6 C 0 km/h
332 23-06-2008 18:25:02 31.2 C 6.47 g/m*3 31.2 C 0 km/h
333 23-06-2008 18:37:02 29.8 C 6 g/m*3 29.8 C 0 km/h
334 23-06-2008 18:49:04 30.1 C 6.1 g/m*3 30.1 C 0 km/h
335 23-06-2008 19:01:02 30.7 C 6.3 g/m*3 30.7 C 0 km/h
336 23-06-2008 19:13:02 29.5 C 5.9 g/m*3 29.5 C 0 km/h
337 23-06-2008 19:25:02 29 C 5.74 g/m*3 29 C 0 km/h
338 23-06-2008 19:37:02 26.6 C 5.03 g/m*3 26.6 C 0 km/h
339 23-06-2008 19:49:02 26.3 C 4.95 g/m*3 26.3 C 0 km/h
340 23-06-2008 20:01:01 25.9 C 5.33 g/m*3 25.9 C 0 km/h
341 23-06-2008 20:13:01 25.2 C 5.35 g/m*3 25.2 C 0 km/h
342 23-06-2008 20:25:01 25.2 C 5.59 g/m*3 25.2 C 0 km/h
343 23-06-2008 20:37:02 24.6 C 5.63 g/m*3 24.6 C 0 km/h
344 23-06-2008 20:49:02 24.6 C 5.63 g/m*3 24.6 C 0 km/h
345 23-06-2008 21:01:02 24.2 C 5.5 g/m*3 24.2 C 0 km/h
346 23-06-2008 21:13:02 23.9 C 5.84 g/m*3 23.9 C 0 km/h
347 23-06-2008 21:25:02 23.4 C 6.1 g/m*3 23.4 C 0 km/h
348 23-06-2008 21:37:02 22.9 C 6.13 g/m*3 22.9 C 0 km/h
349 23-06-2008 21:49:02 22 C 6.02 g/m*3 22 C 0 km/h
350 23-06-2008 22:01:02 21.2 C 6.3 g/m*3 21.2 C 0 km/h
Sensor: Nr:Datum:Temp:Abs-Feuchte:Windchill:Wind:
Aussen-T/F 351 23-06-2008 22:13:02 20.8 C 6.34 g/m*3 20.8 C 0 km/h
352 23-06-2008 22:25:02 20.7 C 6.3 g/m*3 20.7 C 0 km/h
353 23-06-2008 22:38:03 20.4 C 6.19 g/m*3 20.4 C 0 km/h
354 23-06-2008 22:50:03 20 C 6.39 g/m*3 20 C 0 km/h
355 23-06-2008 23:02:03 19.7 C 6.62 g/m*3 19.7 C 0 km/h
356 23-06-2008 23:14:03 19.7 C 6.62 g/m*3 19.7 C 0 km/h
357 23-06-2008 23:26:03 19.9 C 6.7 g/m*3 19.9 C 0 km/h
358 23-06-2008 23:38:03 19.9 C 6.7 g/m*3 19.9 C 0 km/h
359 23-06-2008 23:50:03 19.7 C 6.96 g/m*3 19.7 C 0 km/h
360 24-06-2008 00:02:03 19.7 C 7.13 g/m*3 19.7 C 0 km/h
361 24-06-2008 00:14:03 19 C 7.17 g/m*3 19 C 0 km/h
362 24-06-2008 00:26:03 19.3 C 7.3 g/m*3 19.3 C 0 km/h
363 24-06-2008 00:38:03 19.3 C 7.3 g/m*3 19.3 C 0 km/h
364 24-06-2008 00:50:03 19.3 C 7.3 g/m*3 19.3 C 0 km/h
365 24-06-2008 01:02:03 19.2 C 7.26 g/m*3 19.2 C 0 km/h
366 24-06-2008 01:14:03 18.9 C 7.45 g/m*3 18.9 C 0 km/h
367 24-06-2008 01:26:03 18.7 C 7.36 g/m*3 18.7 C 0 km/h
368 24-06-2008 01:38:04 18.8 C 7.41 g/m*3 18.8 C 0 km/h
369 24-06-2008 01:50:04 18.7 C 7.36 g/m*3 18.7 C 0 km/h
370 24-06-2008 02:02:04 18.3 C 7.51 g/m*3 18.3 C 0 km/h
371 24-06-2008 02:14:04 18.1 C 7.42 g/m*3 18.1 C 0 km/h
372 24-06-2008 02:26:04 17.8 C 7.44 g/m*3 17.8 C 0 km/h
373 24-06-2008 02:38:04 17.5 C 7.45 g/m*3 17.5 C 0 km/h
374 24-06-2008 02:50:04 17.1 C 7.42 g/m*3 17.1 C 0 km/h
375 24-06-2008 03:02:04 16.9 C 7.48 g/m*3 16.9 C 0 km/h
Sensor: Nr:Datum:Temp:Abs-Feuchte:Windchill:Wind:
Aussen-T/F 376 24-06-2008 03:14:04 16.6 C 7.49 g/m*3 16.6 C 0 km/h
377 24-06-2008 03:26:04 16.2 C 7.58 g/m*3 16.2 C 0 km/h
378 24-06-2008 03:38:04 16.1 C 7.68 g/m*3 16.1 C 0 km/h
379 24-06-2008 03:50:04 15.8 C 7.67 g/m*3 15.8 C 0 km/h
380 24-06-2008 04:02:04 15.7 C 7.76 g/m*3 15.7 C 0 km/h
381 24-06-2008 04:14:04 15.5 C 7.8 g/m*3 15.5 C 0 km/h
382 24-06-2008 04:26:04 15.4 C 7.75 g/m*3 15.4 C 0 km/h
383 24-06-2008 04:38:04 15.2 C 7.79 g/m*3 15.2 C 0 km/h
384 24-06-2008 04:50:04 15.1 C 7.87 g/m*3 15.1 C 0 km/h
385 24-06-2008 05:02:04 15 C 7.95 g/m*3 15 C 0 km/h
386 24-06-2008 05:14:04 14.8 C 7.98 g/m*3 14.8 C 0 km/h
387 24-06-2008 05:26:04 14.7 C 7.93 g/m*3 14.7 C 0 km/h
388 24-06-2008 05:38:04 14.6 C 8.13 g/m*3 14.6 C 0 km/h
389 24-06-2008 05:50:05 14.4 C 8.03 g/m*3 14.4 C 0 km/h
390 24-06-2008 06:02:05 14.7 C 8.18 g/m*3 14.7 C 0 km/h
391 24-06-2008 06:14:05 14.7 C 8.31 g/m*3 14.7 C 0 km/h
392 24-06-2008 06:26:05 15 C 8.21 g/m*3 15 C 0 km/h
393 24-06-2008 06:38:05 15.1 C 8.26 g/m*3 15.1 C 0 km/h
394 24-06-2008 06:50:05 15.2 C 8.44 g/m*3 15.2 C 0 km/h
395 24-06-2008 07:02:03 15.4 C 8.41 g/m*3 15.4 C 0 km/h
396 24-06-2008 07:14:03 15.5 C 8.59 g/m*3 15.5 C 0 km/h
397 24-06-2008 07:26:02 15.7 C 8.43 g/m*3 15.7 C 0 km/h
398 24-06-2008 07:38:02 15.7 C 8.43 g/m*3 15.7 C 0 km/h
399 24-06-2008 07:50:01 15.9 C 8.53 g/m*3 15.9 C 0 km/h
400 24-06-2008 08:02:02 16.1 C 8.36 g/m*3 16.1 C 0 km/h
Sensor: Nr:Datum:Temp:Abs-Feuchte:Windchill:Wind:
Aussen-T/F 401 24-06-2008 08:14:02 16.5 C 8.43 g/m*3 16.5 C 0 km/h
402 24-06-2008 08:26:01 16.8 C 8.58 g/m*3 16.8 C 0 km/h
403 24-06-2008 08:38:01 16.8 C 8.44 g/m*3 16.8 C 0 km/h
404 24-06-2008 08:50:02 17.7 C 8.15 g/m*3 17.7 C 0 km/h
405 24-06-2008 09:02:03 18 C 7.99 g/m*3 18 C 0 km/h
406 24-06-2008 09:14:03 18.4 C 7.86 g/m*3 18.4 C 0 km/h
407 24-06-2008 09:26:03 19 C 7.82 g/m*3 19 C 0 km/h
408 24-06-2008 09:38:02 19.6 C 7.6 g/m*3 19.6 C 0 km/h
409 24-06-2008 09:50:02 20.1 C 7.3 g/m*3 20.1 C 0 km/h
410 24-06-2008 10:02:01 20.3 C 7.39 g/m*3 20.3 C 0 km/h
411 24-06-2008 10:14:01 20.8 C 7.42 g/m*3 20.8 C 0 km/h
412 24-06-2008 10:26:02 21.8 C 7.67 g/m*3 21.8 C 0 km/h
413 24-06-2008 10:38:02 22.8 C 7.32 g/m*3 22.8 C 0 km/h
414 24-06-2008 10:50:02 23.3 C 7.11 g/m*3 23.3 C 0 km/h
415 24-06-2008 11:02:02 23.4 C 6.94 g/m*3 23.4 C 0 km/h
416 24-06-2008 11:14:02 23.3 C 6.9 g/m*3 23.3 C 0 km/h
417 24-06-2008 11:26:02 24.4 C 6.9 g/m*3 24.4 C 0 km/h
418 24-06-2008 11:38:02 25 C 6.91 g/m*3 25 C 0 km/h
419 24-06-2008 11:50:01 25.6 C 6.9 g/m*3 25.6 C 0 km/h
420 24-06-2008 12:02:01 26.5 C 6.76 g/m*3 26.5 C 0 km/h
421 24-06-2008 12:14:01 27.3 C 6.54 g/m*3 27.3 C 0 km/h
422 24-06-2008 12:26:02 27.9 C 5.95 g/m*3 27.9 C 0 km/h
423 24-06-2008 12:38:01 27.7 C 5.62 g/m*3 27.7 C 0 km/h
424 24-06-2008 12:50:01 28.9 C 5.71 g/m*3 28.9 C 0 km/h
425 24-06-2008 13:02:02 29.7 C 5.97 g/m*3 29.7 C 0 km/h
Sensor: Nr:Datum:Temp:Abs-Feuchte:Windchill:Wind:
Aussen-T/F 426 24-06-2008 13:14:02 29.9 C 6.03 g/m*3 29.9 C 0 km/h
427 24-06-2008 13:26:02 30.4 C 6.2 g/m*3 30.4 C 0 km/h
428 24-06-2008 13:38:01 30.7 C 6.3 g/m*3 30.7 C 0 km/h
429 24-06-2008 13:50:01 30.4 C 6.2 g/m*3 30.4 C 0 km/h
430 24-06-2008 14:02:02 30.4 C 6.2 g/m*3 30.4 C 0 km/h
431 24-06-2008 14:14:02 29.3 C 5.84 g/m*3 29.3 C 0 km/h
432 24-06-2008 14:26:02 29.2 C 6.39 g/m*3 29.2 C 0 km/h
433 24-06-2008 14:38:01 29.1 C 6.35 g/m*3 29.1 C 0 km/h
434 24-06-2008 14:50:01 29.7 C 6.86 g/m*3 29.7 C 0 km/h
435 24-06-2008 15:02:02 29.4 C 6.75 g/m*3 29.4 C 0 km/h
436 24-06-2008 15:14:02 29.8 C 6.9 g/m*3 29.8 C 0 km/h
437 24-06-2008 15:26:02 30.6 C 6.58 g/m*3 30.6 C 0 km/h
438 24-06-2008 15:38:01 30.6 C 6.26 g/m*3 30.6 C 0 km/h
439 24-06-2008 15:50:01 30.9 C 6.68 g/m*3 30.9 C 0 km/h
440 24-06-2008 16:02:02 31.2 C 6.47 g/m*3 31.2 C 0 km/h
441 24-06-2008 16:14:02 31 C 6.4 g/m*3 31 C 0 km/h
442 24-06-2008 16:26:01 31.2 C 6.47 g/m*3 31.2 C 0 km/h
443 24-06-2008 16:38:02 31.5 C 6.57 g/m*3 31.5 C 0 km/h
444 24-06-2008 16:50:03 31.4 C 6.54 g/m*3 31.4 C 0 km/h
445 24-06-2008 17:02:02 32.5 C 6.93 g/m*3 32.5 C 0 km/h
446 24-06-2008 17:14:02 32.2 C 6.82 g/m*3 32.2 C 0 km/h
447 24-06-2008 17:26:02 32.1 C 6.79 g/m*3 32.1 C 0 km/h
448 24-06-2008 17:38:03 32.9 C 7.08 g/m*3 32.9 C 0 km/h
449 24-06-2008 17:50:02 33.1 C 7.16 g/m*3 33.1 C 0 km/h
450 24-06-2008 18:02:02 33.5 C 7.31 g/m*3 33.5 C 0 km/h
Sensor: Nr:Datum:Temp:Abs-Feuchte:Windchill:Wind:
Aussen-T/F 451 24-06-2008 18:14:02 33.3 C 7.23 g/m*3 33.3 C 0 km/h
452 24-06-2008 18:26:02 33.2 C 7.2 g/m*3 33.2 C 0 km/h
453 24-06-2008 18:38:02 33.3 C 7.23 g/m*3 33.3 C 0 km/h
454 24-06-2008 18:50:02 33.5 C 7.31 g/m*3 33.5 C 0 km/h
455 24-06-2008 19:02:01 33.2 C 7.2 g/m*3 33.2 C 0 km/h
456 24-06-2008 19:14:01 32.9 C 7.08 g/m*3 32.9 C 0 km/h
457 24-06-2008 19:26:01 32.8 C 7.04 g/m*3 32.8 C 0 km/h
458 24-06-2008 19:38:02 32.1 C 7.13 g/m*3 32.1 C 0 km/h
459 24-06-2008 19:50:03 31.3 C 8.46 g/m*3 31.3 C 0 km/h
460 24-06-2008 20:02:02 30.8 C 8.86 g/m*3 30.8 C 0 km/h
461 24-06-2008 20:14:02 30.6 C 8.77 g/m*3 30.6 C 0 km/h
462 24-06-2008 20:26:02 30.3 C 9.25 g/m*3 30.3 C 0 km/h
463 24-06-2008 20:38:02 29.5 C 9.44 g/m*3 29.5 C 0 km/h
464 24-06-2008 20:50:02 28.8 C 9.66 g/m*3 28.8 C 0 km/h
465 24-06-2008 21:02:02 28 C 9.52 g/m*3 28 C 0 km/h
466 24-06-2008 21:14:02 27.3 C 9.42 g/m*3 27.3 C 0 km/h
467 24-06-2008 21:26:01 26.6 C 9.31 g/m*3 26.6 C 0 km/h
468 24-06-2008 21:38:02 25.9 C 9.2 g/m*3 25.9 C 0 km/h
469 24-06-2008 21:50:02 25.6 C 9.28 g/m*3 25.6 C 0 km/h
470 24-06-2008 22:02:01 25.1 C 9.03 g/m*3 25.1 C 0 km/h
471 24-06-2008 22:14:01 24.8 C 9.33 g/m*3 24.8 C 0 km/h
472 24-06-2008 22:27:02 24.5 C 9.18 g/m*3 24.5 C 0 km/h
473 24-06-2008 22:39:02 24.1 C 8.97 g/m*3 24.1 C 0 km/h
474 24-06-2008 22:51:02 24.1 C 8.97 g/m*3 24.1 C 0 km/h
475 24-06-2008 23:03:02 23.9 C 9.3 g/m*3 23.9 C 0 km/h
Sensor: Nr:Datum:Temp:Abs-Feuchte:Windchill:Wind:
Aussen-T/F 476 24-06-2008 23:15:02 23.9 C 9.09 g/m*3 23.9 C 0 km/h
477 24-06-2008 23:27:02 23.9 C 9.09 g/m*3 23.9 C 0 km/h
478 24-06-2008 23:39:02 23.8 C 9.03 g/m*3 23.8 C 0 km/h
479 24-06-2008 23:51:02 23.5 C 9.09 g/m*3 23.5 C 0 km/h
480 25-06-2008 00:03:02 23.4 C 9.04 g/m*3 23.4 C 0 km/h
481 25-06-2008 00:15:02 23.4 C 9.25 g/m*3 23.4 C 0 km/h
482 25-06-2008 00:27:02 23.5 C 9.31 g/m*3 23.5 C 0 km/h
483 25-06-2008 00:39:02 23.3 C 9.41 g/m*3 23.3 C 0 km/h
484 25-06-2008 00:51:02 23.1 C 9.72 g/m*3 23.1 C 0 km/h
485 25-06-2008 01:03:02 22.9 C 9.61 g/m*3 22.9 C 0 km/h
486 25-06-2008 01:15:02 22.9 C 10.01 g/m*3 22.9 C 0 km/h
487 25-06-2008 01:27:02 22.9 C 9.81 g/m*3 22.9 C 0 km/h
488 25-06-2008 01:39:02 22.8 C 9.75 g/m*3 22.8 C 0 km/h
489 25-06-2008 01:51:02 22.7 C 9.9 g/m*3 22.7 C 0 km/h
490 25-06-2008 02:03:03 22.3 C 9.68 g/m*3 22.3 C 0 km/h
491 25-06-2008 02:15:03 22 C 9.9 g/m*3 22 C 0 km/h
492 25-06-2008 02:27:03 21.9 C 10.23 g/m*3 21.9 C 0 km/h
493 25-06-2008 02:39:03 21.9 C 10.23 g/m*3 21.9 C 0 km/h
494 25-06-2008 02:51:03 21.7 C 10.3 g/m*3 21.7 C 0 km/h
495 25-06-2008 03:03:03 21.5 C 10.18 g/m*3 21.5 C 0 km/h
496 25-06-2008 03:15:03 21.3 C 10.62 g/m*3 21.3 C 0 km/h
497 25-06-2008 03:27:03 21.2 C 10.75 g/m*3 21.2 C 0 km/h
498 25-06-2008 03:39:03 21.2 C 10.75 g/m*3 21.2 C 0 km/h
499 25-06-2008 03:51:03 21.3 C 10.62 g/m*3 21.3 C 0 km/h
500 25-06-2008 04:03:03 21.4 C 10.69 g/m*3 21.4 C 0 km/h
Sensor: Nr:Datum:Temp:Abs-Feuchte:Windchill:Wind:
Aussen-T/F 501 25-06-2008 04:15:03 21.3 C 10.81 g/m*3 21.3 C 0 km/h
502 25-06-2008 04:27:03 21.2 C 11.12 g/m*3 21.2 C 0 km/h
503 25-06-2008 04:39:03 19.7 C 12.23 g/m*3 19.7 C 0 km/h
504 25-06-2008 04:51:03 19.8 C 12.81 g/m*3 19.8 C 0 km/h
505 25-06-2008 05:03:03 19.8 C 12.64 g/m*3 19.8 C 0 km/h
506 25-06-2008 05:15:03 20 C 12.62 g/m*3 20 C 0 km/h
507 25-06-2008 05:27:03 19.9 C 12.37 g/m*3 19.9 C 0 km/h
508 25-06-2008 05:39:03 20 C 12.27 g/m*3 20 C 0 km/h
509 25-06-2008 05:51:03 20.1 C 11.99 g/m*3 20.1 C 0 km/h
510 25-06-2008 06:03:04 20.3 C 11.96 g/m*3 20.3 C 0 km/h
511 25-06-2008 06:15:04 20.4 C 11.85 g/m*3 20.4 C 0 km/h
512 25-06-2008 06:27:04 20.3 C 11.96 g/m*3 20.3 C 0 km/h
513 25-06-2008 06:39:04 20.4 C 12.03 g/m*3 20.4 C 0 km/h
514 25-06-2008 06:51:04 20.5 C 12.1 g/m*3 20.5 C 0 km/h
515 25-06-2008 07:03:02 20.9 C 12.02 g/m*3 20.9 C 0 km/h
516 25-06-2008 07:15:01 21.1 C 11.79 g/m*3 21.1 C 0 km/h
517 25-06-2008 07:27:01 21.5 C 11.88 g/m*3 21.5 C 0 km/h
518 25-06-2008 07:39:01 21.8 C 11.9 g/m*3 21.8 C 0 km/h
519 25-06-2008 07:51:02 22 C 11.84 g/m*3 22 C 0 km/h
520 25-06-2008 08:03:02 21.6 C 11.95 g/m*3 21.6 C 0 km/h
521 25-06-2008 08:15:02 21.7 C 11.83 g/m*3 21.7 C 0 km/h
522 25-06-2008 08:27:02 22.1 C 11.71 g/m*3 22.1 C 0 km/h
523 25-06-2008 08:39:03 22.7 C 12.12 g/m*3 22.7 C 0 km/h
524 25-06-2008 08:51:03 23.5 C 11.63 g/m*3 23.5 C 0 km/h
525 25-06-2008 09:03:03 24 C 11.75 g/m*3 24 C 0 km/h
Sensor: Nr:Datum:Temp:Abs-Feuchte:Windchill:Wind:
Aussen-T/F 526 25-06-2008 09:15:02 24.5 C 11.64 g/m*3 24.5 C 0 km/h
527 25-06-2008 09:27:02 24.8 C 11.38 g/m*3 24.8 C 0 km/h
528 25-06-2008 09:39:02 25.1 C 11.57 g/m*3 25.1 C 0 km/h
529 25-06-2008 09:51:02 25.8 C 11.56 g/m*3 25.8 C 0 km/h
530 25-06-2008 10:03:01 26.5 C 11.51 g/m*3 26.5 C 0 km/h
531 25-06-2008 10:15:02 25 C 11.05 g/m*3 25 C 0 km/h
532 25-06-2008 10:27:02 25 C 10.82 g/m*3 25 C 0 km/h
533 25-06-2008 10:39:02 25.6 C 10.71 g/m*3 25.6 C 0 km/h
534 25-06-2008 10:51:02 27.5 C 10.58 g/m*3 27.5 C 0 km/h
535 25-06-2008 11:03:02 27.8 C 10.76 g/m*3 27.8 C 0 km/h
536 25-06-2008 11:15:02 27.9 C 10.82 g/m*3 27.9 C 0 km/h
537 25-06-2008 11:27:02 26.3 C 11.39 g/m*3 26.3 C 0 km/h
538 25-06-2008 11:39:02 26.1 C 11.75 g/m*3 26.1 C 0 km/h
539 25-06-2008 11:51:02 25.6 C 12.38 g/m*3 25.6 C 0 km/h
540 25-06-2008 12:03:02 24.2 C 13.64 g/m*3 24.2 C 0 km/h
541 25-06-2008 12:15:03 22.7 C 14.14 g/m*3 22.7 C 0 km/h
542 25-06-2008 12:27:03 22.6 C 13.46 g/m*3 22.6 C 0 km/h
543 25-06-2008 12:39:02 21.9 C 14.28 g/m*3 21.9 C 0 km/h
544 25-06-2008 12:51:02 21.2 C 15.38 g/m*3 21.2 C 0 km/h
545 25-06-2008 13:03:01 21 C 15.57 g/m*3 21 C 0 km/h
546 25-06-2008 13:15:02 21.6 C 16.31 g/m*3 21.6 C 0 km/h
547 25-06-2008 13:27:02 21.4 C 15.94 g/m*3 21.4 C 0 km/h
548 25-06-2008 13:39:02 21.6 C 16.12 g/m*3 21.6 C 0 km/h
549 25-06-2008 13:51:02 22.1 C 16.01 g/m*3 22.1 C 0 km/h
550 25-06-2008 14:03:02 22.1 C 16.01 g/m*3 22.1 C 0 km/h
Sensor: Nr:Datum:Temp:Abs-Feuchte:Windchill:Wind:
Aussen-T/F 551 25-06-2008 14:15:02 21.9 C 15.82 g/m*3 21.9 C 0 km/h
552 25-06-2008 14:27:02 22.1 C 16.01 g/m*3 22.1 C 0 km/h
553 25-06-2008 14:39:03 21.4 C 15.56 g/m*3 21.4 C 0 km/h
554 25-06-2008 14:51:02 21.3 C 15.84 g/m*3 21.3 C 0 km/h
555 25-06-2008 15:03:02 21 C 15.57 g/m*3 21 C 0 km/h
556 25-06-2008 15:15:02 21.1 C 16.03 g/m*3 21.1 C 0 km/h
557 25-06-2008 15:27:02 21.6 C 16.5 g/m*3 21.6 C 0 km/h
558 25-06-2008 15:39:02 22.1 C 16.4 g/m*3 22.1 C 0 km/h
559 25-06-2008 15:51:02 23.4 C 17.03 g/m*3 23.4 C 0 km/h
560 25-06-2008 16:03:02 23.4 C 15.98 g/m*3 23.4 C 0 km/h
561 25-06-2008 16:15:02 23.8 C 16.35 g/m*3 23.8 C 0 km/h
562 25-06-2008 16:27:02 22.4 C 15.89 g/m*3 22.4 C 0 km/h
563 25-06-2008 16:39:02 22.1 C 16.4 g/m*3 22.1 C 0 km/h
564 25-06-2008 16:51:02 22.2 C 16.49 g/m*3 22.2 C 0 km/h
565 25-06-2008 17:03:02 22.3 C 16.39 g/m*3 22.3 C 0 km/h
566 25-06-2008 17:15:02 22.5 C 16.58 g/m*3 22.5 C 0 km/h
567 25-06-2008 17:27:02 23.3 C 15.89 g/m*3 23.3 C 0 km/h
568 25-06-2008 17:39:02 24.5 C 15.67 g/m*3 24.5 C 0 km/h
569 25-06-2008 17:51:02 25.8 C 15.65 g/m*3 25.8 C 0 km/h
570 25-06-2008 18:03:02 26.5 C 14.27 g/m*3 26.5 C 0 km/h
571 25-06-2008 18:15:02 26.9 C 12.8 g/m*3 26.9 C 0 km/h
572 25-06-2008 18:27:02 27.3 C 12.04 g/m*3 27.3 C 0 km/h
573 25-06-2008 18:39:02 27.4 C 11.84 g/m*3 27.4 C 0 km/h
574 25-06-2008 18:51:01 27.4 C 11.31 g/m*3 27.4 C 0 km/h
575 25-06-2008 19:03:01 26.9 C 10.75 g/m*3 26.9 C 0 km/h
Sensor: Nr:Datum:Temp:Abs-Feuchte:Windchill:Wind:
Aussen-T/F 576 25-06-2008 19:15:02 25.3 C 10.77 g/m*3 25.3 C 0 km/h
577 25-06-2008 19:27:02 25.4 C 10.59 g/m*3 25.4 C 0 km/h
578 25-06-2008 19:39:02 25 C 11.05 g/m*3 25 C 0 km/h
579 25-06-2008 19:51:03 25.2 C 10.94 g/m*3 25.2 C 0 km/h
580 25-06-2008 20:03:02 25.4 C 10.83 g/m*3 25.4 C 0 km/h
581 25-06-2008 20:15:01 25.1 C 9.95 g/m*3 25.1 C 0 km/h
582 25-06-2008 20:27:01 24.7 C 10.41 g/m*3 24.7 C 0 km/h
583 25-06-2008 20:39:02 24.3 C 9.74 g/m*3 24.3 C 0 km/h
584 25-06-2008 20:51:02 23.6 C 10.42 g/m*3 23.6 C 0 km/h
585 25-06-2008 21:03:01 23 C 11.1 g/m*3 23 C 0 km/h
586 25-06-2008 21:15:01 22.5 C 10.99 g/m*3 22.5 C 0 km/h
587 25-06-2008 21:27:01 22 C 10.09 g/m*3 22 C 0 km/h
588 25-06-2008 21:39:02 21.6 C 10.05 g/m*3 21.6 C 0 km/h
589 25-06-2008 21:51:02 21 C 10.44 g/m*3 21 C 0 km/h
590 25-06-2008 22:03:02 20.9 C 9.29 g/m*3 20.9 C 0 km/h
591 25-06-2008 22:15:01 20.6 C 9.31 g/m*3 20.6 C 0 km/h
592 25-06-2008 22:27:01 20.4 C 8.31 g/m*3 20.4 C 0 km/h
593 25-06-2008 22:39:02 19.8 C 8.54 g/m*3 19.8 C 0 km/h
594 25-06-2008 22:51:03 19.5 C 7.89 g/m*3 19.5 C 0 km/h
595 25-06-2008 23:03:02 19.3 C 7.63 g/m*3 19.3 C 0 km/h
596 25-06-2008 23:16:02 19 C 7.82 g/m*3 19 C 0 km/h
597 25-06-2008 23:28:02 18.6 C 7.96 g/m*3 18.6 C 0 km/h
598 25-06-2008 23:40:02 18.3 C 7.97 g/m*3 18.3 C 0 km/h
599 25-06-2008 23:52:02 18 C 7.99 g/m*3 18 C 0 km/h
600 26-06-2008 00:04:02 17.8 C 8.35 g/m*3 17.8 C 0 km/h
Sensor: Nr:Datum:Temp:Abs-Feuchte:Windchill:Wind:
Aussen-T/F 601 26-06-2008 00:16:02 17.7 C 8.3 g/m*3 17.7 C 0 km/h
602 26-06-2008 00:28:02 17.4 C 8.45 g/m*3 17.4 C 0 km/h
603 26-06-2008 00:40:03 17.3 C 8.1 g/m*3 17.3 C 0 km/h
604 26-06-2008 00:52:03 17.2 C 8.35 g/m*3 17.2 C 0 km/h
605 26-06-2008 01:04:03 17 C 8.39 g/m*3 17 C 0 km/h
606 26-06-2008 01:16:03 16.6 C 8.76 g/m*3 16.6 C 0 km/h
607 26-06-2008 01:28:03 16.3 C 9.02 g/m*3 16.3 C 0 km/h
608 26-06-2008 01:40:03 15.8 C 9.29 g/m*3 15.8 C 0 km/h
609 26-06-2008 01:52:03 15.4 C 9.2 g/m*3 15.4 C 0 km/h
610 26-06-2008 02:04:03 15.1 C 9.16 g/m*3 15.1 C 0 km/h
611 26-06-2008 02:16:03 15 C 9.23 g/m*3 15 C 0 km/h
612 26-06-2008 02:28:03 14.8 C 9.25 g/m*3 14.8 C 0 km/h
613 26-06-2008 02:40:03 14.7 C 9.32 g/m*3 14.7 C 0 km/h
614 26-06-2008 02:52:03 14.4 C 9.39 g/m*3 14.4 C 0 km/h
615 26-06-2008 03:04:03 14.1 C 9.34 g/m*3 14.1 C 0 km/h
616 26-06-2008 03:16:03 13.9 C 9.47 g/m*3 13.9 C 0 km/h
617 26-06-2008 03:28:03 13.8 C 9.53 g/m*3 13.8 C 0 km/h
618 26-06-2008 03:40:03 13.8 C 9.41 g/m*3 13.8 C 0 km/h
619 26-06-2008 03:52:03 13.7 C 9.35 g/m*3 13.7 C 0 km/h
620 26-06-2008 04:04:03 13.4 C 9.3 g/m*3 13.4 C 0 km/h
621 26-06-2008 04:16:03 13.2 C 9.3 g/m*3 13.2 C 0 km/h
622 26-06-2008 04:28:04 12.9 C 9.24 g/m*3 12.9 C 0 km/h
623 26-06-2008 04:40:04 12.8 C 9.3 g/m*3 12.8 C 0 km/h
624 26-06-2008 04:52:04 12.6 C 9.29 g/m*3 12.6 C 0 km/h
625 26-06-2008 05:04:04 12.5 C 9.35 g/m*3 12.5 C 0 km/h
Sensor: Nr:Datum:Temp:Abs-Feuchte:Windchill:Wind:
Aussen-T/F 626 26-06-2008 05:16:04 12.2 C 9.17 g/m*3 12.2 C 0 km/h
627 26-06-2008 05:28:04 11.9 C 9.21 g/m*3 11.9 C 0 km/h
628 26-06-2008 05:40:04 11.7 C 9.1 g/m*3 11.7 C 0 km/h
629 26-06-2008 05:52:04 11.7 C 9.1 g/m*3 11.7 C 0 km/h
630 26-06-2008 06:04:04 11.8 C 9.26 g/m*3 11.8 C 0 km/h
631 26-06-2008 06:16:04 11.9 C 9.32 g/m*3 11.9 C 0 km/h
632 26-06-2008 06:28:04 11.9 C 9.21 g/m*3 11.9 C 0 km/h
633 26-06-2008 06:40:04 12 C 9.17 g/m*3 12 C 0 km/h
634 26-06-2008 06:52:04 12.1 C 9.22 g/m*3 12.1 C 0 km/h
635 26-06-2008 07:04:04 12.2 C 9.28 g/m*3 12.2 C 0 km/h
636 26-06-2008 07:16:02 12.5 C 9.35 g/m*3 12.5 C 0 km/h
637 26-06-2008 07:28:02 12.9 C 9.35 g/m*3 12.9 C 0 km/h
638 26-06-2008 07:40:03 13.1 C 9.24 g/m*3 13.1 C 0 km/h
639 26-06-2008 07:52:03 13.4 C 9.3 g/m*3 13.4 C 0 km/h
640 26-06-2008 08:04:02 13.5 C 9.36 g/m*3 13.5 C 0 km/h
641 26-06-2008 08:16:03 13.9 C 9.47 g/m*3 13.9 C 0 km/h
642 26-06-2008 08:28:03 14.3 C 9.21 g/m*3 14.3 C 0 km/h
643 26-06-2008 08:40:03 14.7 C 8.94 g/m*3 14.7 C 0 km/h
644 26-06-2008 08:52:02 15 C 8.59 g/m*3 15 C 0 km/h
645 26-06-2008 09:04:03 15.5 C 8.33 g/m*3 15.5 C 0 km/h
646 26-06-2008 09:16:02 16 C 8.31 g/m*3 16 C 0 km/h
647 26-06-2008 09:28:02 16.3 C 8.05 g/m*3 16.3 C 0 km/h
648 26-06-2008 09:40:02 16.8 C 8.29 g/m*3 16.8 C 0 km/h
649 26-06-2008 09:52:02 17.2 C 7.91 g/m*3 17.2 C 0 km/h
650 26-06-2008 10:04:02 17.8 C 8.04 g/m*3 17.8 C 0 km/h
Sensor: Nr:Datum:Temp:Abs-Feuchte:Windchill:Wind:
Aussen-T/F 651 26-06-2008 10:16:02 18.1 C 6.95 g/m*3 18.1 C 0 km/h
652 26-06-2008 10:28:03 18.5 C 7.28 g/m*3 18.5 C 0 km/h
653 26-06-2008 10:40:02 18.8 C 6.6 g/m*3 18.8 C 0 km/h
654 26-06-2008 10:52:02 19.6 C 6.92 g/m*3 19.6 C 0 km/h
655 26-06-2008 11:04:03 20.3 C 6.51 g/m*3 20.3 C 0 km/h
656 26-06-2008 11:16:03 20.7 C 6.66 g/m*3 20.7 C 0 km/h
657 26-06-2008 11:28:04 21.1 C 6.45 g/m*3 21.1 C 0 km/h
658 26-06-2008 11:40:02 21.6 C 6.26 g/m*3 21.6 C 0 km/h
659 26-06-2008 11:52:02 22.1 C 6.05 g/m*3 22.1 C 0 km/h
660 26-06-2008 12:04:02 22.4 C 6.16 g/m*3 22.4 C 0 km/h
661 26-06-2008 12:16:02 23.4 C 6.31 g/m*3 23.4 C 0 km/h
662 26-06-2008 12:28:03 23.6 C 5.74 g/m*3 23.6 C 0 km/h
663 26-06-2008 12:40:02 24.5 C 5.6 g/m*3 24.5 C 0 km/h
664 26-06-2008 12:52:02 24.5 C 5.82 g/m*3 24.5 C 0 km/h
665 26-06-2008 13:04:03 24.2 C 5.72 g/m*3 24.2 C 0 km/h
666 26-06-2008 13:16:03 25.8 C 5.78 g/m*3 25.8 C 0 km/h
667 26-06-2008 13:28:03 26.1 C 5.14 g/m*3 26.1 C 0 km/h
668 26-06-2008 13:40:02 27.2 C 5.2 g/m*3 27.2 C 0 km/h
669 26-06-2008 13:52:02 26.9 C 5.12 g/m*3 26.9 C 0 km/h
670 26-06-2008 14:04:02 26.3 C 4.95 g/m*3 26.3 C 0 km/h
671 26-06-2008 14:16:02 25.7 C 5.03 g/m*3 25.7 C 0 km/h
672 26-06-2008 14:28:02 26.2 C 5.42 g/m*3 26.2 C 0 km/h
673 26-06-2008 14:40:02 26.1 C 5.14 g/m*3 26.1 C 0 km/h
674 26-06-2008 14:52:01 26.9 C 5.37 g/m*3 26.9 C 0 km/h
675 26-06-2008 15:04:01 27.1 C 5.18 g/m*3 27.1 C 0 km/h
Sensor: Nr:Datum:Temp:Abs-Feuchte:Windchill:Wind:
Aussen-T/F 676 26-06-2008 15:16:02 27.6 C 5.32 g/m*3 27.6 C 0 km/h
677 26-06-2008 15:28:02 27 C 5.15 g/m*3 27 C 0 km/h
678 26-06-2008 15:40:01 28 C 5.44 g/m*3 28 C 0 km/h
679 26-06-2008 15:52:02 28 C 5.44 g/m*3 28 C 0 km/h
680 26-06-2008 16:04:01 28.6 C 5.62 g/m*3 28.6 C 0 km/h
681 26-06-2008 16:16:02 28.7 C 5.65 g/m*3 28.7 C 0 km/h
682 26-06-2008 16:28:02 28.4 C 5.56 g/m*3 28.4 C 0 km/h
683 26-06-2008 16:40:02 28.6 C 5.62 g/m*3 28.6 C 0 km/h
684 26-06-2008 16:52:02 29.1 C 5.78 g/m*3 29.1 C 0 km/h
685 26-06-2008 17:04:03 28.8 C 5.68 g/m*3 28.8 C 0 km/h
686 26-06-2008 17:16:03 29.6 C 5.94 g/m*3 29.6 C 0 km/h
687 26-06-2008 17:28:03 29.4 C 5.87 g/m*3 29.4 C 0 km/h
688 26-06-2008 17:40:02 28.4 C 5.84 g/m*3 28.4 C 0 km/h
689 26-06-2008 17:52:01 29.4 C 5.87 g/m*3 29.4 C 0 km/h
690 26-06-2008 18:04:02 28.7 C 5.65 g/m*3 28.7 C 0 km/h
691 26-06-2008 18:16:01 29 C 5.74 g/m*3 29 C 0 km/h
692 26-06-2008 18:28:01 28.2 C 6.05 g/m*3 28.2 C 0 km/h
693 26-06-2008 18:40:01 28.6 C 5.9 g/m*3 28.6 C 0 km/h
694 26-06-2008 18:52:01 27.8 C 5.92 g/m*3 27.8 C 0 km/h
695 26-06-2008 19:04:02 28.6 C 5.9 g/m*3 28.6 C 0 km/h
696 26-06-2008 19:16:02 28.3 C 5.81 g/m*3 28.3 C 0 km/h
697 26-06-2008 19:28:02 27.8 C 5.65 g/m*3 27.8 C 0 km/h
698 26-06-2008 19:40:01 27.2 C 5.46 g/m*3 27.2 C 0 km/h
699 26-06-2008 19:52:01 26.8 C 5.85 g/m*3 26.8 C 0 km/h
700 26-06-2008 20:04:02 27.2 C 5.99 g/m*3 27.2 C 0 km/h
Sensor: Nr:Datum:Temp:Abs-Feuchte:Windchill:Wind:
Aussen-T/F 701 26-06-2008 20:16:02 26.9 C 5.89 g/m*3 26.9 C 0 km/h
702 26-06-2008 20:28:02 26.7 C 6.33 g/m*3 26.7 C 0 km/h
703 26-06-2008 20:40:01 26.6 C 6.54 g/m*3 26.6 C 0 km/h
704 26-06-2008 20:52:01 25.4 C 6.36 g/m*3 25.4 C 0 km/h
705 26-06-2008 21:04:02 24.4 C 6.23 g/m*3 24.4 C 0 km/h
706 26-06-2008 21:16:02 23.7 C 6.63 g/m*3 23.7 C 0 km/h
707 26-06-2008 21:28:02 23 C 6.58 g/m*3 23 C 0 km/h
708 26-06-2008 21:40:01 22.5 C 6.99 g/m*3 22.5 C 0 km/h
709 26-06-2008 21:52:01 22.1 C 7.22 g/m*3 22.1 C 0 km/h
710 26-06-2008 22:04:02 21.3 C 7.08 g/m*3 21.3 C 0 km/h
711 26-06-2008 22:16:01 20.8 C 7.42 g/m*3 20.8 C 0 km/h
712 26-06-2008 22:28:01 20.4 C 7.43 g/m*3 20.4 C 0 km/h
713 26-06-2008 22:40:01 20.2 C 7.52 g/m*3 20.2 C 0 km/h
714 26-06-2008 22:53:02 20 C 7.78 g/m*3 20 C 0 km/h
715 26-06-2008 23:05:02 19.8 C 8.03 g/m*3 19.8 C 0 km/h
716 26-06-2008 23:17:02 19.8 C 8.03 g/m*3 19.8 C 0 km/h
717 26-06-2008 23:29:02 19.4 C 8.01 g/m*3 19.4 C 0 km/h
718 26-06-2008 23:41:02 19.1 C 8.03 g/m*3 19.1 C 0 km/h
719 26-06-2008 23:53:02 18.7 C 8.01 g/m*3 18.7 C 0 km/h
720 27-06-2008 00:05:02 18.3 C 8.13 g/m*3 18.3 C 0 km/h
721 27-06-2008 00:17:02 17.9 C 8.24 g/m*3 17.9 C 0 km/h
722 27-06-2008 00:29:02 17.6 C 8.4 g/m*3 17.6 C 0 km/h
723 27-06-2008 00:41:03 17.4 C 8.3 g/m*3 17.4 C 0 km/h
724 27-06-2008 00:53:03 17.3 C 8.4 g/m*3 17.3 C 0 km/h
725 27-06-2008 01:05:03 17.2 C 8.49 g/m*3 17.2 C 0 km/h
Sensor: Nr:Datum:Temp:Abs-Feuchte:Windchill:Wind:
Aussen-T/F 726 27-06-2008 01:17:03 17.1 C 8.3 g/m*3 17.1 C 0 km/h
727 27-06-2008 01:29:03 16.8 C 8.72 g/m*3 16.8 C 0 km/h
728 27-06-2008 01:41:03 16.6 C 8.76 g/m*3 16.6 C 0 km/h
729 27-06-2008 01:53:03 16.3 C 8.6 g/m*3 16.3 C 0 km/h
730 27-06-2008 02:05:03 15.9 C 8.67 g/m*3 15.9 C 0 km/h
731 27-06-2008 02:17:03 15.8 C 8.75 g/m*3 15.8 C 0 km/h
732 27-06-2008 02:29:03 15.8 C 8.75 g/m*3 15.8 C 0 km/h
733 27-06-2008 02:41:03 15.8 C 8.75 g/m*3 15.8 C 0 km/h
734 27-06-2008 02:53:03 15.4 C 8.67 g/m*3 15.4 C 0 km/h
735 27-06-2008 03:05:03 15 C 8.72 g/m*3 15 C 0 km/h
736 27-06-2008 03:17:03 14.9 C 8.79 g/m*3 14.9 C 0 km/h
737 27-06-2008 03:29:03 14.9 C 8.79 g/m*3 14.9 C 0 km/h
738 27-06-2008 03:41:03 14.8 C 8.87 g/m*3 14.8 C 0 km/h
739 27-06-2008 03:53:03 14.7 C 8.81 g/m*3 14.7 C 0 km/h
740 27-06-2008 04:05:03 14.5 C 8.95 g/m*3 14.5 C 0 km/h
741 27-06-2008 04:17:03 14.5 C 8.95 g/m*3 14.5 C 0 km/h
742 27-06-2008 04:29:04 14.6 C 9.01 g/m*3 14.6 C 0 km/h
743 27-06-2008 04:41:04 14.5 C 8.95 g/m*3 14.5 C 0 km/h
744 27-06-2008 04:53:04 14.6 C 8.88 g/m*3 14.6 C 0 km/h
745 27-06-2008 05:05:04 14.6 C 9.01 g/m*3 14.6 C 0 km/h
746 27-06-2008 05:17:04 14.6 C 9.01 g/m*3 14.6 C 0 km/h
747 27-06-2008 05:29:04 14.5 C 9.08 g/m*3 14.5 C 0 km/h
748 27-06-2008 05:41:04 14.4 C 9.15 g/m*3 14.4 C 0 km/h
749 27-06-2008 05:53:04 14.5 C 9.2 g/m*3 14.5 C 0 km/h
750 27-06-2008 06:05:04 14.7 C 9.07 g/m*3 14.7 C 0 km/h
Sensor: Nr:Datum:Temp:Abs-Feuchte:Windchill:Wind:
Aussen-T/F 751 27-06-2008 06:17:04 14.9 C 9.05 g/m*3 14.9 C 0 km/h
752 27-06-2008 06:29:04 15.1 C 8.9 g/m*3 15.1 C 0 km/h
753 27-06-2008 06:41:04 15 C 8.85 g/m*3 15 C 0 km/h
754 27-06-2008 06:53:04 15.2 C 8.96 g/m*3 15.2 C 0 km/h
755 27-06-2008 07:05:02 15.2 C 8.83 g/m*3 15.2 C 0 km/h
756 27-06-2008 07:17:02 15.3 C 9.01 g/m*3 15.3 C 0 km/h
757 27-06-2008 07:29:03 15.3 C 9.14 g/m*3 15.3 C 0 km/h
758 27-06-2008 07:41:02 15.3 C 9.01 g/m*3 15.3 C 0 km/h
759 27-06-2008 07:53:02 15.2 C 9.35 g/m*3 15.2 C 0 km/h
760 27-06-2008 08:05:02 15.1 C 9.16 g/m*3 15.1 C 0 km/h
761 27-06-2008 08:17:02 15.1 C 8.39 g/m*3 15.1 C 0 km/h
762 27-06-2008 08:29:02 15.1 C 8.26 g/m*3 15.1 C 0 km/h
763 27-06-2008 08:41:02 15.6 C 7.98 g/m*3 15.6 C 0 km/h
764 27-06-2008 08:53:02 15.9 C 7.85 g/m*3 15.9 C 0 km/h
765 27-06-2008 09:05:02 16 C 7.77 g/m*3 16 C 0 km/h
766 27-06-2008 09:17:02 16.3 C 7.08 g/m*3 16.3 C 0 km/h
767 27-06-2008 09:29:02 16.7 C 6.82 g/m*3 16.7 C 0 km/h
768 27-06-2008 09:41:02 17 C 7.09 g/m*3 17 C 0 km/h
769 27-06-2008 09:53:02 17 C 6.95 g/m*3 17 C 0 km/h
770 27-06-2008 10:05:03 17.2 C 7.03 g/m*3 17.2 C 0 km/h
771 27-06-2008 10:17:02 17.2 C 7.03 g/m*3 17.2 C 0 km/h
772 27-06-2008 10:29:02 17.6 C 7.35 g/m*3 17.6 C 0 km/h
773 27-06-2008 10:41:02 17.9 C 7.33 g/m*3 17.9 C 0 km/h
774 27-06-2008 10:53:02 18.3 C 7.66 g/m*3 18.3 C 0 km/h
775 27-06-2008 11:05:03 19 C 7.66 g/m*3 19 C 0 km/h
Sensor: Nr:Datum:Temp:Abs-Feuchte:Windchill:Wind:
Aussen-T/F 776 27-06-2008 11:17:02 19.1 C 7.7 g/m*3 19.1 C 0 km/h
777 27-06-2008 11:29:02 18.8 C 8.05 g/m*3 18.8 C 0 km/h
778 27-06-2008 11:41:02 18.6 C 8.12 g/m*3 18.6 C 0 km/h
779 27-06-2008 11:53:02 18.6 C 8.28 g/m*3 18.6 C 0 km/h
780 27-06-2008 12:05:03 18.7 C 8.33 g/m*3 18.7 C 0 km/h
781 27-06-2008 12:17:02 19.3 C 8.46 g/m*3 19.3 C 0 km/h
782 27-06-2008 12:29:02 19.7 C 8.32 g/m*3 19.7 C 0 km/h
783 27-06-2008 12:41:02 20.8 C 8.33 g/m*3 20.8 C 0 km/h
784 27-06-2008 12:53:02 19.9 C 8.25 g/m*3 19.9 C 0 km/h
785 27-06-2008 13:05:03 20.1 C 8 g/m*3 20.1 C 0 km/h
786 27-06-2008 13:17:02 21.6 C 8.16 g/m*3 21.6 C 0 km/h
787 27-06-2008 13:29:02 20.8 C 7.97 g/m*3 20.8 C 0 km/h
788 27-06-2008 13:41:02 23.8 C 7.53 g/m*3 23.8 C 0 km/h
789 27-06-2008 13:53:02 23.7 C 6.84 g/m*3 23.7 C 0 km/h
790 27-06-2008 14:05:03 23.5 C 6.98 g/m*3 23.5 C 0 km/h
791 27-06-2008 14:17:02 23.7 C 7.06 g/m*3 23.7 C 0 km/h
792 27-06-2008 14:29:02 23.3 C 7.32 g/m*3 23.3 C 0 km/h
793 27-06-2008 14:41:02 22.6 C 7.43 g/m*3 22.6 C 0 km/h
794 27-06-2008 14:53:02 22.3 C 7.7 g/m*3 22.3 C 0 km/h
795 27-06-2008 15:05:01 21.4 C 6.94 g/m*3 21.4 C 0 km/h
796 27-06-2008 15:17:02 21.2 C 7.97 g/m*3 21.2 C 0 km/h
797 27-06-2008 15:29:02 23.1 C 8.06 g/m*3 23.1 C 0 km/h
798 27-06-2008 15:41:03 23.3 C 7.74 g/m*3 23.3 C 0 km/h
799 27-06-2008 15:53:03 23.2 C 7.9 g/m*3 23.2 C 0 km/h
800 27-06-2008 16:05:03 22.9 C 8.17 g/m*3 22.9 C 0 km/h
Sensor: Nr:Datum:Temp:Abs-Feuchte:Windchill:Wind:
Aussen-T/F 801 27-06-2008 16:17:03 23.2 C 7.9 g/m*3 23.2 C 0 km/h
802 27-06-2008 16:29:03 22.3 C 7.7 g/m*3 22.3 C 0 km/h
803 27-06-2008 16:41:03 23.2 C 8.11 g/m*3 23.2 C 0 km/h
804 27-06-2008 16:53:02 24.2 C 7.7 g/m*3 24.2 C 0 km/h
805 27-06-2008 17:05:02 25.2 C 7.68 g/m*3 25.2 C 0 km/h
806 27-06-2008 17:17:02 24.8 C 7.97 g/m*3 24.8 C 0 km/h
807 27-06-2008 17:29:02 25.3 C 7.49 g/m*3 25.3 C 0 km/h
808 27-06-2008 17:41:02 24.3 C 7.3 g/m*3 24.3 C 0 km/h
809 27-06-2008 17:53:02 23.4 C 7.57 g/m*3 23.4 C 0 km/h
810 27-06-2008 18:05:03 23.2 C 8.11 g/m*3 23.2 C 0 km/h
811 27-06-2008 18:17:03 23.1 C 8.06 g/m*3 23.1 C 0 km/h
812 27-06-2008 18:29:03 22.5 C 8.39 g/m*3 22.5 C 0 km/h
813 27-06-2008 18:41:02 22.1 C 8.39 g/m*3 22.1 C 0 km/h
814 27-06-2008 18:53:01 21.8 C 8.63 g/m*3 21.8 C 0 km/h
815 27-06-2008 19:05:02 21.6 C 8.72 g/m*3 21.6 C 0 km/h
816 27-06-2008 19:17:01 21.5 C 8.67 g/m*3 21.5 C 0 km/h
817 27-06-2008 19:29:01 21.7 C 8.2 g/m*3 21.7 C 0 km/h
818 27-06-2008 19:41:01 21.3 C 8.2 g/m*3 21.3 C 0 km/h
819 27-06-2008 19:53:02 21 C 8.24 g/m*3 21 C 0 km/h
820 27-06-2008 20:05:02 21 C 8.43 g/m*3 21 C 0 km/h
821 27-06-2008 20:17:01 20.8 C 8.69 g/m*3 20.8 C 0 km/h
822 27-06-2008 20:29:01 20.8 C 8.69 g/m*3 20.8 C 0 km/h
823 27-06-2008 20:41:01 20.6 C 8.59 g/m*3 20.6 C 0 km/h
824 27-06-2008 20:53:01 20.3 C 8.79 g/m*3 20.3 C 0 km/h
825 27-06-2008 21:05:02 20.1 C 8.87 g/m*3 20.1 C 0 km/h
Sensor: Nr:Datum:Temp:Abs-Feuchte:Windchill:Wind:
Aussen-T/F 826 27-06-2008 21:17:01 20 C 8.99 g/m*3 20 C 0 km/h
827 27-06-2008 21:29:01 19.9 C 9.28 g/m*3 19.9 C 0 km/h
828 27-06-2008 21:41:02 19.8 C 9.39 g/m*3 19.8 C 0 km/h
829 27-06-2008 21:53:02 19.8 C 9.57 g/m*3 19.8 C 0 km/h
830 27-06-2008 22:05:01 19.4 C 9.68 g/m*3 19.4 C 0 km/h
831 27-06-2008 22:17:02 18.9 C 9.88 g/m*3 18.9 C 0 km/h
832 27-06-2008 22:29:03 18.7 C 10.09 g/m*3 18.7 C 0 km/h
833 27-06-2008 22:42:02 18.6 C 10.19 g/m*3 18.6 C 0 km/h
834 27-06-2008 22:54:02 18.4 C 10.22 g/m*3 18.4 C 0 km/h
835 27-06-2008 23:06:02 18.3 C 10.32 g/m*3 18.3 C 0 km/h
836 27-06-2008 23:18:02 18.1 C 10.2 g/m*3 18.1 C 0 km/h
837 27-06-2008 23:30:02 18.1 C 10.35 g/m*3 18.1 C 0 km/h
838 27-06-2008 23:42:02 18.2 C 10.41 g/m*3 18.2 C 0 km/h
839 27-06-2008 23:54:02 18.1 C 10.35 g/m*3 18.1 C 0 km/h
840 28-06-2008 00:06:02 18 C 10.29 g/m*3 18 C 0 km/h
841 28-06-2008 00:18:03 17.8 C 10.47 g/m*3 17.8 C 0 km/h
842 28-06-2008 00:30:03 17.7 C 10.41 g/m*3 17.7 C 0 km/h
843 28-06-2008 00:42:03 17.5 C 10.29 g/m*3 17.5 C 0 km/h
844 28-06-2008 00:54:03 17.3 C 10.31 g/m*3 17.3 C 0 km/h
845 28-06-2008 01:06:03 17.1 C 10.34 g/m*3 17.1 C 0 km/h
846 28-06-2008 01:18:03 17 C 10.42 g/m*3 17 C 0 km/h
847 28-06-2008 01:30:03 16.9 C 10.5 g/m*3 16.9 C 0 km/h
848 28-06-2008 01:42:03 17 C 10.56 g/m*3 17 C 0 km/h
849 28-06-2008 01:54:03 17.2 C 10.54 g/m*3 17.2 C 0 km/h
850 28-06-2008 02:06:03 17.3 C 10.61 g/m*3 17.3 C 0 km/h
Sensor: Nr:Datum:Temp:Abs-Feuchte:Windchill:Wind:
Aussen-T/F 851 28-06-2008 02:18:03 17.3 C 10.46 g/m*3 17.3 C 0 km/h
852 28-06-2008 02:30:03 17.5 C 10.44 g/m*3 17.5 C 0 km/h
853 28-06-2008 02:42:03 17.5 C 10.29 g/m*3 17.5 C 0 km/h
854 28-06-2008 02:54:03 17.4 C 10.23 g/m*3 17.4 C 0 km/h
855 28-06-2008 03:06:03 17.5 C 10.14 g/m*3 17.5 C 0 km/h
856 28-06-2008 03:18:03 17.4 C 10.23 g/m*3 17.4 C 0 km/h
857 28-06-2008 03:30:03 17.4 C 10.23 g/m*3 17.4 C 0 km/h
858 28-06-2008 03:42:03 17.4 C 10.23 g/m*3 17.4 C 0 km/h
859 28-06-2008 03:54:03 17.5 C 10.14 g/m*3 17.5 C 0 km/h
860 28-06-2008 04:06:03 17.5 C 9.99 g/m*3 17.5 C 0 km/h
861 28-06-2008 04:18:04 17.5 C 9.99 g/m*3 17.5 C 0 km/h
862 28-06-2008 04:30:04 17.5 C 9.99 g/m*3 17.5 C 0 km/h
863 28-06-2008 04:42:04 17.5 C 10.14 g/m*3 17.5 C 0 km/h
864 28-06-2008 04:54:04 17.5 C 9.99 g/m*3 17.5 C 0 km/h
865 28-06-2008 05:06:04 17.5 C 9.99 g/m*3 17.5 C 0 km/h
866 28-06-2008 05:18:04 17.6 C 9.9 g/m*3 17.6 C 0 km/h
867 28-06-2008 05:30:04 17.6 C 10.05 g/m*3 17.6 C 0 km/h
868 28-06-2008 05:42:04 17.6 C 9.9 g/m*3 17.6 C 0 km/h
869 28-06-2008 05:54:04 17.5 C 9.99 g/m*3 17.5 C 0 km/h
870 28-06-2008 06:06:04 17.5 C 9.99 g/m*3 17.5 C 0 km/h
871 28-06-2008 06:18:04 17.6 C 10.05 g/m*3 17.6 C 0 km/h
872 28-06-2008 06:30:04 17.6 C 10.05 g/m*3 17.6 C 0 km/h
873 28-06-2008 06:42:04 17.7 C 9.96 g/m*3 17.7 C 0 km/h
874 28-06-2008 06:54:04 17.7 C 10.11 g/m*3 17.7 C 0 km/h
875 28-06-2008 07:06:04 17.6 C 10.05 g/m*3 17.6 C 0 km/h
Sensor: Nr:Datum:Temp:Abs-Feuchte:Windchill:Wind:
Aussen-T/F 876 28-06-2008 07:18:04 17.7 C 10.11 g/m*3 17.7 C 0 km/h
877 28-06-2008 07:30:04 17.8 C 10.02 g/m*3 17.8 C 0 km/h
878 28-06-2008 07:42:04 18.2 C 9.79 g/m*3 18.2 C 0 km/h
879 28-06-2008 07:54:04 18.1 C 9.89 g/m*3 18.1 C 0 km/h
880 28-06-2008 08:06:05 18.1 C 9.89 g/m*3 18.1 C 0 km/h
881 28-06-2008 08:18:05 18.2 C 9.95 g/m*3 18.2 C 0 km/h
882 28-06-2008 08:30:05 18.7 C 9.93 g/m*3 18.7 C 0 km/h
883 28-06-2008 08:42:05 19.1 C 9.84 g/m*3 19.1 C 0 km/h
884 28-06-2008 08:54:02 19.2 C 10.06 g/m*3 19.2 C 0 km/h
885 28-06-2008 09:06:01 18.8 C 10.15 g/m*3 18.8 C 0 km/h
886 28-06-2008 09:18:01 18.9 C 10.21 g/m*3 18.9 C 0 km/h
887 28-06-2008 09:30:01 19 C 9.94 g/m*3 19 C 0 km/h
888 28-06-2008 09:42:02 18.7 C 10.09 g/m*3 18.7 C 0 km/h
889 28-06-2008 09:54:02 18.9 C 10.37 g/m*3 18.9 C 0 km/h
890 28-06-2008 10:06:02 18.7 C 10.41 g/m*3 18.7 C 0 km/h
891 28-06-2008 10:18:02 18.9 C 10.53 g/m*3 18.9 C 0 km/h
892 28-06-2008 10:30:02 19.3 C 10.28 g/m*3 19.3 C 0 km/h
893 28-06-2008 10:42:02 20.5 C 10.32 g/m*3 20.5 C 0 km/h
894 28-06-2008 10:54:02 20.3 C 10.2 g/m*3 20.3 C 0 km/h
895 28-06-2008 11:06:03 20.2 C 10.32 g/m*3 20.2 C 0 km/h
896 28-06-2008 11:18:02 20.6 C 10.38 g/m*3 20.6 C 0 km/h
897 28-06-2008 11:30:02 21.3 C 10.44 g/m*3 21.3 C 0 km/h
898 28-06-2008 11:42:03 21.4 C 10.12 g/m*3 21.4 C 0 km/h
899 28-06-2008 11:54:02 22.3 C 10.07 g/m*3 22.3 C 0 km/h
900 28-06-2008 12:06:02 22.8 C 10.16 g/m*3 22.8 C 0 km/h
Sensor: Nr:Datum:Temp:Abs-Feuchte:Windchill:Wind:
Aussen-T/F 901 28-06-2008 12:18:02 23.3 C 10.04 g/m*3 23.3 C 0 km/h
902 28-06-2008 12:30:02 23.3 C 9.41 g/m*3 23.3 C 0 km/h
903 28-06-2008 12:42:01 23.4 C 9.88 g/m*3 23.4 C 0 km/h
904 28-06-2008 12:54:02 23.4 C 10.09 g/m*3 23.4 C 0 km/h
905 28-06-2008 13:06:01 23.7 C 9.63 g/m*3 23.7 C 0 km/h
906 28-06-2008 13:18:02 26 C 9.49 g/m*3 26 C 0 km/h
907 28-06-2008 13:30:02 25.2 C 9.08 g/m*3 25.2 C 0 km/h
908 28-06-2008 13:42:02 25.7 C 9.1 g/m*3 25.7 C 0 km/h
909 28-06-2008 13:54:01 25.8 C 9.63 g/m*3 25.8 C 0 km/h
910 28-06-2008 14:06:02 23.8 C 9.68 g/m*3 23.8 C 0 km/h
911 28-06-2008 14:18:01 24.3 C 9.52 g/m*3 24.3 C 0 km/h
912 28-06-2008 14:30:01 23.7 C 9.84 g/m*3 23.7 C 0 km/h
913 28-06-2008 14:42:02 24 C 9.57 g/m*3 24 C 0 km/h
914 28-06-2008 14:54:02 24.1 C 9.63 g/m*3 24.1 C 0 km/h
915 28-06-2008 15:06:02 24.3 C 9.52 g/m*3 24.3 C 0 km/h
916 28-06-2008 15:18:02 24.1 C 9.19 g/m*3 24.1 C 0 km/h
917 28-06-2008 15:30:02 24.7 C 9.96 g/m*3 24.7 C 0 km/h
918 28-06-2008 15:42:02 24.2 C 9.68 g/m*3 24.2 C 0 km/h
919 28-06-2008 15:54:02 24 C 9.57 g/m*3 24 C 0 km/h
920 28-06-2008 16:06:03 24.9 C 9.61 g/m*3 24.9 C 0 km/h
921 28-06-2008 16:18:01 25.2 C 9.54 g/m*3 25.2 C 0 km/h
922 28-06-2008 16:30:01 25.6 C 10 g/m*3 25.6 C 0 km/h
923 28-06-2008 16:42:01 25.2 C 9.54 g/m*3 25.2 C 0 km/h
924 28-06-2008 16:54:01 26.6 C 9.57 g/m*3 26.6 C 0 km/h
925 28-06-2008 17:06:02 27.3 C 9.42 g/m*3 27.3 C 0 km/h
Sensor: Nr:Datum:Temp:Abs-Feuchte:Windchill:Wind:
Aussen-T/F 926 28-06-2008 17:18:02 25.9 C 8.96 g/m*3 25.9 C 0 km/h
927 28-06-2008 17:30:02 25.3 C 8.9 g/m*3 25.3 C 0 km/h
928 28-06-2008 17:42:02 24.8 C 9.1 g/m*3 24.8 C 0 km/h
929 28-06-2008 17:54:02 24.8 C 8.88 g/m*3 24.8 C 0 km/h
930 28-06-2008 18:06:02 26.3 C 8.66 g/m*3 26.3 C 0 km/h
931 28-06-2008 18:18:02 27.3 C 7.85 g/m*3 27.3 C 0 km/h
932 28-06-2008 18:30:02 26.1 C 7.83 g/m*3 26.1 C 0 km/h
933 28-06-2008 18:42:02 27.3 C 7.59 g/m*3 27.3 C 0 km/h
934 28-06-2008 18:54:02 27.9 C 7.84 g/m*3 27.9 C 0 km/h
935 28-06-2008 19:06:01 27.8 C 7.53 g/m*3 27.8 C 0 km/h
936 28-06-2008 19:18:02 26.7 C 7.09 g/m*3 26.7 C 0 km/h
937 28-06-2008 19:30:02 25.8 C 7.46 g/m*3 25.8 C 0 km/h
938 28-06-2008 19:42:02 25.7 C 7.9 g/m*3 25.7 C 0 km/h
939 28-06-2008 19:54:01 26.8 C 7.64 g/m*3 26.8 C 0 km/h
940 28-06-2008 20:06:02 26.6 C 7.55 g/m*3 26.6 C 0 km/h
941 28-06-2008 20:18:02 26.1 C 7.83 g/m*3 26.1 C 0 km/h
942 28-06-2008 20:30:02 26.1 C 7.83 g/m*3 26.1 C 0 km/h
943 28-06-2008 20:42:02 25.2 C 7.92 g/m*3 25.2 C 0 km/h
944 28-06-2008 20:54:03 24.7 C 8.15 g/m*3 24.7 C 0 km/h
945 28-06-2008 21:06:04 24.5 C 8.28 g/m*3 24.5 C 0 km/h
946 28-06-2008 21:18:02 23.5 C 8.67 g/m*3 23.5 C 0 km/h
947 28-06-2008 21:30:02 22.8 C 8.74 g/m*3 22.8 C 0 km/h
948 28-06-2008 21:42:03 22.2 C 8.83 g/m*3 22.2 C 0 km/h
949 28-06-2008 21:54:02 21.8 C 9.02 g/m*3 21.8 C 0 km/h
950 28-06-2008 22:06:01 21.3 C 9.13 g/m*3 21.3 C 0 km/h
Sensor: Nr:Datum:Temp:Abs-Feuchte:Windchill:Wind:
Aussen-T/F 951 28-06-2008 22:18:02 21.1 C 9.21 g/m*3 21.1 C 0 km/h
952 28-06-2008 22:30:02 21.1 C 9.21 g/m*3 21.1 C 0 km/h
953 28-06-2008 22:42:02 20.7 C 9.36 g/m*3 20.7 C 0 km/h
954 28-06-2008 22:54:01 20.4 C 9.38 g/m*3 20.4 C 0 km/h
955 28-06-2008 23:07:01 20.2 C 9.27 g/m*3 20.2 C 0 km/h
956 28-06-2008 23:19:01 20 C 9.33 g/m*3 20 C 0 km/h
957 28-06-2008 23:31:01 19.8 C 9.74 g/m*3 19.8 C 0 km/h
958 28-06-2008 23:43:01 19.4 C 9.68 g/m*3 19.4 C 0 km/h
959 28-06-2008 23:55:01 19 C 9.61 g/m*3 19 C 0 km/h
960 29-06-2008 00:07:01 18.8 C 9.99 g/m*3 18.8 C 0 km/h
961 29-06-2008 00:19:01 18.6 C 9.87 g/m*3 18.6 C 0 km/h
962 29-06-2008 00:31:01 18.3 C 10.01 g/m*3 18.3 C 0 km/h
963 29-06-2008 00:43:01 18.3 C 10.01 g/m*3 18.3 C 0 km/h
964 29-06-2008 00:55:01 17.9 C 10.23 g/m*3 17.9 C 0 km/h
965 29-06-2008 01:07:01 17.4 C 10.23 g/m*3 17.4 C 0 km/h
966 29-06-2008 01:19:01 17.3 C 10.46 g/m*3 17.3 C 0 km/h
967 29-06-2008 01:31:02 17 C 10.42 g/m*3 17 C 0 km/h
968 29-06-2008 01:43:02 16.9 C 10.64 g/m*3 16.9 C 0 km/h
969 29-06-2008 01:55:02 16.8 C 10.58 g/m*3 16.8 C 0 km/h
970 29-06-2008 02:07:02 16.8 C 10.72 g/m*3 16.8 C 0 km/h
971 29-06-2008 02:19:02 17 C 10.56 g/m*3 17 C 0 km/h
972 29-06-2008 02:31:02 17.1 C 10.48 g/m*3 17.1 C 0 km/h
973 29-06-2008 02:43:02 17.2 C 10.54 g/m*3 17.2 C 0 km/h
974 29-06-2008 02:55:02 17.2 C 10.54 g/m*3 17.2 C 0 km/h
975 29-06-2008 03:07:02 16.7 C 10.52 g/m*3 16.7 C 0 km/h
Sensor: Nr:Datum:Temp:Abs-Feuchte:Windchill:Wind:
Aussen-T/F 976 29-06-2008 03:19:02 16.4 C 10.61 g/m*3 16.4 C 0 km/h
977 29-06-2008 03:31:02 16.3 C 10.68 g/m*3 16.3 C 0 km/h
978 29-06-2008 03:43:02 16.3 C 10.54 g/m*3 16.3 C 0 km/h
979 29-06-2008 03:55:02 16 C 10.35 g/m*3 16 C 0 km/h
980 29-06-2008 04:07:02 16 C 10.49 g/m*3 16 C 0 km/h
981 29-06-2008 04:19:02 15.8 C 10.63 g/m*3 15.8 C 0 km/h
982 29-06-2008 04:31:02 15.8 C 10.77 g/m*3 15.8 C 0 km/h
983 29-06-2008 04:43:02 15.9 C 10.83 g/m*3 15.9 C 0 km/h
984 29-06-2008 04:55:02 16 C 10.76 g/m*3 16 C 0 km/h
985 29-06-2008 05:07:02 15.8 C 10.63 g/m*3 15.8 C 0 km/h
986 29-06-2008 05:19:03 15.6 C 10.77 g/m*3 15.6 C 0 km/h
987 29-06-2008 05:31:03 15.9 C 10.83 g/m*3 15.9 C 0 km/h
988 29-06-2008 05:43:03 16 C 10.63 g/m*3 16 C 0 km/h
989 29-06-2008 05:55:03 16.2 C 10.76 g/m*3 16.2 C 0 km/h
990 29-06-2008 06:07:03 16.3 C 10.68 g/m*3 16.3 C 0 km/h
991 29-06-2008 06:19:03 16.1 C 10.55 g/m*3 16.1 C 0 km/h
992 29-06-2008 06:31:03 16.4 C 10.75 g/m*3 16.4 C 0 km/h
993 29-06-2008 06:43:03 16.6 C 10.74 g/m*3 16.6 C 0 km/h
994 29-06-2008 06:55:03 16.6 C 10.74 g/m*3 16.6 C 0 km/h
995 29-06-2008 07:07:03 16.6 C 10.88 g/m*3 16.6 C 0 km/h
996 29-06-2008 07:19:03 16.5 C 10.81 g/m*3 16.5 C 0 km/h
997 29-06-2008 07:31:03 16.7 C 10.8 g/m*3 16.7 C 0 km/h
998 29-06-2008 07:43:03 16.6 C 10.59 g/m*3 16.6 C 0 km/h
999 29-06-2008 07:55:03 17 C 10.56 g/m*3 17 C 0 km/h
1000 29-06-2008 08:07:03 17.2 C 10.54 g/m*3 17.2 C 0 km/h
Sensor: Nr:Datum:Temp:Abs-Feuchte:Windchill:Wind:
Aussen-T/F 1001 29-06-2008 08:19:03 17.6 C 10.35 g/m*3 17.6 C 0 km/h
1002 29-06-2008 08:31:03 17.9 C 10.38 g/m*3 17.9 C 0 km/h
1003 29-06-2008 08:43:03 18.1 C 9.58 g/m*3 18.1 C 0 km/h
1004 29-06-2008 08:55:03 18.4 C 9.75 g/m*3 18.4 C 0 km/h
1005 29-06-2008 09:07:02 18.8 C 9.99 g/m*3 18.8 C 0 km/h
1006 29-06-2008 09:19:02 19.1 C 9.67 g/m*3 19.1 C 0 km/h
1007 29-06-2008 09:31:01 19.5 C 9.57 g/m*3 19.5 C 0 km/h
1008 29-06-2008 09:43:01 19.9 C 9.62 g/m*3 19.9 C 0 km/h
1009 29-06-2008 09:55:01 20.1 C 9.39 g/m*3 20.1 C 0 km/h
1010 29-06-2008 10:07:02 20.8 C 9.6 g/m*3 20.8 C 0 km/h
1011 29-06-2008 10:19:02 21.6 C 9.67 g/m*3 21.6 C 0 km/h
1012 29-06-2008 10:31:02 21.9 C 9.65 g/m*3 21.9 C 0 km/h
1013 29-06-2008 10:43:02 22.6 C 9.44 g/m*3 22.6 C 0 km/h
1014 29-06-2008 10:55:02 23 C 9.04 g/m*3 23 C 0 km/h
1015 29-06-2008 11:07:02 23.3 C 9.2 g/m*3 23.3 C 0 km/h
1016 29-06-2008 11:19:02 23.4 C 9.04 g/m*3 23.4 C 0 km/h
1017 29-06-2008 11:31:03 23.8 C 8.82 g/m*3 23.8 C 0 km/h
1018 29-06-2008 11:43:03 24.7 C 8.37 g/m*3 24.7 C 0 km/h
1019 29-06-2008 11:55:02 24.8 C 8.19 g/m*3 24.8 C 0 km/h
1020 29-06-2008 12:07:02 25.4 C 7.77 g/m*3 25.4 C 0 km/h
1021 29-06-2008 12:19:02 25.3 C 7.73 g/m*3 25.3 C 0 km/h
1022 29-06-2008 12:31:02 25.8 C 7.46 g/m*3 25.8 C 0 km/h
1023 29-06-2008 12:43:02 26 C 7.79 g/m*3 26 C 0 km/h
1024 29-06-2008 12:55:02 27.1 C 8.02 g/m*3 27.1 C 0 km/h
1025 29-06-2008 13:07:02 27.8 C 7.8 g/m*3 27.8 C 0 km/h
Sensor: Nr:Datum:Temp:Abs-Feuchte:Windchill:Wind:
Aussen-T/F 1026 29-06-2008 13:19:02 27.7 C 8.02 g/m*3 27.7 C 0 km/h
1027 29-06-2008 13:31:02 27.9 C 8.11 g/m*3 27.9 C 0 km/h
1028 29-06-2008 13:43:02 27.9 C 7.84 g/m*3 27.9 C 0 km/h
1029 29-06-2008 13:55:02 28.3 C 7.46 g/m*3 28.3 C 0 km/h
1030 29-06-2008 14:07:02 28.1 C 7.38 g/m*3 28.1 C 0 km/h
1031 29-06-2008 14:19:02 27.5 C 7.94 g/m*3 27.5 C 0 km/h
1032 29-06-2008 14:31:03 27.5 C 7.41 g/m*3 27.5 C 0 km/h
1033 29-06-2008 14:43:03 28 C 7.61 g/m*3 28 C 0 km/h
1034 29-06-2008 14:55:02 28.2 C 7.15 g/m*3 28.2 C 0 km/h
1035 29-06-2008 15:07:01 29 C 7.47 g/m*3 29 C 0 km/h
1036 29-06-2008 15:19:02 28.8 C 7.1 g/m*3 28.8 C 0 km/h
1037 29-06-2008 15:31:02 28.4 C 6.95 g/m*3 28.4 C 0 km/h
1038 29-06-2008 15:43:02 28.8 C 7.1 g/m*3 28.8 C 0 km/h
1039 29-06-2008 15:55:02 29.2 C 7.26 g/m*3 29.2 C 0 km/h
1040 29-06-2008 16:07:01 29.7 C 7.16 g/m*3 29.7 C 0 km/h
1041 29-06-2008 16:19:02 29.9 C 7.24 g/m*3 29.9 C 0 km/h
1042 29-06-2008 16:31:02 29.7 C 6.86 g/m*3 29.7 C 0 km/h
1043 29-06-2008 16:43:02 29.9 C 7.24 g/m*3 29.9 C 0 km/h
1044 29-06-2008 16:55:02 30.1 C 7.01 g/m*3 30.1 C 0 km/h
1045 29-06-2008 17:07:02 30 C 6.67 g/m*3 30 C 0 km/h
1046 29-06-2008 17:19:02 30 C 6.97 g/m*3 30 C 0 km/h
1047 29-06-2008 17:31:02 30.7 C 6.61 g/m*3 30.7 C 0 km/h
1048 29-06-2008 17:43:02 30.3 C 6.78 g/m*3 30.3 C 0 km/h
1049 29-06-2008 17:55:01 30.8 C 6.65 g/m*3 30.8 C 0 km/h
1050 29-06-2008 18:07:02 29.8 C 7.2 g/m*3 29.8 C 0 km/h
Sensor: Nr:Datum:Temp:Abs-Feuchte:Windchill:Wind:
Aussen-T/F 1051 29-06-2008 18:19:02 30.3 C 7.4 g/m*3 30.3 C 0 km/h
1052 29-06-2008 18:31:02 30.8 C 6.97 g/m*3 30.8 C 0 km/h
1053 29-06-2008 18:43:02 30.4 C 7.13 g/m*3 30.4 C 0 km/h
1054 29-06-2008 18:55:02 29.7 C 7.46 g/m*3 29.7 C 0 km/h
1055 29-06-2008 19:07:02 29.7 C 7.46 g/m*3 29.7 C 0 km/h
1056 29-06-2008 19:19:02 29.7 C 7.46 g/m*3 29.7 C 0 km/h
1057 29-06-2008 19:31:02 29.4 C 7.63 g/m*3 29.4 C 0 km/h
1058 29-06-2008 19:43:02 29.5 C 7.67 g/m*3 29.5 C 0 km/h
1059 29-06-2008 19:55:02 29.1 C 7.51 g/m*3 29.1 C 0 km/h
1060 29-06-2008 20:07:03 28.3 C 7.46 g/m*3 28.3 C 0 km/h
1061 29-06-2008 20:19:02 27.8 C 8.07 g/m*3 27.8 C 0 km/h
1062 29-06-2008 20:31:03 27.7 C 8.02 g/m*3 27.7 C 0 km/h
1063 29-06-2008 20:43:03 26.3 C 7.92 g/m*3 26.3 C 0 km/h
1064 29-06-2008 20:55:02 25.7 C 8.38 g/m*3 25.7 C 0 km/h
1065 29-06-2008 21:07:02 25.3 C 8.43 g/m*3 25.3 C 0 km/h
1066 29-06-2008 21:19:02 24.8 C 8.42 g/m*3 24.8 C 0 km/h
1067 29-06-2008 21:31:01 24.5 C 8.5 g/m*3 24.5 C 0 km/h
1068 29-06-2008 21:43:01 23.8 C 8.6 g/m*3 23.8 C 0 km/h
1069 29-06-2008 21:55:01 23.5 C 8.67 g/m*3 23.5 C 0 km/h
1070 29-06-2008 22:07:01 23.6 C 8.72 g/m*3 23.6 C 0 km/h
1071 29-06-2008 22:19:02 23.5 C 8.67 g/m*3 23.5 C 0 km/h
1072 29-06-2008 22:32:03 23.3 C 8.57 g/m*3 23.3 C 0 km/h
1073 29-06-2008 22:44:03 23.4 C 8.62 g/m*3 23.4 C 0 km/h
1074 29-06-2008 22:56:03 23 C 8.22 g/m*3 23 C 0 km/h
1075 29-06-2008 23:08:03 22.9 C 8.58 g/m*3 22.9 C 0 km/h
Sensor: Nr:Datum:Temp:Abs-Feuchte:Windchill:Wind:
Aussen-T/F 1076 29-06-2008 23:20:04 22.8 C 8.53 g/m*3 22.8 C 0 km/h
1077 29-06-2008 23:32:04 22.1 C 8.39 g/m*3 22.1 C 0 km/h
1078 29-06-2008 23:44:04 21.4 C 8.62 g/m*3 21.4 C 0 km/h
1079 29-06-2008 23:56:04 21.3 C 8.57 g/m*3 21.3 C 0 km/h
1080 30-06-2008 00:08:04 21.2 C 8.52 g/m*3 21.2 C 0 km/h
1081 30-06-2008 00:20:04 21.6 C 8.72 g/m*3 21.6 C 0 km/h
1082 30-06-2008 00:32:04 21.3 C 8.57 g/m*3 21.3 C 0 km/h
1083 30-06-2008 00:44:04 21.3 C 8.57 g/m*3 21.3 C 0 km/h
1084 30-06-2008 00:56:04 20.9 C 8.56 g/m*3 20.9 C 0 km/h
1085 30-06-2008 01:08:04 20.2 C 8.57 g/m*3 20.2 C 0 km/h
1086 30-06-2008 01:20:04 19.7 C 8.66 g/m*3 19.7 C 0 km/h
1087 30-06-2008 01:32:04 19.2 C 8.74 g/m*3 19.2 C 0 km/h
1088 30-06-2008 01:44:04 18.6 C 8.91 g/m*3 18.6 C 0 km/h
1089 30-06-2008 01:56:04 18.6 C 9.07 g/m*3 18.6 C 0 km/h
1090 30-06-2008 02:08:04 18.4 C 9.12 g/m*3 18.4 C 0 km/h
1091 30-06-2008 02:20:04 18.2 C 9.17 g/m*3 18.2 C 0 km/h
1092 30-06-2008 02:32:04 18.1 C 9.12 g/m*3 18.1 C 0 km/h
1093 30-06-2008 02:44:04 18.1 C 9.12 g/m*3 18.1 C 0 km/h
1094 30-06-2008 02:56:04 17.8 C 9.26 g/m*3 17.8 C 0 km/h
1095 30-06-2008 03:08:05 17.6 C 9.3 g/m*3 17.6 C 0 km/h
1096 30-06-2008 03:20:05 17.5 C 9.24 g/m*3 17.5 C 0 km/h
1097 30-06-2008 03:32:05 16.9 C 9.64 g/m*3 16.9 C 0 km/h
1098 30-06-2008 03:44:05 16.5 C 9.69 g/m*3 16.5 C 0 km/h
1099 30-06-2008 03:56:05 16.4 C 9.49 g/m*3 16.4 C 0 km/h
1100 30-06-2008 04:08:05 16 C 9.4 g/m*3 16 C 0 km/h
Sensor: Nr:Datum:Temp:Abs-Feuchte:Windchill:Wind:
Aussen-T/F 1101 30-06-2008 04:20:05 16 C 9.67 g/m*3 16 C 0 km/h
1102 30-06-2008 04:32:05 15.6 C 9.58 g/m*3 15.6 C 0 km/h
1103 30-06-2008 04:44:05 15.4 C 9.59 g/m*3 15.4 C 0 km/h
1104 30-06-2008 04:56:05 15.4 C 9.59 g/m*3 15.4 C 0 km/h
1105 30-06-2008 05:08:05 15.3 C 9.53 g/m*3 15.3 C 0 km/h
1106 30-06-2008 05:20:05 15.1 C 9.55 g/m*3 15.1 C 0 km/h
1107 30-06-2008 05:32:05 15 C 9.49 g/m*3 15 C 0 km/h
1108 30-06-2008 05:44:05 15 C 9.62 g/m*3 15 C 0 km/h
1109 30-06-2008 05:56:05 14.9 C 9.69 g/m*3 14.9 C 0 km/h
1110 30-06-2008 06:08:05 15.1 C 9.55 g/m*3 15.1 C 0 km/h
1111 30-06-2008 06:20:05 15.1 C 9.55 g/m*3 15.1 C 0 km/h
1112 30-06-2008 06:32:05 15.2 C 9.61 g/m*3 15.2 C 0 km/h
1113 30-06-2008 06:44:05 15.2 C 9.73 g/m*3 15.2 C 0 km/h
1114 30-06-2008 06:56:01 15.2 C 9.73 g/m*3 15.2 C 0 km/h
1115 30-06-2008 07:08:02 15.4 C 9.85 g/m*3 15.4 C 0 km/h
1116 30-06-2008 07:20:01 15.5 C 9.78 g/m*3 15.5 C 0 km/h
1117 30-06-2008 07:32:02 15.9 C 9.75 g/m*3 15.9 C 0 km/h
1118 30-06-2008 07:44:02 15.5 C 9.65 g/m*3 15.5 C 0 km/h
1119 30-06-2008 07:56:02 16 C 9.67 g/m*3 16 C 0 km/h
1120 30-06-2008 08:08:01 16.6 C 9.46 g/m*3 16.6 C 0 km/h
1121 30-06-2008 08:20:02 17 C 9.41 g/m*3 17 C 0 km/h
1122 30-06-2008 08:32:02 17.2 C 9.23 g/m*3 17.2 C 0 km/h
1123 30-06-2008 08:44:02 17 C 8.97 g/m*3 17 C 0 km/h
1124 30-06-2008 08:56:02 17.2 C 9.08 g/m*3 17.2 C 0 km/h
1125 30-06-2008 09:08:02 18 C 8.91 g/m*3 18 C 0 km/h
Sensor: Nr:Datum:Temp:Abs-Feuchte:Windchill:Wind:
Aussen-T/F 1126 30-06-2008 09:20:02 18.1 C 8.03 g/m*3 18.1 C 0 km/h
1127 30-06-2008 09:32:01 18.4 C 8.02 g/m*3 18.4 C 0 km/h
1128 30-06-2008 09:44:01 19.8 C 8.2 g/m*3 19.8 C 0 km/h
1129 30-06-2008 09:56:01 21.5 C 7.92 g/m*3 21.5 C 0 km/h
1130 30-06-2008 10:08:01 21.7 C 7.82 g/m*3 21.7 C 0 km/h
1131 30-06-2008 10:20:01 20.6 C 7.7 g/m*3 20.6 C 0 km/h
1132 30-06-2008 10:32:01 20.1 C 7.82 g/m*3 20.1 C 0 km/h
1133 30-06-2008 10:44:01 20.9 C 7.83 g/m*3 20.9 C 0 km/h
1134 30-06-2008 10:56:01 21.4 C 7.69 g/m*3 21.4 C 0 km/h
1135 30-06-2008 11:08:02 22.1 C 7.42 g/m*3 22.1 C 0 km/h
1136 30-06-2008 11:20:01 22.5 C 7.39 g/m*3 22.5 C 0 km/h
1137 30-06-2008 11:32:01 22.5 C 7.19 g/m*3 22.5 C 0 km/h
1138 30-06-2008 11:44:01 23 C 7.4 g/m*3 23 C 0 km/h
1139 30-06-2008 11:56:02 24.4 C 6.9 g/m*3 24.4 C 0 km/h
1140 30-06-2008 12:08:02 24.3 C 6.64 g/m*3 24.3 C 0 km/h
1141 30-06-2008 12:20:01 25.3 C 7.02 g/m*3 25.3 C 0 km/h
1142 30-06-2008 12:32:02 26.2 C 6.89 g/m*3 26.2 C 0 km/h
1143 30-06-2008 12:44:02 26 C 6.33 g/m*3 26 C 0 km/h
1144 30-06-2008 12:56:02 26.3 C 6.19 g/m*3 26.3 C 0 km/h
1145 30-06-2008 13:08:02 26.3 C 6.19 g/m*3 26.3 C 0 km/h
1146 30-06-2008 13:20:02 28.2 C 5.77 g/m*3 28.2 C 0 km/h
1147 30-06-2008 13:32:02 28.8 C 5.68 g/m*3 28.8 C 0 km/h
1148 30-06-2008 13:44:02 28.9 C 6 g/m*3 28.9 C 0 km/h
1149 30-06-2008 13:56:02 29.1 C 5.78 g/m*3 29.1 C 0 km/h
1150 30-06-2008 14:08:01 30 C 6.06 g/m*3 30 C 0 km/h
Sensor: Nr:Datum:Temp:Abs-Feuchte:Windchill:Wind:
Aussen-T/F 1151 30-06-2008 14:20:02 27.3 C 5.76 g/m*3 27.3 C 0 km/h
1152 30-06-2008 14:32:01 28.2 C 6.32 g/m*3 28.2 C 0 km/h
1153 30-06-2008 14:44:01 28.1 C 5.47 g/m*3 28.1 C 0 km/h
1154 30-06-2008 14:56:03 27.8 C 6.19 g/m*3 27.8 C 0 km/h
1155 30-06-2008 15:08:02 29.2 C 6.1 g/m*3 29.2 C 0 km/h
1156 30-06-2008 15:20:03 30 C 6.06 g/m*3 30 C 0 km/h
1157 30-06-2008 15:32:02 30.3 C 6.16 g/m*3 30.3 C 0 km/h
1158 30-06-2008 15:44:02 29.8 C 6 g/m*3 29.8 C 0 km/h
1159 30-06-2008 15:56:02 30.6 C 6.26 g/m*3 30.6 C 0 km/h
1160 30-06-2008 16:08:02 31.3 C 6.5 g/m*3 31.3 C 0 km/h
1161 30-06-2008 16:20:03 31.4 C 6.54 g/m*3 31.4 C 0 km/h
1162 30-06-2008 16:32:02 31 C 6.4 g/m*3 31 C 0 km/h
1163 30-06-2008 16:44:02 31.2 C 6.47 g/m*3 31.2 C 0 km/h
1164 30-06-2008 16:56:02 30.7 C 6.3 g/m*3 30.7 C 0 km/h
1165 30-06-2008 17:08:02 30.9 C 6.37 g/m*3 30.9 C 0 km/h
1166 30-06-2008 17:20:02 30.6 C 6.26 g/m*3 30.6 C 0 km/h
1167 30-06-2008 17:32:02 31.2 C 6.47 g/m*3 31.2 C 0 km/h
1168 30-06-2008 17:44:02 31.6 C 6.61 g/m*3 31.6 C 0 km/h
1169 30-06-2008 17:56:01 31.9 C 6.72 g/m*3 31.9 C 0 km/h
1170 30-06-2008 18:08:02 32.3 C 6.86 g/m*3 32.3 C 0 km/h
1171 30-06-2008 18:20:01 32.6 C 6.97 g/m*3 32.6 C 0 km/h
1172 30-06-2008 18:32:02 32.8 C 7.04 g/m*3 32.8 C 0 km/h
1173 30-06-2008 18:44:02 32.6 C 6.97 g/m*3 32.6 C 0 km/h
1174 30-06-2008 18:56:02 31.8 C 6.68 g/m*3 31.8 C 0 km/h
1175 30-06-2008 19:08:02 31.5 C 6.57 g/m*3 31.5 C 0 km/h
Sensor: Nr:Datum:Temp:Abs-Feuchte:Windchill:Wind:
Aussen-T/F 1176 30-06-2008 19:20:02 31.7 C 6.64 g/m*3 31.7 C 0 km/h
1177 30-06-2008 19:32:02 30.6 C 6.26 g/m*3 30.6 C 0 km/h
1178 30-06-2008 19:44:02 30.2 C 6.13 g/m*3 30.2 C 0 km/h
1179 30-06-2008 19:56:02 29.8 C 6 g/m*3 29.8 C 0 km/h
1180 30-06-2008 20:08:01 29 C 6.03 g/m*3 29 C 0 km/h
1181 30-06-2008 20:20:02 28.5 C 6.15 g/m*3 28.5 C 0 km/h
1182 30-06-2008 20:32:01 28.2 C 6.32 g/m*3 28.2 C 0 km/h
1183 30-06-2008 20:44:01 27.5 C 6.61 g/m*3 27.5 C 0 km/h
1184 30-06-2008 20:56:03 27 C 6.69 g/m*3 27 C 0 km/h
1185 30-06-2008 21:08:02 26.4 C 6.72 g/m*3 26.4 C 0 km/h
1186 30-06-2008 21:20:03 25.3 C 7.26 g/m*3 25.3 C 0 km/h
1187 30-06-2008 21:32:02 24 C 7.4 g/m*3 24 C 0 km/h
1188 30-06-2008 21:44:02 23.6 C 7.66 g/m*3 23.6 C 0 km/h
1189 30-06-2008 21:56:02 23.5 C 7.82 g/m*3 23.5 C 0 km/h
1190 30-06-2008 22:08:02 23.1 C 7.86 g/m*3 23.1 C 0 km/h
1191 30-06-2008 22:21:02 22.8 C 7.92 g/m*3 22.8 C 0 km/h
1192 30-06-2008 22:33:02 22.3 C 7.9 g/m*3 22.3 C 0 km/h
1193 30-06-2008 22:45:02 22.4 C 7.94 g/m*3 22.4 C 0 km/h
1194 30-06-2008 22:57:03 21.9 C 8.1 g/m*3 21.9 C 0 km/h
1195 30-06-2008 23:09:03 21.4 C 8.06 g/m*3 21.4 C 0 km/h
1196 30-06-2008 23:21:03 21.2 C 8.15 g/m*3 21.2 C 0 km/h
1197 30-06-2008 23:33:03 20.8 C 8.15 g/m*3 20.8 C 0 km/h
1198 30-06-2008 23:45:03 20.7 C 8.28 g/m*3 20.7 C 0 km/h
1199 30-06-2008 23:57:03 20.2 C 8.22 g/m*3 20.2 C 0 km/h
1200 01-07-2008 00:09:03 20 C 8.12 g/m*3 20 C 0 km/h
Sensor: Nr:Datum:Temp:Abs-Feuchte:Windchill:Wind:
Aussen-T/F 1201 01-07-2008 00:21:03 19.8 C 8.2 g/m*3 19.8 C 0 km/h
1202 01-07-2008 00:33:03 19.9 C 8.25 g/m*3 19.9 C 0 km/h
1203 01-07-2008 00:45:03 19.5 C 8.22 g/m*3 19.5 C 0 km/h
1204 01-07-2008 00:57:03 19.3 C 8.13 g/m*3 19.3 C 0 km/h
1205 01-07-2008 01:09:03 19 C 7.99 g/m*3 19 C 0 km/h
1206 01-07-2008 01:21:03 18.8 C 8.05 g/m*3 18.8 C 0 km/h
1207 01-07-2008 01:33:03 18.7 C 8.01 g/m*3 18.7 C 0 km/h
1208 01-07-2008 01:45:03 18.3 C 8.44 g/m*3 18.3 C 0 km/h
1209 01-07-2008 01:57:03 17.9 C 8.55 g/m*3 17.9 C 0 km/h
1210 01-07-2008 02:09:03 17.7 C 8.3 g/m*3 17.7 C 0 km/h
1211 01-07-2008 02:21:03 17.5 C 8.35 g/m*3 17.5 C 0 km/h
1212 01-07-2008 02:33:03 17.2 C 8.35 g/m*3 17.2 C 0 km/h
1213 01-07-2008 02:45:03 16.8 C 8.58 g/m*3 16.8 C 0 km/h
1214 01-07-2008 02:57:04 16.7 C 8.67 g/m*3 16.7 C 0 km/h
1215 01-07-2008 03:09:04 16.3 C 8.46 g/m*3 16.3 C 0 km/h
1216 01-07-2008 03:21:04 16.3 C 8.46 g/m*3 16.3 C 0 km/h
1217 01-07-2008 03:33:04 16.1 C 8.5 g/m*3 16.1 C 0 km/h
1218 01-07-2008 03:45:04 15.8 C 8.62 g/m*3 15.8 C 0 km/h
1219 01-07-2008 03:57:04 15.7 C 8.43 g/m*3 15.7 C 0 km/h
1220 01-07-2008 04:09:04 15.7 C 8.56 g/m*3 15.7 C 0 km/h
1221 01-07-2008 04:21:04 15.4 C 8.54 g/m*3 15.4 C 0 km/h
1222 01-07-2008 04:33:04 15.2 C 8.44 g/m*3 15.2 C 0 km/h
1223 01-07-2008 04:45:04 15.2 C 8.57 g/m*3 15.2 C 0 km/h
1224 01-07-2008 04:57:04 15 C 8.72 g/m*3 15 C 0 km/h
1225 01-07-2008 05:09:04 14.6 C 8.76 g/m*3 14.6 C 0 km/h
Sensor: Nr:Datum:Temp:Abs-Feuchte:Windchill:Wind:
Aussen-T/F 1226 01-07-2008 05:21:04 14.4 C 8.65 g/m*3 14.4 C 0 km/h
1227 01-07-2008 05:33:04 14.4 C 8.78 g/m*3 14.4 C 0 km/h
1228 01-07-2008 05:45:04 14.4 C 8.78 g/m*3 14.4 C 0 km/h
1229 01-07-2008 05:57:04 14.1 C 8.86 g/m*3 14.1 C 0 km/h
1230 01-07-2008 06:09:04 13.9 C 8.87 g/m*3 13.9 C 0 km/h
1231 01-07-2008 06:21:04 14 C 8.93 g/m*3 14 C 0 km/h
1232 01-07-2008 06:33:04 14.1 C 8.86 g/m*3 14.1 C 0 km/h
1233 01-07-2008 06:45:04 14.2 C 8.91 g/m*3 14.2 C 0 km/h
1234 01-07-2008 06:57:05 14.2 C 8.91 g/m*3 14.2 C 0 km/h
1235 01-07-2008 07:09:01 14.2 C 8.91 g/m*3 14.2 C 0 km/h
1236 01-07-2008 07:21:02 14.3 C 8.97 g/m*3 14.3 C 0 km/h
1237 01-07-2008 07:33:01 14.4 C 8.9 g/m*3 14.4 C 0 km/h
1238 01-07-2008 07:45:02 14.6 C 9.01 g/m*3 14.6 C 0 km/h
1239 01-07-2008 07:57:02 14.8 C 8.99 g/m*3 14.8 C 0 km/h
1240 01-07-2008 08:09:01 15.2 C 9.09 g/m*3 15.2 C 0 km/h
1241 01-07-2008 08:21:02 15.8 C 9.42 g/m*3 15.8 C 0 km/h
1242 01-07-2008 08:33:02 16.1 C 9.32 g/m*3 16.1 C 0 km/h
1243 01-07-2008 08:45:02 16.6 C 9.32 g/m*3 16.6 C 0 km/h
1244 01-07-2008 08:57:02 17.1 C 9.32 g/m*3 17.1 C 0 km/h
1245 01-07-2008 09:09:02 17.7 C 9.35 g/m*3 17.7 C 0 km/h
1246 01-07-2008 09:21:02 18.3 C 9.38 g/m*3 18.3 C 0 km/h
1247 01-07-2008 09:33:02 19.1 C 9.34 g/m*3 19.1 C 0 km/h
1248 01-07-2008 09:45:02 19.7 C 9.34 g/m*3 19.7 C 0 km/h
1249 01-07-2008 09:57:02 20.7 C 9.36 g/m*3 20.7 C 0 km/h
1250 01-07-2008 10:09:01 21.4 C 9.19 g/m*3 21.4 C 0 km/h
Sensor: Nr:Datum:Temp:Abs-Feuchte:Windchill:Wind:
Aussen-T/F 1251 01-07-2008 10:21:02 22.3 C 9.08 g/m*3 22.3 C 0 km/h
1252 01-07-2008 10:33:01 22.8 C 8.74 g/m*3 22.8 C 0 km/h
1253 01-07-2008 10:45:02 23.8 C 8.82 g/m*3 23.8 C 0 km/h
1254 01-07-2008 10:57:02 24.4 C 8.46 g/m*3 24.4 C 0 km/h
1255 01-07-2008 11:09:01 25.2 C 8.61 g/m*3 25.2 C 0 km/h
1256 01-07-2008 11:21:02 25.4 C 8.24 g/m*3 25.4 C 0 km/h
1257 01-07-2008 11:33:01 25.8 C 8.19 g/m*3 25.8 C 0 km/h
1258 01-07-2008 11:45:03 26.8 C 8.14 g/m*3 26.8 C 0 km/h
1259 01-07-2008 11:57:03 26.3 C 7.67 g/m*3 26.3 C 0 km/h
1260 01-07-2008 12:09:02 28.2 C 7.42 g/m*3 28.2 C 0 km/h
1261 01-07-2008 12:21:03 29.2 C 7.26 g/m*3 29.2 C 0 km/h
1262 01-07-2008 12:33:02 30.1 C 7.32 g/m*3 30.1 C 0 km/h
1263 01-07-2008 12:45:02 30.2 C 7.05 g/m*3 30.2 C 0 km/h
1264 01-07-2008 12:57:02 30.1 C 6.71 g/m*3 30.1 C 0 km/h
1265 01-07-2008 13:09:02 30.6 C 6.58 g/m*3 30.6 C 0 km/h
1266 01-07-2008 13:21:02 31 C 6.4 g/m*3 31 C 0 km/h
1267 01-07-2008 13:33:02 31.5 C 6.57 g/m*3 31.5 C 0 km/h
1268 01-07-2008 13:45:02 31.7 C 6.64 g/m*3 31.7 C 0 km/h
1269 01-07-2008 13:57:02 31.8 C 6.68 g/m*3 31.8 C 0 km/h
1270 01-07-2008 14:09:02 31.8 C 6.68 g/m*3 31.8 C 0 km/h
1271 01-07-2008 14:21:02 31.4 C 6.54 g/m*3 31.4 C 0 km/h
1272 01-07-2008 14:33:03 31.7 C 6.64 g/m*3 31.7 C 0 km/h
1273 01-07-2008 14:45:02 32 C 6.75 g/m*3 32 C 0 km/h
1274 01-07-2008 14:57:02 32 C 6.75 g/m*3 32 C 0 km/h
1275 01-07-2008 15:09:02 31.9 C 6.72 g/m*3 31.9 C 0 km/h
Sensor: Nr:Datum:Temp:Abs-Feuchte:Windchill:Wind:
Aussen-T/F 1276 01-07-2008 15:21:02 32 C 6.75 g/m*3 32 C 0 km/h
1277 01-07-2008 15:33:02 32.7 C 7.01 g/m*3 32.7 C 0 km/h
1278 01-07-2008 15:45:02 32.7 C 7.01 g/m*3 32.7 C 0 km/h
1279 01-07-2008 15:57:02 33.3 C 7.23 g/m*3 33.3 C 0 km/h
1280 01-07-2008 16:09:01 32.8 C 7.04 g/m*3 32.8 C 0 km/h
1281 01-07-2008 16:21:02 33.2 C 7.2 g/m*3 33.2 C 0 km/h
1282 01-07-2008 16:33:01 33.3 C 7.23 g/m*3 33.3 C 0 km/h
1283 01-07-2008 16:45:03 33.7 C 7.39 g/m*3 33.7 C 0 km/h
1284 01-07-2008 16:57:03 33.8 C 7.43 g/m*3 33.8 C 0 km/h
1285 01-07-2008 17:09:02 34.1 C 7.54 g/m*3 34.1 C 0 km/h
1286 01-07-2008 17:21:03 34.2 C 7.58 g/m*3 34.2 C 0 km/h
1287 01-07-2008 17:33:02 33.9 C 7.46 g/m*3 33.9 C 0 km/h
1288 01-07-2008 17:45:01 34 C 7.5 g/m*3 34 C 0 km/h
1289 01-07-2008 17:57:01 34 C 7.5 g/m*3 34 C 0 km/h
1290 01-07-2008 18:09:02 33.7 C 7.39 g/m*3 33.7 C 0 km/h
1291 01-07-2008 18:21:01 34.2 C 7.58 g/m*3 34.2 C 0 km/h
1292 01-07-2008 18:33:01 34 C 7.5 g/m*3 34 C 0 km/h
1293 01-07-2008 18:45:01 33.8 C 7.43 g/m*3 33.8 C 0 km/h
1294 01-07-2008 18:57:01 34 C 7.5 g/m*3 34 C 0 km/h
1295 01-07-2008 19:09:02 34.1 C 7.54 g/m*3 34.1 C 0 km/h
1296 01-07-2008 19:21:01 33.8 C 7.43 g/m*3 33.8 C 0 km/h
1297 01-07-2008 19:33:02 33.8 C 7.43 g/m*3 33.8 C 0 km/h
1298 01-07-2008 19:45:02 33.8 C 7.43 g/m*3 33.8 C 0 km/h
1299 01-07-2008 19:57:02 33.5 C 7.31 g/m*3 33.5 C 0 km/h
1300 01-07-2008 20:09:02 33.1 C 7.16 g/m*3 33.1 C 0 km/h
Sensor: Nr:Datum:Temp:Abs-Feuchte:Windchill:Wind:
Aussen-T/F 1301 01-07-2008 20:21:02 32.6 C 6.97 g/m*3 32.6 C 0 km/h
1302 01-07-2008 20:33:02 32.3 C 6.86 g/m*3 32.3 C 0 km/h
1303 01-07-2008 20:45:01 31.6 C 6.94 g/m*3 31.6 C 0 km/h
1304 01-07-2008 20:57:01 30.7 C 7.87 g/m*3 30.7 C 0 km/h
1305 01-07-2008 21:09:01 29.9 C 8.14 g/m*3 29.9 C 0 km/h
1306 01-07-2008 21:21:01 29 C 8.04 g/m*3 29 C 0 km/h
1307 01-07-2008 21:33:02 28.3 C 8.29 g/m*3 28.3 C 0 km/h
1308 01-07-2008 21:45:03 27.6 C 8.25 g/m*3 27.6 C 0 km/h
1309 01-07-2008 21:57:03 26.9 C 8.19 g/m*3 26.9 C 0 km/h
1310 01-07-2008 22:09:02 26.4 C 8.21 g/m*3 26.4 C 0 km/h
1311 01-07-2008 22:22:03 26 C 8.52 g/m*3 26 C 0 km/h
1312 01-07-2008 22:34:03 25.4 C 8.48 g/m*3 25.4 C 0 km/h
1313 01-07-2008 22:46:03 25.3 C 8.66 g/m*3 25.3 C 0 km/h
1314 01-07-2008 22:58:03 25.1 C 8.57 g/m*3 25.1 C 0 km/h
1315 01-07-2008 23:10:03 24.8 C 8.65 g/m*3 24.8 C 0 km/h
1316 01-07-2008 23:22:03 24.5 C 8.73 g/m*3 24.5 C 0 km/h
1317 01-07-2008 23:34:03 24.4 C 8.68 g/m*3 24.4 C 0 km/h
1318 01-07-2008 23:46:03 24.2 C 8.8 g/m*3 24.2 C 0 km/h
1319 01-07-2008 23:58:03 24.1 C 8.75 g/m*3 24.1 C 0 km/h
1320 02-07-2008 00:10:03 24 C 8.49 g/m*3 24 C 0 km/h
1321 02-07-2008 00:22:03 23.9 C 8.87 g/m*3 23.9 C 0 km/h
1322 02-07-2008 00:34:03 23.9 C 8.65 g/m*3 23.9 C 0 km/h
1323 02-07-2008 00:46:03 23.7 C 8.77 g/m*3 23.7 C 0 km/h
1324 02-07-2008 00:58:03 23.7 C 8.77 g/m*3 23.7 C 0 km/h
1325 02-07-2008 01:10:03 23.6 C 8.93 g/m*3 23.6 C 0 km/h
Sensor: Nr:Datum:Temp:Abs-Feuchte:Windchill:Wind:
Aussen-T/F 1326 02-07-2008 01:22:03 23.5 C 8.88 g/m*3 23.5 C 0 km/h
1327 02-07-2008 01:34:03 23.4 C 8.83 g/m*3 23.4 C 0 km/h
1328 02-07-2008 01:46:03 23.2 C 9.15 g/m*3 23.2 C 0 km/h
1329 02-07-2008 01:58:03 22.8 C 9.75 g/m*3 22.8 C 0 km/h
1330 02-07-2008 02:10:04 22.3 C 9.87 g/m*3 22.3 C 0 km/h
1331 02-07-2008 02:22:04 22.1 C 9.56 g/m*3 22.1 C 0 km/h
1332 02-07-2008 02:34:04 21.8 C 9.78 g/m*3 21.8 C 0 km/h
1333 02-07-2008 02:46:04 21.6 C 9.86 g/m*3 21.6 C 0 km/h
1334 02-07-2008 02:58:04 21.4 C 9.75 g/m*3 21.4 C 0 km/h
1335 02-07-2008 03:10:04 21.1 C 10.13 g/m*3 21.1 C 0 km/h
1336 02-07-2008 03:22:04 21 C 10.08 g/m*3 21 C 0 km/h
1337 02-07-2008 03:34:04 20.8 C 10.14 g/m*3 20.8 C 0 km/h
1338 02-07-2008 03:46:04 20.6 C 10.02 g/m*3 20.6 C 0 km/h
1339 02-07-2008 03:58:04 20.4 C 10.08 g/m*3 20.4 C 0 km/h
1340 02-07-2008 04:10:04 20.4 C 10.26 g/m*3 20.4 C 0 km/h
1341 02-07-2008 04:22:04 20 C 10.2 g/m*3 20 C 0 km/h
1342 02-07-2008 04:34:04 19.7 C 10.36 g/m*3 19.7 C 0 km/h
1343 02-07-2008 04:46:04 19.8 C 10.42 g/m*3 19.8 C 0 km/h
1344 02-07-2008 04:58:04 19.5 C 10.24 g/m*3 19.5 C 0 km/h
1345 02-07-2008 05:10:04 19.4 C 10.18 g/m*3 19.4 C 0 km/h
1346 02-07-2008 05:22:04 19.2 C 10.22 g/m*3 19.2 C 0 km/h
1347 02-07-2008 05:34:04 19.1 C 10.16 g/m*3 19.1 C 0 km/h
1348 02-07-2008 05:46:04 19 C 10.1 g/m*3 19 C 0 km/h
1349 02-07-2008 05:58:04 18.8 C 10.31 g/m*3 18.8 C 0 km/h
1350 02-07-2008 06:10:04 18.9 C 10.37 g/m*3 18.9 C 0 km/h
Sensor: Nr:Datum:Temp:Abs-Feuchte:Windchill:Wind:
Aussen-T/F 1351 02-07-2008 06:22:05 18.9 C 10.69 g/m*3 18.9 C 0 km/h
1352 02-07-2008 06:34:05 19.1 C 10.66 g/m*3 19.1 C 0 km/h
1353 02-07-2008 06:46:05 19.1 C 10.66 g/m*3 19.1 C 0 km/h
1354 02-07-2008 06:58:05 19.2 C 10.72 g/m*3 19.2 C 0 km/h
1355 02-07-2008 07:10:03 19.3 C 10.78 g/m*3 19.3 C 0 km/h
1356 02-07-2008 07:22:03 19.5 C 10.91 g/m*3 19.5 C 0 km/h
1357 02-07-2008 07:34:03 19.7 C 10.87 g/m*3 19.7 C 0 km/h
1358 02-07-2008 07:46:02 19.7 C 10.87 g/m*3 19.7 C 0 km/h
1359 02-07-2008 07:58:02 19.9 C 11 g/m*3 19.9 C 0 km/h
1360 02-07-2008 08:10:02 20.4 C 10.97 g/m*3 20.4 C 0 km/h
1361 02-07-2008 08:22:02 20.8 C 11.05 g/m*3 20.8 C 0 km/h
1362 02-07-2008 08:34:02 21 C 10.81 g/m*3 21 C 0 km/h
1363 02-07-2008 08:46:02 21.5 C 10.94 g/m*3 21.5 C 0 km/h
1364 02-07-2008 08:58:02 22 C 10.67 g/m*3 22 C 0 km/h
1365 02-07-2008 09:10:03 22.7 C 10.51 g/m*3 22.7 C 0 km/h
1366 02-07-2008 09:22:02 23.5 C 10.57 g/m*3 23.5 C 0 km/h
1367 02-07-2008 09:34:03 24.2 C 10.56 g/m*3 24.2 C 0 km/h
1368 02-07-2008 09:46:02 24.9 C 10.07 g/m*3 24.9 C 0 km/h
1369 02-07-2008 09:58:02 25.7 C 9.58 g/m*3 25.7 C 0 km/h
1370 02-07-2008 10:10:01 26.1 C 9.3 g/m*3 26.1 C 0 km/h
1371 02-07-2008 10:22:02 26.9 C 9.73 g/m*3 26.9 C 0 km/h
1372 02-07-2008 10:34:01 27.5 C 9.26 g/m*3 27.5 C 0 km/h
1373 02-07-2008 10:46:02 28.2 C 9.35 g/m*3 28.2 C 0 km/h
1374 02-07-2008 10:58:02 28.6 C 9.55 g/m*3 28.6 C 0 km/h
1375 02-07-2008 11:10:01 29.4 C 9.69 g/m*3 29.4 C 0 km/h
Sensor: Nr:Datum:Temp:Abs-Feuchte:Windchill:Wind:
Aussen-T/F 1376 02-07-2008 11:22:02 29.7 C 9.55 g/m*3 29.7 C 0 km/h
1377 02-07-2008 11:34:01 30.4 C 9.61 g/m*3 30.4 C 0 km/h
1378 02-07-2008 11:46:03 30.8 C 9.5 g/m*3 30.8 C 0 km/h
1379 02-07-2008 11:58:03 31.3 C 9.11 g/m*3 31.3 C 0 km/h
1380 02-07-2008 12:10:02 31.8 C 8.68 g/m*3 31.8 C 0 km/h
1381 02-07-2008 12:22:03 31.4 C 8.5 g/m*3 31.4 C 0 km/h
1382 02-07-2008 12:34:02 31.7 C 8.64 g/m*3 31.7 C 0 km/h
1383 02-07-2008 12:46:02 31.4 C 8.17 g/m*3 31.4 C 0 km/h
1384 02-07-2008 12:58:02 32 C 7.43 g/m*3 32 C 0 km/h
1385 02-07-2008 13:10:02 33.3 C 7.23 g/m*3 33.3 C 0 km/h
1386 02-07-2008 13:22:02 33.8 C 7.43 g/m*3 33.8 C 0 km/h
1387 02-07-2008 13:34:02 34.3 C 7.62 g/m*3 34.3 C 0 km/h
1388 02-07-2008 13:46:02 32.3 C 6.86 g/m*3 32.3 C 0 km/h
1389 02-07-2008 13:58:02 32.6 C 6.97 g/m*3 32.6 C 0 km/h
1390 02-07-2008 14:10:02 32.9 C 7.08 g/m*3 32.9 C 0 km/h
1391 02-07-2008 14:22:02 32.5 C 6.93 g/m*3 32.5 C 0 km/h
1392 02-07-2008 14:34:02 32.8 C 7.04 g/m*3 32.8 C 0 km/h
1393 02-07-2008 14:46:01 33.1 C 7.16 g/m*3 33.1 C 0 km/h
1394 02-07-2008 14:58:01 32.5 C 6.93 g/m*3 32.5 C 0 km/h
1395 02-07-2008 15:10:02 32.7 C 7.01 g/m*3 32.7 C 0 km/h
1396 02-07-2008 15:22:01 32.5 C 6.93 g/m*3 32.5 C 0 km/h
1397 02-07-2008 15:34:02 33.1 C 7.16 g/m*3 33.1 C 0 km/h
1398 02-07-2008 15:46:02 33.3 C 7.23 g/m*3 33.3 C 0 km/h
1399 02-07-2008 15:58:02 34.3 C 7.62 g/m*3 34.3 C 0 km/h
1400 02-07-2008 16:10:02 33.8 C 7.43 g/m*3 33.8 C 0 km/h
Sensor: Nr:Datum:Temp:Abs-Feuchte:Windchill:Wind:
Aussen-T/F 1401 02-07-2008 16:22:02 33.8 C 7.43 g/m*3 33.8 C 0 km/h
1402 02-07-2008 16:34:02 33.8 C 7.43 g/m*3 33.8 C 0 km/h
1403 02-07-2008 16:46:02 34.6 C 7.74 g/m*3 34.6 C 0 km/h
1404 02-07-2008 16:58:02 34.2 C 7.58 g/m*3 34.2 C 0 km/h
1405 02-07-2008 17:10:02 33.5 C 7.31 g/m*3 33.5 C 0 km/h
1406 02-07-2008 17:22:02 34.4 C 7.66 g/m*3 34.4 C 0 km/h
1407 02-07-2008 17:34:03 34.6 C 7.74 g/m*3 34.6 C 0 km/h
1408 02-07-2008 17:46:02 35 C 7.91 g/m*3 35 C 0 km/h
1409 02-07-2008 17:58:02 35.3 C 8.03 g/m*3 35.3 C 0 km/h
1410 02-07-2008 18:10:01 35.2 C 7.99 g/m*3 35.2 C 0 km/h
1411 02-07-2008 18:22:02 35.2 C 7.99 g/m*3 35.2 C 0 km/h
1412 02-07-2008 18:34:01 34.6 C 7.74 g/m*3 34.6 C 0 km/h
1413 02-07-2008 18:46:02 33.7 C 7.39 g/m*3 33.7 C 0 km/h
1414 02-07-2008 18:58:02 33.8 C 7.43 g/m*3 33.8 C 0 km/h
1415 02-07-2008 19:10:01 33.2 C 7.55 g/m*3 33.2 C 0 km/h
1416 02-07-2008 19:22:02 32 C 7.76 g/m*3 32 C 0 km/h
1417 02-07-2008 19:34:01 31.4 C 8.17 g/m*3 31.4 C 0 km/h
1418 02-07-2008 19:46:02 30.9 C 8.28 g/m*3 30.9 C 0 km/h
1419 02-07-2008 19:58:02 30.6 C 8.14 g/m*3 30.6 C 0 km/h
1420 02-07-2008 20:10:01 30.4 C 8.37 g/m*3 30.4 C 0 km/h
1421 02-07-2008 20:22:02 29.2 C 10.16 g/m*3 29.2 C 0 km/h
1422 02-07-2008 20:34:01 27.9 C 10.55 g/m*3 27.9 C 0 km/h
1423 02-07-2008 20:46:01 28 C 11.15 g/m*3 28 C 0 km/h
1424 02-07-2008 20:58:01 25.2 C 15.13 g/m*3 25.2 C 0 km/h
1425 02-07-2008 21:10:01 25.3 C 13.11 g/m*3 25.3 C 0 km/h
Sensor: Nr:Datum:Temp:Abs-Feuchte:Windchill:Wind:
Aussen-T/F 1426 02-07-2008 21:22:01 25.7 C 12.69 g/m*3 25.7 C 0 km/h
1427 02-07-2008 21:34:01 24.8 C 12.52 g/m*3 24.8 C 0 km/h
1428 02-07-2008 21:46:01 24 C 12.18 g/m*3 24 C 0 km/h
1429 02-07-2008 21:58:01 24 C 12.62 g/m*3 24 C 0 km/h
1430 02-07-2008 22:11:01 24.2 C 12.54 g/m*3 24.2 C 0 km/h
1431 02-07-2008 22:23:01 23.4 C 12.62 g/m*3 23.4 C 0 km/h
1432 02-07-2008 22:35:01 23.3 C 12.13 g/m*3 23.3 C 0 km/h
1433 02-07-2008 22:47:01 23.5 C 12.27 g/m*3 23.5 C 0 km/h
1434 02-07-2008 22:59:01 23.4 C 11.78 g/m*3 23.4 C 0 km/h
1435 02-07-2008 23:11:01 23.3 C 11.92 g/m*3 23.3 C 0 km/h
1436 02-07-2008 23:23:01 23 C 12.13 g/m*3 23 C 0 km/h
1437 02-07-2008 23:35:01 22.7 C 12.12 g/m*3 22.7 C 0 km/h
1438 02-07-2008 23:47:01 22.7 C 12.12 g/m*3 22.7 C 0 km/h
1439 02-07-2008 23:59:02 22.6 C 12.05 g/m*3 22.6 C 0 km/h
1440 03-07-2008 00:11:02 22.7 C 11.92 g/m*3 22.7 C 0 km/h
1441 03-07-2008 00:23:02 22.7 C 11.72 g/m*3 22.7 C 0 km/h
1442 03-07-2008 00:35:02 22.5 C 11.58 g/m*3 22.5 C 0 km/h
1443 03-07-2008 00:47:02 22.3 C 11.45 g/m*3 22.3 C 0 km/h
1444 03-07-2008 00:59:02 21.6 C 11.76 g/m*3 21.6 C 0 km/h
1445 03-07-2008 01:11:02 21.3 C 11.93 g/m*3 21.3 C 0 km/h
1446 03-07-2008 01:23:02 21.3 C 12.12 g/m*3 21.3 C 0 km/h
1447 03-07-2008 01:35:02 20.5 C 12.99 g/m*3 20.5 C 0 km/h
1448 03-07-2008 01:47:02 20.4 C 13.27 g/m*3 20.4 C 0 km/h
1449 03-07-2008 01:59:02 21 C 13.19 g/m*3 21 C 0 km/h
1450 03-07-2008 02:11:02 21.2 C 12.6 g/m*3 21.2 C 0 km/h
Sensor: Nr:Datum:Temp:Abs-Feuchte:Windchill:Wind:
Aussen-T/F 1451 03-07-2008 02:23:02 21.2 C 12.23 g/m*3 21.2 C 0 km/h
1452 03-07-2008 02:35:02 21.2 C 11.86 g/m*3 21.2 C 0 km/h
1453 03-07-2008 02:47:02 21.3 C 11.93 g/m*3 21.3 C 0 km/h
1454 03-07-2008 02:59:02 21.3 C 11.93 g/m*3 21.3 C 0 km/h
1455 03-07-2008 03:11:02 21.3 C 11.93 g/m*3 21.3 C 0 km/h
1456 03-07-2008 03:23:02 20 C 13.13 g/m*3 20 C 0 km/h
1457 03-07-2008 03:35:02 19.4 C 13.51 g/m*3 19.4 C 0 km/h
1458 03-07-2008 03:47:02 19.7 C 13.41 g/m*3 19.7 C 0 km/h
1459 03-07-2008 03:59:02 19.9 C 13.4 g/m*3 19.9 C 0 km/h
1460 03-07-2008 04:11:03 19.9 C 13.4 g/m*3 19.9 C 0 km/h
1461 03-07-2008 04:23:03 20 C 13.48 g/m*3 20 C 0 km/h
1462 03-07-2008 04:35:03 19.8 C 13.32 g/m*3 19.8 C 0 km/h
1463 03-07-2008 04:47:03 19.8 C 13.32 g/m*3 19.8 C 0 km/h
1464 03-07-2008 04:59:03 19.5 C 13.09 g/m*3 19.5 C 0 km/h
1465 03-07-2008 05:11:03 19.5 C 13.26 g/m*3 19.5 C 0 km/h
1466 03-07-2008 05:23:03 19.3 C 13.1 g/m*3 19.3 C 0 km/h
1467 03-07-2008 05:35:03 19.3 C 13.1 g/m*3 19.3 C 0 km/h
1468 03-07-2008 05:47:03 19.5 C 13.26 g/m*3 19.5 C 0 km/h
1469 03-07-2008 05:59:03 19.5 C 13.26 g/m*3 19.5 C 0 km/h
1470 03-07-2008 06:11:03 19.4 C 13.18 g/m*3 19.4 C 0 km/h
1471 03-07-2008 06:23:03 19.7 C 13.41 g/m*3 19.7 C 0 km/h
1472 03-07-2008 06:35:02 19.9 C 13.57 g/m*3 19.9 C 0 km/h
1473 03-07-2008 06:47:02 19.8 C 13.32 g/m*3 19.8 C 0 km/h
1474 03-07-2008 06:59:02 20 C 13.13 g/m*3 20 C 0 km/h
1475 03-07-2008 07:11:02 20.2 C 13.46 g/m*3 20.2 C 0 km/h
Sensor: Nr:Datum:Temp:Abs-Feuchte:Windchill:Wind:
Aussen-T/F 1476 03-07-2008 07:23:02 20.6 C 13.42 g/m*3 20.6 C 0 km/h
1477 03-07-2008 07:35:02 20.8 C 13.4 g/m*3 20.8 C 0 km/h
1478 03-07-2008 07:47:02 20.6 C 12.71 g/m*3 20.6 C 0 km/h
1479 03-07-2008 07:59:02 20.8 C 12.86 g/m*3 20.8 C 0 km/h
1480 03-07-2008 08:11:02 21.5 C 12.63 g/m*3 21.5 C 0 km/h
1481 03-07-2008 08:23:02 21.2 C 12.42 g/m*3 21.2 C 0 km/h
1482 03-07-2008 08:35:02 21.4 C 12.56 g/m*3 21.4 C 0 km/h
1483 03-07-2008 08:47:02 21.7 C 12.02 g/m*3 21.7 C 0 km/h
1484 03-07-2008 08:59:02 21.2 C 11.68 g/m*3 21.2 C 0 km/h
1485 03-07-2008 09:11:02 21.6 C 12.14 g/m*3 21.6 C 0 km/h
1486 03-07-2008 09:23:02 22 C 12.03 g/m*3 22 C 0 km/h
1487 03-07-2008 09:35:02 22.2 C 11.78 g/m*3 22.2 C 0 km/h
1488 03-07-2008 09:47:02 22.6 C 11.85 g/m*3 22.6 C 0 km/h
1489 03-07-2008 09:59:02 23.3 C 11.71 g/m*3 23.3 C 0 km/h
1490 03-07-2008 10:11:02 23.3 C 11.71 g/m*3 23.3 C 0 km/h
1491 03-07-2008 10:23:02 22.8 C 11.79 g/m*3 22.8 C 0 km/h
1492 03-07-2008 10:35:03 22.7 C 11.92 g/m*3 22.7 C 0 km/h
1493 03-07-2008 10:47:02 22.5 C 11.98 g/m*3 22.5 C 0 km/h
1494 03-07-2008 10:59:02 22.7 C 12.12 g/m*3 22.7 C 0 km/h
1495 03-07-2008 11:11:02 22.9 C 11.85 g/m*3 22.9 C 0 km/h
1496 03-07-2008 11:23:02 23.1 C 11.78 g/m*3 23.1 C 0 km/h
1497 03-07-2008 11:35:01 23 C 11.92 g/m*3 23 C 0 km/h
1498 03-07-2008 11:47:02 23.8 C 11.83 g/m*3 23.8 C 0 km/h
1499 03-07-2008 11:59:02 24.2 C 11.66 g/m*3 24.2 C 0 km/h
1500 03-07-2008 12:11:01 23.5 C 11.84 g/m*3 23.5 C 0 km/h
Sensor: Nr:Datum:Temp:Abs-Feuchte:Windchill:Wind:
Aussen-T/F 1501 03-07-2008 12:23:02 23.7 C 11.76 g/m*3 23.7 C 0 km/h
1502 03-07-2008 12:35:01 23.7 C 11.76 g/m*3 23.7 C 0 km/h
1503 03-07-2008 12:47:02 23.5 C 12.05 g/m*3 23.5 C 0 km/h
1504 03-07-2008 12:59:02 23.3 C 12.55 g/m*3 23.3 C 0 km/h
1505 03-07-2008 13:11:01 22.5 C 12.78 g/m*3 22.5 C 0 km/h
1506 03-07-2008 13:23:02 23.4 C 13.67 g/m*3 23.4 C 0 km/h
1507 03-07-2008 13:35:01 24.5 C 12.53 g/m*3 24.5 C 0 km/h
1508 03-07-2008 13:47:02 25.1 C 11.57 g/m*3 25.1 C 0 km/h
1509 03-07-2008 13:59:02 25.3 C 11.47 g/m*3 25.3 C 0 km/h
1510 03-07-2008 14:11:02 25.7 C 11.01 g/m*3 25.7 C 0 km/h
1511 03-07-2008 14:23:03 26.1 C 10.28 g/m*3 26.1 C 0 km/h
1512 03-07-2008 14:35:02 26.1 C 10.53 g/m*3 26.1 C 0 km/h
1513 03-07-2008 14:47:01 25.7 C 11.01 g/m*3 25.7 C 0 km/h
1514 03-07-2008 14:59:01 23.9 C 11.03 g/m*3 23.9 C 0 km/h
1515 03-07-2008 15:11:02 21.3 C 13.61 g/m*3 21.3 C 0 km/h
1516 03-07-2008 15:23:01 20.2 C 13.99 g/m*3 20.2 C 0 km/h
1517 03-07-2008 15:35:01 20 C 14.17 g/m*3 20 C 0 km/h
1518 03-07-2008 15:47:01 20 C 14.34 g/m*3 20 C 0 km/h
1519 03-07-2008 15:59:01 19.8 C 14.18 g/m*3 19.8 C 0 km/h
1520 03-07-2008 16:11:02 19.9 C 14.26 g/m*3 19.9 C 0 km/h
1521 03-07-2008 16:23:01 20.3 C 14.77 g/m*3 20.3 C 0 km/h
1522 03-07-2008 16:35:02 20 C 14.52 g/m*3 20 C 0 km/h
1523 03-07-2008 16:47:02 19.5 C 14.1 g/m*3 19.5 C 0 km/h
1524 03-07-2008 16:59:02 17 C 12.01 g/m*3 17 C 0 km/h
1525 03-07-2008 17:11:02 17 C 12.59 g/m*3 17 C 0 km/h
Sensor: Nr:Datum:Temp:Abs-Feuchte:Windchill:Wind:
Aussen-T/F 1526 03-07-2008 17:23:02 17.4 C 13.19 g/m*3 17.4 C 0 km/h
1527 03-07-2008 17:35:02 17.2 C 12.89 g/m*3 17.2 C 0 km/h
1528 03-07-2008 17:47:02 16.8 C 12.44 g/m*3 16.8 C 0 km/h
1529 03-07-2008 17:59:03 17.3 C 12.82 g/m*3 17.3 C 0 km/h
1530 03-07-2008 18:11:01 17.8 C 13.05 g/m*3 17.8 C 0 km/h
1531 03-07-2008 18:23:02 17.5 C 12.67 g/m*3 17.5 C 0 km/h
1532 03-07-2008 18:35:02 17.5 C 12.82 g/m*3 17.5 C 0 km/h
1533 03-07-2008 18:47:02 17.7 C 13.13 g/m*3 17.7 C 0 km/h
1534 03-07-2008 18:59:02 17.7 C 13.13 g/m*3 17.7 C 0 km/h
1535 03-07-2008 19:11:02 17.9 C 13.28 g/m*3 17.9 C 0 km/h
1536 03-07-2008 19:23:02 17.7 C 12.82 g/m*3 17.7 C 0 km/h
1537 03-07-2008 19:35:02 17.6 C 12.45 g/m*3 17.6 C 0 km/h
1538 03-07-2008 19:47:02 17.6 C 12.6 g/m*3 17.6 C 0 km/h
1539 03-07-2008 19:59:02 17.3 C 12.52 g/m*3 17.3 C 0 km/h
1540 03-07-2008 20:11:02 17.1 C 12.52 g/m*3 17.1 C 0 km/h
1541 03-07-2008 20:23:02 17.2 C 12.74 g/m*3 17.2 C 0 km/h
1542 03-07-2008 20:35:02 17 C 12.44 g/m*3 17 C 0 km/h
1543 03-07-2008 20:47:02 17.1 C 12.66 g/m*3 17.1 C 0 km/h
1544 03-07-2008 20:59:02 17 C 12.73 g/m*3 17 C 0 km/h
1545 03-07-2008 21:11:02 16.9 C 12.8 g/m*3 16.9 C 0 km/h
1546 03-07-2008 21:23:02 16.8 C 12.72 g/m*3 16.8 C 0 km/h
1547 03-07-2008 21:35:02 16.5 C 12.5 g/m*3 16.5 C 0 km/h
1548 03-07-2008 21:47:02 16.4 C 12.42 g/m*3 16.4 C 0 km/h
1549 03-07-2008 21:59:02 16 C 12.13 g/m*3 16 C 0 km/h
1550 03-07-2008 22:12:02 15.6 C 11.97 g/m*3 15.6 C 0 km/h
Sensor: Nr:Datum:Temp:Abs-Feuchte:Windchill:Wind:
Aussen-T/F 1551 03-07-2008 22:24:03 15.3 C 11.75 g/m*3 15.3 C 0 km/h
1552 03-07-2008 22:36:03 15.5 C 12.03 g/m*3 15.5 C 0 km/h
1553 03-07-2008 22:48:03 15.4 C 11.96 g/m*3 15.4 C 0 km/h
1554 03-07-2008 23:00:03 15.3 C 11.88 g/m*3 15.3 C 0 km/h
1555 03-07-2008 23:12:03 15.1 C 11.74 g/m*3 15.1 C 0 km/h
1556 03-07-2008 23:24:03 15.2 C 11.81 g/m*3 15.2 C 0 km/h
1557 03-07-2008 23:36:03 15.4 C 11.96 g/m*3 15.4 C 0 km/h
1558 03-07-2008 23:48:03 15.4 C 11.96 g/m*3 15.4 C 0 km/h
1559 04-07-2008 00:00:03 15.3 C 11.88 g/m*3 15.3 C 0 km/h
1560 04-07-2008 00:12:03 15.4 C 11.96 g/m*3 15.4 C 0 km/h
1561 04-07-2008 00:24:03 15.2 C 11.81 g/m*3 15.2 C 0 km/h
1562 04-07-2008 00:36:03 15 C 11.67 g/m*3 15 C 0 km/h
1563 04-07-2008 00:48:03 14.8 C 11.65 g/m*3 14.8 C 0 km/h
1564 04-07-2008 01:00:03 14.7 C 11.46 g/m*3 14.7 C 0 km/h
1565 04-07-2008 01:12:03 14.5 C 11.32 g/m*3 14.5 C 0 km/h
1566 04-07-2008 01:24:03 14.4 C 11.25 g/m*3 14.4 C 0 km/h
1567 04-07-2008 01:36:03 14.5 C 11.44 g/m*3 14.5 C 0 km/h
1568 04-07-2008 01:48:03 14.5 C 11.44 g/m*3 14.5 C 0 km/h
1569 04-07-2008 02:00:03 14.5 C 11.44 g/m*3 14.5 C 0 km/h
1570 04-07-2008 02:12:03 14.6 C 11.51 g/m*3 14.6 C 0 km/h
1571 04-07-2008 02:24:03 14.5 C 11.44 g/m*3 14.5 C 0 km/h
1572 04-07-2008 02:36:04 14.4 C 11.62 g/m*3 14.4 C 0 km/h
1573 04-07-2008 02:48:04 14.4 C 11.37 g/m*3 14.4 C 0 km/h
1574 04-07-2008 03:00:04 14.4 C 11.37 g/m*3 14.4 C 0 km/h
1575 04-07-2008 03:12:04 14.4 C 11.37 g/m*3 14.4 C 0 km/h
Sensor: Nr:Datum:Temp:Abs-Feuchte:Windchill:Wind:
Aussen-T/F 1576 04-07-2008 03:24:04 14.3 C 11.3 g/m*3 14.3 C 0 km/h
1577 04-07-2008 03:36:04 14.2 C 11.23 g/m*3 14.2 C 0 km/h
1578 04-07-2008 03:48:04 14.1 C 11.17 g/m*3 14.1 C 0 km/h
1579 04-07-2008 04:00:04 14.1 C 11.17 g/m*3 14.1 C 0 km/h
1580 04-07-2008 04:12:04 14.2 C 11.23 g/m*3 14.2 C 0 km/h
1581 04-07-2008 04:24:04 14.3 C 11.3 g/m*3 14.3 C 0 km/h
1582 04-07-2008 04:36:04 14.2 C 11.23 g/m*3 14.2 C 0 km/h
1583 04-07-2008 04:48:04 13.9 C 11.03 g/m*3 13.9 C 0 km/h
1584 04-07-2008 05:00:04 13.7 C 10.89 g/m*3 13.7 C 0 km/h
1585 04-07-2008 05:12:04 13.5 C 10.76 g/m*3 13.5 C 0 km/h
1586 04-07-2008 05:24:04 13.2 C 10.56 g/m*3 13.2 C 0 km/h
1587 04-07-2008 05:36:04 13.2 C 10.56 g/m*3 13.2 C 0 km/h
1588 04-07-2008 05:48:04 13.2 C 10.56 g/m*3 13.2 C 0 km/h
1589 04-07-2008 06:00:04 13.4 C 10.69 g/m*3 13.4 C 0 km/h
1590 04-07-2008 06:12:04 13.4 C 10.69 g/m*3 13.4 C 0 km/h
1591 04-07-2008 06:24:04 13.4 C 10.69 g/m*3 13.4 C 0 km/h
1592 04-07-2008 06:36:04 13.4 C 10.69 g/m*3 13.4 C 0 km/h
1593 04-07-2008 06:48:05 13.5 C 10.64 g/m*3 13.5 C 0 km/h
1594 04-07-2008 07:00:05 13.9 C 10.91 g/m*3 13.9 C 0 km/h
1595 04-07-2008 07:12:02 14.2 C 10.87 g/m*3 14.2 C 0 km/h
1596 04-07-2008 07:24:02 14.4 C 10.75 g/m*3 14.4 C 0 km/h
1597 04-07-2008 07:36:02 14.7 C 10.58 g/m*3 14.7 C 0 km/h
1598 04-07-2008 07:48:02 14.7 C 10.2 g/m*3 14.7 C 0 km/h
1599 04-07-2008 08:00:02 14.6 C 10.14 g/m*3 14.6 C 0 km/h
1600 04-07-2008 08:12:02 15 C 10.13 g/m*3 15 C 0 km/h
Sensor: Nr:Datum:Temp:Abs-Feuchte:Windchill:Wind:
Aussen-T/F 1601 04-07-2008 08:24:02 15 C 9.75 g/m*3 15 C 0 km/h
1602 04-07-2008 08:36:02 15.2 C 9.86 g/m*3 15.2 C 0 km/h
1603 04-07-2008 08:48:02 16 C 9.67 g/m*3 16 C 0 km/h
1604 04-07-2008 09:00:02 16.7 C 9.52 g/m*3 16.7 C 0 km/h
1605 04-07-2008 09:12:03 17.4 C 9.34 g/m*3 17.4 C 0 km/h
1606 04-07-2008 09:24:02 17.6 C 8.85 g/m*3 17.6 C 0 km/h
1607 04-07-2008 09:36:03 17.6 C 8.25 g/m*3 17.6 C 0 km/h
1608 04-07-2008 09:48:02 17.2 C 8.49 g/m*3 17.2 C 0 km/h
1609 04-07-2008 10:00:02 17.3 C 8.4 g/m*3 17.3 C 0 km/h
1610 04-07-2008 10:12:02 17.6 C 8.1 g/m*3 17.6 C 0 km/h
1611 04-07-2008 10:24:02 18.4 C 8.18 g/m*3 18.4 C 0 km/h
1612 04-07-2008 10:36:02 19.2 C 8.24 g/m*3 19.2 C 0 km/h
1613 04-07-2008 10:48:02 20 C 7.95 g/m*3 20 C 0 km/h
1614 04-07-2008 11:00:02 19.6 C 6.75 g/m*3 19.6 C 0 km/h
1615 04-07-2008 11:12:02 19.4 C 6.84 g/m*3 19.4 C 0 km/h
1616 04-07-2008 11:24:02 19.6 C 6.58 g/m*3 19.6 C 0 km/h
1617 04-07-2008 11:36:02 20.5 C 6.76 g/m*3 20.5 C 0 km/h
1618 04-07-2008 11:48:01 21 C 6.05 g/m*3 21 C 0 km/h
1619 04-07-2008 12:00:01 21.8 C 6.14 g/m*3 21.8 C 0 km/h
1620 04-07-2008 12:12:02 20.5 C 6.23 g/m*3 20.5 C 0 km/h
1621 04-07-2008 12:24:01 20.6 C 5.73 g/m*3 20.6 C 0 km/h
1622 04-07-2008 12:36:02 21.1 C 5.9 g/m*3 21.1 C 0 km/h
1623 04-07-2008 12:48:02 20.8 C 5.98 g/m*3 20.8 C 0 km/h
1624 04-07-2008 13:00:02 22.9 C 5.31 g/m*3 22.9 C 0 km/h
1625 04-07-2008 13:12:02 21.1 C 5.9 g/m*3 21.1 C 0 km/h
Sensor: Nr:Datum:Temp:Abs-Feuchte:Windchill:Wind:
Aussen-T/F 1626 04-07-2008 13:24:02 22.3 C 5.53 g/m*3 22.3 C 0 km/h
1627 04-07-2008 13:36:02 25 C 5.29 g/m*3 25 C 0 km/h
1628 04-07-2008 13:48:02 23.3 C 5.44 g/m*3 23.3 C 0 km/h
1629 04-07-2008 14:00:02 23.5 C 6.34 g/m*3 23.5 C 0 km/h
1630 04-07-2008 14:12:02 23.8 C 6.24 g/m*3 23.8 C 0 km/h
1631 04-07-2008 14:24:02 24.1 C 6.13 g/m*3 24.1 C 0 km/h
1632 04-07-2008 14:36:02 23.9 C 6.27 g/m*3 23.9 C 0 km/h
1633 04-07-2008 14:48:02 23.6 C 6.38 g/m*3 23.6 C 0 km/h
1634 04-07-2008 15:00:02 24.6 C 6.08 g/m*3 24.6 C 0 km/h
1635 04-07-2008 15:12:02 25.2 C 5.59 g/m*3 25.2 C 0 km/h
1636 04-07-2008 15:24:02 26 C 5.6 g/m*3 26 C 0 km/h
1637 04-07-2008 15:36:02 25.7 C 5.75 g/m*3 25.7 C 0 km/h
1638 04-07-2008 15:48:02 25.9 C 5.81 g/m*3 25.9 C 0 km/h
1639 04-07-2008 16:00:03 26.1 C 5.63 g/m*3 26.1 C 0 km/h
1640 04-07-2008 16:12:02 24.3 C 5.31 g/m*3 24.3 C 0 km/h
1641 04-07-2008 16:24:02 25.4 C 5.89 g/m*3 25.4 C 0 km/h
1642 04-07-2008 16:36:03 24.5 C 5.6 g/m*3 24.5 C 0 km/h
1643 04-07-2008 16:48:02 26.2 C 5.66 g/m*3 26.2 C 0 km/h
1644 04-07-2008 17:00:02 25.5 C 4.97 g/m*3 25.5 C 0 km/h
1645 04-07-2008 17:12:01 26.3 C 5.45 g/m*3 26.3 C 0 km/h
1646 04-07-2008 17:24:02 26.3 C 4.95 g/m*3 26.3 C 0 km/h
1647 04-07-2008 17:36:01 26.8 C 5.35 g/m*3 26.8 C 0 km/h
1648 04-07-2008 17:48:02 27.8 C 5.38 g/m*3 27.8 C 0 km/h
1649 04-07-2008 18:00:02 28.2 C 5.5 g/m*3 28.2 C 0 km/h
1650 04-07-2008 18:12:01 26.7 C 5.06 g/m*3 26.7 C 0 km/h
Sensor: Nr:Datum:Temp:Abs-Feuchte:Windchill:Wind:
Aussen-T/F 1651 04-07-2008 18:24:02 25.2 C 4.89 g/m*3 25.2 C 0 km/h
1652 04-07-2008 18:36:01 25.4 C 5.18 g/m*3 25.4 C 0 km/h
1653 04-07-2008 18:48:01 27.6 C 5.59 g/m*3 27.6 C 0 km/h
1654 04-07-2008 19:00:01 28.4 C 5.56 g/m*3 28.4 C 0 km/h
1655 04-07-2008 19:12:01 28 C 5.44 g/m*3 28 C 0 km/h
1656 04-07-2008 19:24:01 26.4 C 5.97 g/m*3 26.4 C 0 km/h
1657 04-07-2008 19:36:01 26.3 C 6.44 g/m*3 26.3 C 0 km/h
1658 04-07-2008 19:48:01 25.5 C 6.63 g/m*3 25.5 C 0 km/h
1659 04-07-2008 20:00:01 24.6 C 6.75 g/m*3 24.6 C 0 km/h
1660 04-07-2008 20:12:02 24.4 C 6.9 g/m*3 24.4 C 0 km/h
1661 04-07-2008 20:24:01 24.5 C 6.71 g/m*3 24.5 C 0 km/h
1662 04-07-2008 20:36:02 23.8 C 6.67 g/m*3 23.8 C 0 km/h
1663 04-07-2008 20:48:01 23 C 6.58 g/m*3 23 C 0 km/h
1664 04-07-2008 21:00:01 22.3 C 6.71 g/m*3 22.3 C 0 km/h
1665 04-07-2008 21:12:02 21.8 C 6.91 g/m*3 21.8 C 0 km/h
1666 04-07-2008 21:24:01 21.5 C 7.54 g/m*3 21.5 C 0 km/h
1667 04-07-2008 21:36:02 21.2 C 7.6 g/m*3 21.2 C 0 km/h
1668 04-07-2008 21:48:02 20.4 C 7.43 g/m*3 20.4 C 0 km/h
1669 04-07-2008 22:00:02 19.6 C 7.6 g/m*3 19.6 C 0 km/h
1670 04-07-2008 22:12:02 19 C 7.5 g/m*3 19 C 0 km/h
1671 04-07-2008 22:25:03 18.6 C 7.64 g/m*3 18.6 C 0 km/h
1672 04-07-2008 22:37:03 18.4 C 7.71 g/m*3 18.4 C 0 km/h
1673 04-07-2008 22:49:03 18.2 C 7.46 g/m*3 18.2 C 0 km/h
1674 04-07-2008 23:01:03 18 C 7.68 g/m*3 18 C 0 km/h
1675 04-07-2008 23:13:03 17.8 C 7.89 g/m*3 17.8 C 0 km/h
Sensor: Nr:Datum:Temp:Abs-Feuchte:Windchill:Wind:
Aussen-T/F 1676 04-07-2008 23:25:03 17.7 C 7.85 g/m*3 17.7 C 0 km/h
1677 04-07-2008 23:37:03 17.5 C 7.9 g/m*3 17.5 C 0 km/h
1678 04-07-2008 23:49:03 17.3 C 7.66 g/m*3 17.3 C 0 km/h
1679 05-07-2008 00:01:03 17 C 7.67 g/m*3 17 C 0 km/h
1680 05-07-2008 00:13:03 16.7 C 8.24 g/m*3 16.7 C 0 km/h
1681 05-07-2008 00:25:03 16.5 C 8.14 g/m*3 16.5 C 0 km/h
1682 05-07-2008 00:37:03 16.4 C 8.1 g/m*3 16.4 C 0 km/h
1683 05-07-2008 00:49:03 16.1 C 8.36 g/m*3 16.1 C 0 km/h
1684 05-07-2008 01:01:03 16 C 8.17 g/m*3 16 C 0 km/h
1685 05-07-2008 01:13:03 15.6 C 8.11 g/m*3 15.6 C 0 km/h
1686 05-07-2008 01:25:03 15.5 C 8.2 g/m*3 15.5 C 0 km/h
1687 05-07-2008 01:37:04 15.4 C 8.15 g/m*3 15.4 C 0 km/h
1688 05-07-2008 01:49:04 15.2 C 8.31 g/m*3 15.2 C 0 km/h
1689 05-07-2008 02:01:04 15 C 8.33 g/m*3 15 C 0 km/h
1690 05-07-2008 02:13:04 14.9 C 8.67 g/m*3 14.9 C 0 km/h
1691 05-07-2008 02:25:04 14.8 C 8.61 g/m*3 14.8 C 0 km/h
1692 05-07-2008 02:37:04 14.7 C 8.69 g/m*3 14.7 C 0 km/h
1693 05-07-2008 02:49:04 14.4 C 8.53 g/m*3 14.4 C 0 km/h
1694 05-07-2008 03:01:04 14.4 C 8.53 g/m*3 14.4 C 0 km/h
1695 05-07-2008 03:13:04 14.2 C 8.55 g/m*3 14.2 C 0 km/h
1696 05-07-2008 03:25:04 14 C 8.44 g/m*3 14 C 0 km/h
1697 05-07-2008 03:37:04 13.9 C 8.63 g/m*3 13.9 C 0 km/h
1698 05-07-2008 03:49:04 13.7 C 8.53 g/m*3 13.7 C 0 km/h
1699 05-07-2008 04:01:04 13.5 C 8.54 g/m*3 13.5 C 0 km/h
1700 05-07-2008 04:13:04 13.4 C 8.6 g/m*3 13.4 C 0 km/h
Sensor: Nr:Datum:Temp:Abs-Feuchte:Windchill:Wind:
Aussen-T/F 1701 05-07-2008 04:25:04 13.2 C 8.61 g/m*3 13.2 C 0 km/h
1702 05-07-2008 04:37:04 13.1 C 8.56 g/m*3 13.1 C 0 km/h
1703 05-07-2008 04:49:04 13 C 8.51 g/m*3 13 C 0 km/h
1704 05-07-2008 05:01:04 12.9 C 8.68 g/m*3 12.9 C 0 km/h
1705 05-07-2008 05:13:04 12.7 C 8.68 g/m*3 12.7 C 0 km/h
1706 05-07-2008 05:25:05 12.6 C 8.74 g/m*3 12.6 C 0 km/h
1707 05-07-2008 05:37:05 12.5 C 8.69 g/m*3 12.5 C 0 km/h
1708 05-07-2008 05:49:05 12.5 C 8.69 g/m*3 12.5 C 0 km/h
1709 05-07-2008 06:01:05 12.5 C 8.69 g/m*3 12.5 C 0 km/h
1710 05-07-2008 06:13:05 12.3 C 8.8 g/m*3 12.3 C 0 km/h
1711 05-07-2008 06:25:05 12.4 C 8.96 g/m*3 12.4 C 0 km/h
1712 05-07-2008 06:37:05 12.6 C 8.96 g/m*3 12.6 C 0 km/h
1713 05-07-2008 06:49:05 12.8 C 9.07 g/m*3 12.8 C 0 km/h
1714 05-07-2008 07:01:05 12.8 C 9.07 g/m*3 12.8 C 0 km/h
1715 05-07-2008 07:13:05 12.8 C 9.07 g/m*3 12.8 C 0 km/h
1716 05-07-2008 07:25:05 12.8 C 9.07 g/m*3 12.8 C 0 km/h
1717 05-07-2008 07:37:05 13 C 9.07 g/m*3 13 C 0 km/h
1718 05-07-2008 07:49:05 13.2 C 9.19 g/m*3 13.2 C 0 km/h
1719 05-07-2008 08:01:05 13.5 C 9.12 g/m*3 13.5 C 0 km/h
1720 05-07-2008 08:13:05 13.7 C 9.24 g/m*3 13.7 C 0 km/h
1721 05-07-2008 08:25:05 13.9 C 9.23 g/m*3 13.9 C 0 km/h
1722 05-07-2008 08:37:05 14.1 C 9.1 g/m*3 14.1 C 0 km/h
1723 05-07-2008 08:49:02 14.6 C 9.13 g/m*3 14.6 C 0 km/h
1724 05-07-2008 09:01:02 15.1 C 9.16 g/m*3 15.1 C 0 km/h
1725 05-07-2008 09:13:02 15.5 C 9.12 g/m*3 15.5 C 0 km/h
Sensor: Nr:Datum:Temp:Abs-Feuchte:Windchill:Wind:
Aussen-T/F 1726 05-07-2008 09:25:03 16.3 C 9.43 g/m*3 16.3 C 0 km/h
1727 05-07-2008 09:37:02 17.2 C 9.52 g/m*3 17.2 C 0 km/h
1728 05-07-2008 09:49:02 18.1 C 9.58 g/m*3 18.1 C 0 km/h
1729 05-07-2008 10:01:01 18.8 C 9.5 g/m*3 18.8 C 0 km/h
1730 05-07-2008 10:13:01 19.6 C 9.28 g/m*3 19.6 C 0 km/h
1731 05-07-2008 10:25:02 20.4 C 9.02 g/m*3 20.4 C 0 km/h
1732 05-07-2008 10:37:01 21.1 C 9.03 g/m*3 21.1 C 0 km/h
1733 05-07-2008 10:49:02 21.8 C 8.83 g/m*3 21.8 C 0 km/h
1734 05-07-2008 11:01:01 22.3 C 8.1 g/m*3 22.3 C 0 km/h
1735 05-07-2008 11:13:01 23 C 7.6 g/m*3 23 C 0 km/h
1736 05-07-2008 11:25:02 22.4 C 7.75 g/m*3 22.4 C 0 km/h
1737 05-07-2008 11:37:01 22.6 C 8.04 g/m*3 22.6 C 0 km/h
1738 05-07-2008 11:49:03 24.2 C 7.48 g/m*3 24.2 C 0 km/h
1739 05-07-2008 12:01:02 24.8 C 7.28 g/m*3 24.8 C 0 km/h
1740 05-07-2008 12:13:02 25.5 C 6.87 g/m*3 25.5 C 0 km/h
1741 05-07-2008 12:25:03 26.8 C 6.87 g/m*3 26.8 C 0 km/h
1742 05-07-2008 12:37:02 27.8 C 6.72 g/m*3 27.8 C 0 km/h
1743 05-07-2008 12:49:02 25.8 C 6.26 g/m*3 25.8 C 0 km/h
1744 05-07-2008 13:01:02 27.2 C 6.77 g/m*3 27.2 C 0 km/h
1745 05-07-2008 13:13:02 26.8 C 5.35 g/m*3 26.8 C 0 km/h
1746 05-07-2008 13:25:02 28.3 C 5.81 g/m*3 28.3 C 0 km/h
1747 05-07-2008 13:37:02 29.8 C 6 g/m*3 29.8 C 0 km/h
1748 05-07-2008 13:49:02 29.2 C 5.81 g/m*3 29.2 C 0 km/h
1749 05-07-2008 14:01:02 28.3 C 5.53 g/m*3 28.3 C 0 km/h
1750 05-07-2008 14:13:02 28 C 5.44 g/m*3 28 C 0 km/h
Sensor: Nr:Datum:Temp:Abs-Feuchte:Windchill:Wind:
Aussen-T/F 1751 05-07-2008 14:25:01 28.8 C 5.68 g/m*3 28.8 C 0 km/h
1752 05-07-2008 14:37:02 28.6 C 5.62 g/m*3 28.6 C 0 km/h
1753 05-07-2008 14:49:02 28.6 C 5.62 g/m*3 28.6 C 0 km/h
1754 05-07-2008 15:01:02 28.2 C 5.5 g/m*3 28.2 C 0 km/h
1755 05-07-2008 15:13:02 28.5 C 5.59 g/m*3 28.5 C 0 km/h
1756 05-07-2008 15:25:02 29.2 C 5.81 g/m*3 29.2 C 0 km/h
1757 05-07-2008 15:37:02 29.4 C 5.87 g/m*3 29.4 C 0 km/h
1758 05-07-2008 15:49:02 30.3 C 6.16 g/m*3 30.3 C 0 km/h
1759 05-07-2008 16:01:01 30.4 C 6.2 g/m*3 30.4 C 0 km/h
1760 05-07-2008 16:13:01 29.6 C 5.94 g/m*3 29.6 C 0 km/h
1761 05-07-2008 16:25:02 29.5 C 5.9 g/m*3 29.5 C 0 km/h
1762 05-07-2008 16:37:01 29.6 C 5.94 g/m*3 29.6 C 0 km/h
1763 05-07-2008 16:49:01 29.5 C 5.9 g/m*3 29.5 C 0 km/h
1764 05-07-2008 17:01:02 29.7 C 5.97 g/m*3 29.7 C 0 km/h
1765 05-07-2008 17:13:03 29.3 C 5.84 g/m*3 29.3 C 0 km/h
1766 05-07-2008 17:25:01 29.4 C 5.87 g/m*3 29.4 C 0 km/h
1767 05-07-2008 17:37:02 29.1 C 5.78 g/m*3 29.1 C 0 km/h
1768 05-07-2008 17:49:02 29.4 C 5.87 g/m*3 29.4 C 0 km/h
1769 05-07-2008 18:01:02 29.1 C 5.78 g/m*3 29.1 C 0 km/h
1770 05-07-2008 18:13:02 28.7 C 5.65 g/m*3 28.7 C 0 km/h
1771 05-07-2008 18:25:02 28.3 C 6.36 g/m*3 28.3 C 0 km/h
1772 05-07-2008 18:37:03 28.1 C 6.29 g/m*3 28.1 C 0 km/h
1773 05-07-2008 18:49:02 27.6 C 6.92 g/m*3 27.6 C 0 km/h
1774 05-07-2008 19:01:01 27.3 C 6.8 g/m*3 27.3 C 0 km/h
1775 05-07-2008 19:13:01 27 C 6.69 g/m*3 27 C 0 km/h
Sensor: Nr:Datum:Temp:Abs-Feuchte:Windchill:Wind:
Aussen-T/F 1776 05-07-2008 19:25:02 26.7 C 7.09 g/m*3 26.7 C 0 km/h
1777 05-07-2008 19:37:01 26.5 C 7.26 g/m*3 26.5 C 0 km/h
1778 05-07-2008 19:49:02 26.2 C 7.39 g/m*3 26.2 C 0 km/h
1779 05-07-2008 20:01:01 25.9 C 7.51 g/m*3 25.9 C 0 km/h
1780 05-07-2008 20:13:01 25.5 C 7.81 g/m*3 25.5 C 0 km/h
1781 05-07-2008 20:25:02 25.1 C 7.87 g/m*3 25.1 C 0 km/h
1782 05-07-2008 20:37:01 25 C 7.83 g/m*3 25 C 0 km/h
1783 05-07-2008 20:49:02 24.7 C 7.92 g/m*3 24.7 C 0 km/h
1784 05-07-2008 21:01:01 24.2 C 8.36 g/m*3 24.2 C 0 km/h
1785 05-07-2008 21:13:01 23.9 C 8.65 g/m*3 23.9 C 0 km/h
1786 05-07-2008 21:25:02 23.9 C 8.44 g/m*3 23.9 C 0 km/h
1787 05-07-2008 21:37:01 23.7 C 8.56 g/m*3 23.7 C 0 km/h
1788 05-07-2008 21:49:01 23.3 C 9.2 g/m*3 23.3 C 0 km/h
1789 05-07-2008 22:01:01 22.4 C 10.13 g/m*3 22.4 C 0 km/h
1790 05-07-2008 22:13:01 22.7 C 9.9 g/m*3 22.7 C 0 km/h
1791 05-07-2008 22:25:01 22.6 C 9.64 g/m*3 22.6 C 0 km/h
1792 05-07-2008 22:37:01 22.3 C 9.68 g/m*3 22.3 C 0 km/h
1793 05-07-2008 22:49:01 22.1 C 9.56 g/m*3 22.1 C 0 km/h
1794 05-07-2008 23:01:02 22 C 9.7 g/m*3 22 C 0 km/h
1795 05-07-2008 23:13:02 22.1 C 9.76 g/m*3 22.1 C 0 km/h
1796 05-07-2008 23:25:01 22.1 C 9.76 g/m*3 22.1 C 0 km/h
1797 05-07-2008 23:37:02 21.7 C 9.92 g/m*3 21.7 C 0 km/h
1798 05-07-2008 23:49:02 21.6 C 9.86 g/m*3 21.6 C 0 km/h
1799 06-07-2008 00:01:02 21.4 C 9.75 g/m*3 21.4 C 0 km/h
1800 06-07-2008 00:13:02 21.1 C 9.58 g/m*3 21.1 C 0 km/h
Sensor: Nr:Datum:Temp:Abs-Feuchte:Windchill:Wind:
Aussen-T/F 1801 06-07-2008 00:25:02 20.7 C 9.72 g/m*3 20.7 C 0 km/h
1802 06-07-2008 00:38:02 20.4 C 9.73 g/m*3 20.4 C 0 km/h
1803 06-07-2008 00:50:02 20.2 C 9.79 g/m*3 20.2 C 0 km/h
1804 06-07-2008 01:02:02 20 C 9.68 g/m*3 20 C 0 km/h
1805 06-07-2008 01:14:03 20.1 C 9.73 g/m*3 20.1 C 0 km/h
1806 06-07-2008 01:26:03 20.2 C 9.79 g/m*3 20.2 C 0 km/h
1807 06-07-2008 01:38:03 20.2 C 9.79 g/m*3 20.2 C 0 km/h
1808 06-07-2008 01:50:03 19.8 C 9.74 g/m*3 19.8 C 0 km/h
1809 06-07-2008 02:02:03 19.4 C 9.84 g/m*3 19.4 C 0 km/h
1810 06-07-2008 02:14:03 19.4 C 9.68 g/m*3 19.4 C 0 km/h
1811 06-07-2008 02:26:03 19.5 C 9.73 g/m*3 19.5 C 0 km/h
1812 06-07-2008 02:38:03 19 C 9.61 g/m*3 19 C 0 km/h
1813 06-07-2008 02:50:03 18.9 C 9.88 g/m*3 18.9 C 0 km/h
1814 06-07-2008 03:02:03 19 C 10.1 g/m*3 19 C 0 km/h
1815 06-07-2008 03:14:03 19 C 10.1 g/m*3 19 C 0 km/h
1816 06-07-2008 03:26:03 19.3 C 10.12 g/m*3 19.3 C 0 km/h
1817 06-07-2008 03:38:03 19.3 C 10.12 g/m*3 19.3 C 0 km/h
1818 06-07-2008 03:50:03 19.2 C 10.22 g/m*3 19.2 C 0 km/h
1819 06-07-2008 04:02:03 19.3 C 10.28 g/m*3 19.3 C 0 km/h
1820 06-07-2008 04:14:03 19.2 C 10.06 g/m*3 19.2 C 0 km/h
1821 06-07-2008 04:26:03 19.2 C 10.22 g/m*3 19.2 C 0 km/h
1822 06-07-2008 04:38:03 19.3 C 10.45 g/m*3 19.3 C 0 km/h
1823 06-07-2008 04:50:03 19.2 C 10.39 g/m*3 19.2 C 0 km/h
1824 06-07-2008 05:02:04 19.2 C 10.39 g/m*3 19.2 C 0 km/h
1825 06-07-2008 05:14:04 19 C 10.27 g/m*3 19 C 0 km/h
Sensor: Nr:Datum:Temp:Abs-Feuchte:Windchill:Wind:
Aussen-T/F 1826 06-07-2008 05:26:04 18.9 C 10.53 g/m*3 18.9 C 0 km/h
1827 06-07-2008 05:38:04 18.8 C 10.63 g/m*3 18.8 C 0 km/h
1828 06-07-2008 05:50:04 18.7 C 10.89 g/m*3 18.7 C 0 km/h
1829 06-07-2008 06:02:04 18.7 C 10.89 g/m*3 18.7 C 0 km/h
1830 06-07-2008 06:14:04 18.6 C 10.82 g/m*3 18.6 C 0 km/h
1831 06-07-2008 06:26:04 18.8 C 11.11 g/m*3 18.8 C 0 km/h
1832 06-07-2008 06:38:04 18.8 C 11.27 g/m*3 18.8 C 0 km/h
1833 06-07-2008 06:50:04 18.7 C 11.05 g/m*3 18.7 C 0 km/h
1834 06-07-2008 07:02:04 19 C 11.08 g/m*3 19 C 0 km/h
1835 06-07-2008 07:14:04 19.1 C 10.98 g/m*3 19.1 C 0 km/h
1836 06-07-2008 07:26:04 19.3 C 11.11 g/m*3 19.3 C 0 km/h
1837 06-07-2008 07:38:04 19.5 C 11.24 g/m*3 19.5 C 0 km/h
1838 06-07-2008 07:50:04 20.1 C 11.13 g/m*3 20.1 C 0 km/h
1839 06-07-2008 08:02:03 20.2 C 10.84 g/m*3 20.2 C 0 km/h
1840 06-07-2008 08:14:03 20.2 C 11.02 g/m*3 20.2 C 0 km/h
1841 06-07-2008 08:26:02 20.1 C 10.78 g/m*3 20.1 C 0 km/h
1842 06-07-2008 08:38:03 20.2 C 10.84 g/m*3 20.2 C 0 km/h
1843 06-07-2008 08:50:02 20.6 C 10.92 g/m*3 20.6 C 0 km/h
1844 06-07-2008 09:02:02 20.6 C 10.56 g/m*3 20.6 C 0 km/h
1845 06-07-2008 09:14:02 20.9 C 10.75 g/m*3 20.9 C 0 km/h
1846 06-07-2008 09:26:02 20.7 C 10.26 g/m*3 20.7 C 0 km/h
1847 06-07-2008 09:38:02 20.8 C 10.32 g/m*3 20.8 C 0 km/h
1848 06-07-2008 09:50:02 21.1 C 10.13 g/m*3 21.1 C 0 km/h
1849 06-07-2008 10:02:02 21.2 C 10.01 g/m*3 21.2 C 0 km/h
1850 06-07-2008 10:14:02 21.6 C 10.05 g/m*3 21.6 C 0 km/h
Sensor: Nr:Datum:Temp:Abs-Feuchte:Windchill:Wind:
Aussen-T/F 1851 06-07-2008 10:26:02 22 C 9.51 g/m*3 22 C 0 km/h
1852 06-07-2008 10:38:02 22.7 C 9.5 g/m*3 22.7 C 0 km/h
1853 06-07-2008 10:50:02 22.8 C 8.94 g/m*3 22.8 C 0 km/h
1854 06-07-2008 11:02:02 23 C 8.63 g/m*3 23 C 0 km/h
1855 06-07-2008 11:14:02 23.3 C 8.15 g/m*3 23.3 C 0 km/h
1856 06-07-2008 11:26:02 23.3 C 8.15 g/m*3 23.3 C 0 km/h
1857 06-07-2008 11:38:02 24 C 8.05 g/m*3 24 C 0 km/h
1858 06-07-2008 11:50:01 23.7 C 7.91 g/m*3 23.7 C 0 km/h
1859 06-07-2008 12:02:02 23.3 C 7.53 g/m*3 23.3 C 0 km/h
1860 06-07-2008 12:14:02 23.3 C 7.74 g/m*3 23.3 C 0 km/h
1861 06-07-2008 12:26:01 23.5 C 7.82 g/m*3 23.5 C 0 km/h
1862 06-07-2008 12:38:02 23.3 C 7.53 g/m*3 23.3 C 0 km/h
1863 06-07-2008 12:50:02 23.6 C 7.87 g/m*3 23.6 C 0 km/h
1864 06-07-2008 13:02:03 23.4 C 8.41 g/m*3 23.4 C 0 km/h
1865 06-07-2008 13:14:03 23.2 C 7.9 g/m*3 23.2 C 0 km/h
1866 06-07-2008 13:26:02 23.2 C 7.9 g/m*3 23.2 C 0 km/h
1867 06-07-2008 13:38:03 22.8 C 7.72 g/m*3 22.8 C 0 km/h
1868 06-07-2008 13:50:02 22.6 C 7.23 g/m*3 22.6 C 0 km/h
1869 06-07-2008 14:02:01 22.2 C 7.46 g/m*3 22.2 C 0 km/h
1870 06-07-2008 14:14:01 22.3 C 7.9 g/m*3 22.3 C 0 km/h
1871 06-07-2008 14:26:02 22.3 C 7.7 g/m*3 22.3 C 0 km/h
1872 06-07-2008 14:38:01 22.4 C 7.55 g/m*3 22.4 C 0 km/h
1873 06-07-2008 14:50:02 22.3 C 7.5 g/m*3 22.3 C 0 km/h
1874 06-07-2008 15:02:01 22.7 C 7.48 g/m*3 22.7 C 0 km/h
1875 06-07-2008 15:14:01 23.1 C 7.44 g/m*3 23.1 C 0 km/h
Sensor: Nr:Datum:Temp:Abs-Feuchte:Windchill:Wind:
Aussen-T/F 1876 06-07-2008 15:26:02 23.2 C 7.69 g/m*3 23.2 C 0 km/h
1877 06-07-2008 15:38:01 22.4 C 7.94 g/m*3 22.4 C 0 km/h
1878 06-07-2008 15:50:01 22.5 C 7.79 g/m*3 22.5 C 0 km/h
1879 06-07-2008 16:02:02 22.8 C 8.13 g/m*3 22.8 C 0 km/h
1880 06-07-2008 16:14:02 22.9 C 7.97 g/m*3 22.9 C 0 km/h
1881 06-07-2008 16:26:01 22.7 C 8.08 g/m*3 22.7 C 0 km/h
1882 06-07-2008 16:38:02 22.9 C 8.17 g/m*3 22.9 C 0 km/h
1883 06-07-2008 16:50:02 23.9 C 8 g/m*3 23.9 C 0 km/h
1884 06-07-2008 17:02:02 24.4 C 7.79 g/m*3 24.4 C 0 km/h
1885 06-07-2008 17:14:02 25.2 C 7.68 g/m*3 25.2 C 0 km/h
1886 06-07-2008 17:26:02 24.1 C 7.66 g/m*3 24.1 C 0 km/h
1887 06-07-2008 17:38:02 24.5 C 7.61 g/m*3 24.5 C 0 km/h
1888 06-07-2008 17:50:02 23.7 C 7.91 g/m*3 23.7 C 0 km/h
1889 06-07-2008 18:02:02 23.6 C 7.66 g/m*3 23.6 C 0 km/h
1890 06-07-2008 18:14:02 23.8 C 7.74 g/m*3 23.8 C 0 km/h
1891 06-07-2008 18:26:01 23.5 C 7.61 g/m*3 23.5 C 0 km/h
1892 06-07-2008 18:38:02 23.4 C 7.36 g/m*3 23.4 C 0 km/h
1893 06-07-2008 18:50:02 23.8 C 7.31 g/m*3 23.8 C 0 km/h
1894 06-07-2008 19:02:02 23.5 C 7.19 g/m*3 23.5 C 0 km/h
1895 06-07-2008 19:14:02 24.2 C 6.82 g/m*3 24.2 C 0 km/h
1896 06-07-2008 19:26:02 23.8 C 6.88 g/m*3 23.8 C 0 km/h
1897 06-07-2008 19:38:02 24 C 6.74 g/m*3 24 C 0 km/h
1898 06-07-2008 19:50:02 24.2 C 6.82 g/m*3 24.2 C 0 km/h
1899 06-07-2008 20:02:03 22.4 C 6.95 g/m*3 22.4 C 0 km/h
1900 06-07-2008 20:14:03 22.1 C 7.03 g/m*3 22.1 C 0 km/h
Sensor: Nr:Datum:Temp:Abs-Feuchte:Windchill:Wind:
Aussen-T/F 1901 06-07-2008 20:26:02 21.8 C 6.91 g/m*3 21.8 C 0 km/h
1902 06-07-2008 20:38:02 21.4 C 6.94 g/m*3 21.4 C 0 km/h
1903 06-07-2008 20:50:02 21.3 C 6.9 g/m*3 21.3 C 0 km/h
1904 06-07-2008 21:02:02 21.3 C 6.9 g/m*3 21.3 C 0 km/h
1905 06-07-2008 21:14:02 21.3 C 7.08 g/m*3 21.3 C 0 km/h
1906 06-07-2008 21:26:02 20.9 C 7.29 g/m*3 20.9 C 0 km/h
1907 06-07-2008 21:38:02 20.7 C 7.38 g/m*3 20.7 C 0 km/h
1908 06-07-2008 21:50:02 20.4 C 7.43 g/m*3 20.4 C 0 km/h
1909 06-07-2008 22:02:01 20 C 7.26 g/m*3 20 C 0 km/h
1910 06-07-2008 22:14:01 19.7 C 7.47 g/m*3 19.7 C 0 km/h
1911 06-07-2008 22:26:02 19.5 C 7.55 g/m*3 19.5 C 0 km/h
1912 06-07-2008 22:38:01 19.2 C 7.42 g/m*3 19.2 C 0 km/h
1913 06-07-2008 22:51:02 19.1 C 7.54 g/m*3 19.1 C 0 km/h
1914 06-07-2008 23:03:02 18.9 C 7.61 g/m*3 18.9 C 0 km/h
1915 06-07-2008 23:15:02 18.8 C 7.57 g/m*3 18.8 C 0 km/h
1916 06-07-2008 23:27:02 18.6 C 7.8 g/m*3 18.6 C 0 km/h
1917 06-07-2008 23:39:02 18.2 C 7.93 g/m*3 18.2 C 0 km/h
1918 06-07-2008 23:51:02 18.1 C 7.88 g/m*3 18.1 C 0 km/h
1919 07-07-2008 00:03:02 17.9 C 7.94 g/m*3 17.9 C 0 km/h
1920 07-07-2008 00:15:02 17.5 C 8.05 g/m*3 17.5 C 0 km/h
1921 07-07-2008 00:27:02 17.4 C 8 g/m*3 17.4 C 0 km/h
1922 07-07-2008 00:39:02 17.4 C 8 g/m*3 17.4 C 0 km/h
1923 07-07-2008 00:51:02 17.1 C 8.01 g/m*3 17.1 C 0 km/h
1924 07-07-2008 01:03:02 16.9 C 8.2 g/m*3 16.9 C 0 km/h
1925 07-07-2008 01:15:02 16.9 C 8.05 g/m*3 16.9 C 0 km/h
Sensor: Nr:Datum:Temp:Abs-Feuchte:Windchill:Wind:
Aussen-T/F 1926 07-07-2008 01:27:02 16.8 C 8.01 g/m*3 16.8 C 0 km/h
1927 07-07-2008 01:39:02 16.6 C 8.05 g/m*3 16.6 C 0 km/h
1928 07-07-2008 01:51:02 16.4 C 8.1 g/m*3 16.4 C 0 km/h
1929 07-07-2008 02:03:02 16.3 C 8.19 g/m*3 16.3 C 0 km/h
1930 07-07-2008 02:15:02 16 C 8.45 g/m*3 16 C 0 km/h
1931 07-07-2008 02:27:02 15.6 C 8.38 g/m*3 15.6 C 0 km/h
1932 07-07-2008 02:39:03 15.6 C 8.51 g/m*3 15.6 C 0 km/h
1933 07-07-2008 02:51:03 15.4 C 8.54 g/m*3 15.4 C 0 km/h
1934 07-07-2008 03:03:03 15.4 C 8.54 g/m*3 15.4 C 0 km/h
1935 07-07-2008 03:15:03 15.6 C 8.64 g/m*3 15.6 C 0 km/h
1936 07-07-2008 03:27:03 15.6 C 8.51 g/m*3 15.6 C 0 km/h
1937 07-07-2008 03:39:03 15.6 C 8.51 g/m*3 15.6 C 0 km/h
1938 07-07-2008 03:51:03 15.5 C 8.59 g/m*3 15.5 C 0 km/h
1939 07-07-2008 04:03:03 15.3 C 8.75 g/m*3 15.3 C 0 km/h
1940 07-07-2008 04:15:03 15 C 8.85 g/m*3 15 C 0 km/h
1941 07-07-2008 04:27:03 14.7 C 8.81 g/m*3 14.7 C 0 km/h
1942 07-07-2008 04:39:03 14.5 C 8.83 g/m*3 14.5 C 0 km/h
1943 07-07-2008 04:51:03 14.6 C 8.88 g/m*3 14.6 C 0 km/h
1944 07-07-2008 05:03:03 14.6 C 9.01 g/m*3 14.6 C 0 km/h
1945 07-07-2008 05:15:03 15.2 C 9.22 g/m*3 15.2 C 0 km/h
1946 07-07-2008 05:27:03 14.7 C 9.07 g/m*3 14.7 C 0 km/h
1947 07-07-2008 05:39:03 14.8 C 9.12 g/m*3 14.8 C 0 km/h
1948 07-07-2008 05:51:03 14.7 C 8.94 g/m*3 14.7 C 0 km/h
1949 07-07-2008 06:03:03 14.9 C 9.05 g/m*3 14.9 C 0 km/h
1950 07-07-2008 06:15:03 15 C 9.1 g/m*3 15 C 0 km/h
Sensor: Nr:Datum:Temp:Abs-Feuchte:Windchill:Wind:
Aussen-T/F 1951 07-07-2008 06:27:03 15.1 C 9.03 g/m*3 15.1 C 0 km/h
1952 07-07-2008 06:39:04 15.3 C 9.14 g/m*3 15.3 C 0 km/h
1953 07-07-2008 06:51:04 15.4 C 9.2 g/m*3 15.4 C 0 km/h
1954 07-07-2008 07:03:03 15.6 C 9.18 g/m*3 15.6 C 0 km/h
1955 07-07-2008 07:15:03 15.8 C 9.15 g/m*3 15.8 C 0 km/h
1956 07-07-2008 07:27:03 16 C 9.13 g/m*3 16 C 0 km/h
1957 07-07-2008 07:39:02 16.2 C 8.69 g/m*3 16.2 C 0 km/h
1958 07-07-2008 07:51:02 16.5 C 8.85 g/m*3 16.5 C 0 km/h
1959 07-07-2008 08:03:02 16.8 C 9.01 g/m*3 16.8 C 0 km/h
1960 07-07-2008 08:15:02 17 C 8.54 g/m*3 17 C 0 km/h
1961 07-07-2008 08:27:02 17.2 C 8.49 g/m*3 17.2 C 0 km/h
1962 07-07-2008 08:39:02 17.6 C 8.4 g/m*3 17.6 C 0 km/h
1963 07-07-2008 08:51:01 17.7 C 8.3 g/m*3 17.7 C 0 km/h
1964 07-07-2008 09:03:02 17.5 C 8.2 g/m*3 17.5 C 0 km/h
1965 07-07-2008 09:15:02 18 C 7.83 g/m*3 18 C 0 km/h
1966 07-07-2008 09:27:02 17.9 C 7.79 g/m*3 17.9 C 0 km/h
1967 07-07-2008 09:39:01 18 C 7.37 g/m*3 18 C 0 km/h
1968 07-07-2008 09:51:01 18.6 C 7.32 g/m*3 18.6 C 0 km/h
1969 07-07-2008 10:03:02 18.7 C 7.36 g/m*3 18.7 C 0 km/h
1970 07-07-2008 10:15:01 19.2 C 7.09 g/m*3 19.2 C 0 km/h
1971 07-07-2008 10:27:01 18.7 C 7.04 g/m*3 18.7 C 0 km/h
1972 07-07-2008 10:39:02 18.6 C 6.84 g/m*3 18.6 C 0 km/h
1973 07-07-2008 10:51:02 19.2 C 6.6 g/m*3 19.2 C 0 km/h
1974 07-07-2008 11:03:02 20 C 6.39 g/m*3 20 C 0 km/h
1975 07-07-2008 11:15:02 20 C 6.22 g/m*3 20 C 0 km/h
Sensor: Nr:Datum:Temp:Abs-Feuchte:Windchill:Wind:
Aussen-T/F 1976 07-07-2008 11:27:02 20.1 C 6.26 g/m*3 20.1 C 0 km/h
1977 07-07-2008 11:39:02 20.5 C 6.05 g/m*3 20.5 C 0 km/h
1978 07-07-2008 11:51:01 21.3 C 5.59 g/m*3 21.3 C 0 km/h
1979 07-07-2008 12:03:01 19.5 C 6.55 g/m*3 19.5 C 0 km/h
1980 07-07-2008 12:15:01 20.9 C 6.19 g/m*3 20.9 C 0 km/h
1981 07-07-2008 12:27:01 18.2 C 7.77 g/m*3 18.2 C 0 km/h
1982 07-07-2008 12:39:02 19.4 C 8.51 g/m*3 19.4 C 0 km/h
1983 07-07-2008 12:51:02 19.7 C 7.98 g/m*3 19.7 C 0 km/h
1984 07-07-2008 13:03:02 21.4 C 7.31 g/m*3 21.4 C 0 km/h
1985 07-07-2008 13:15:02 20.6 C 6.62 g/m*3 20.6 C 0 km/h
1986 07-07-2008 13:27:03 19.5 C 6.71 g/m*3 19.5 C 0 km/h
1987 07-07-2008 13:39:02 23.2 C 6.03 g/m*3 23.2 C 0 km/h
1988 07-07-2008 13:51:02 22 C 5.82 g/m*3 22 C 0 km/h
1989 07-07-2008 14:03:01 22.7 C 5.86 g/m*3 22.7 C 0 km/h
1990 07-07-2008 14:15:02 22.7 C 6.06 g/m*3 22.7 C 0 km/h
1991 07-07-2008 14:27:02 21.9 C 5.79 g/m*3 21.9 C 0 km/h
1992 07-07-2008 14:39:01 22.8 C 6.1 g/m*3 22.8 C 0 km/h
1993 07-07-2008 14:51:02 23.2 C 5.82 g/m*3 23.2 C 0 km/h
1994 07-07-2008 15:03:01 23 C 5.76 g/m*3 23 C 0 km/h
1995 07-07-2008 15:15:02 23.7 C 5.78 g/m*3 23.7 C 0 km/h
1996 07-07-2008 15:27:02 23.5 C 5.29 g/m*3 23.5 C 0 km/h
1997 07-07-2008 15:39:01 23.3 C 5.02 g/m*3 23.3 C 0 km/h
1998 07-07-2008 15:51:01 22.5 C 5.39 g/m*3 22.5 C 0 km/h
1999 07-07-2008 16:03:02 22.7 C 5.05 g/m*3 22.7 C 0 km/h
2000 07-07-2008 16:15:02 19.5 C 6.71 g/m*3 19.5 C 0 km/h
Sensor: Nr:Datum:Temp:Abs-Feuchte:Windchill:Wind:
Aussen-T/F 2001 07-07-2008 16:27:02 17.3 C 8.54 g/m*3 17.3 C 0 km/h
2002 07-07-2008 16:39:01 18.7 C 9.77 g/m*3 18.7 C 0 km/h
2003 07-07-2008 16:51:01 20.8 C 9.6 g/m*3 20.8 C 0 km/h
2004 07-07-2008 17:03:02 20.7 C 8.1 g/m*3 20.7 C 0 km/h
2005 07-07-2008 17:15:01 21.5 C 7.73 g/m*3 21.5 C 0 km/h
2006 07-07-2008 17:27:01 20.7 C 7.02 g/m*3 20.7 C 0 km/h
2007 07-07-2008 17:39:02 21 C 6.78 g/m*3 21 C 0 km/h
2008 07-07-2008 17:51:02 20.9 C 6.74 g/m*3 20.9 C 0 km/h
2009 07-07-2008 18:03:02 20.5 C 7.47 g/m*3 20.5 C 0 km/h
2010 07-07-2008 18:15:02 21 C 7.33 g/m*3 21 C 0 km/h
2011 07-07-2008 18:27:02 22.4 C 5.96 g/m*3 22.4 C 0 km/h
2012 07-07-2008 18:39:02 23.3 C 6.06 g/m*3 23.3 C 0 km/h
2013 07-07-2008 18:51:02 22.2 C 5.89 g/m*3 22.2 C 0 km/h
2014 07-07-2008 19:03:01 21.9 C 6.37 g/m*3 21.9 C 0 km/h
2015 07-07-2008 19:15:02 21 C 6.59 g/m*3 21 C 0 km/h
2016 07-07-2008 19:27:02 21.4 C 6.94 g/m*3 21.4 C 0 km/h
2017 07-07-2008 19:39:01 21.8 C 6.91 g/m*3 21.8 C 0 km/h
2018 07-07-2008 19:51:01 21.6 C 7.02 g/m*3 21.6 C 0 km/h
2019 07-07-2008 20:03:02 21.1 C 6.63 g/m*3 21.1 C 0 km/h
2020 07-07-2008 20:15:01 19.5 C 7.05 g/m*3 19.5 C 0 km/h
2021 07-07-2008 20:27:01 19.3 C 7.3 g/m*3 19.3 C 0 km/h
2022 07-07-2008 20:39:02 18.9 C 7.45 g/m*3 18.9 C 0 km/h
2023 07-07-2008 20:51:02 18.5 C 7.75 g/m*3 18.5 C 0 km/h
2024 07-07-2008 21:03:02 15.9 C 9.75 g/m*3 15.9 C 0 km/h
2025 07-07-2008 21:15:02 15.9 C 9.89 g/m*3 15.9 C 0 km/h
Sensor: Nr:Datum:Temp:Abs-Feuchte:Windchill:Wind:
Aussen-T/F 2026 07-07-2008 21:27:02 15.7 C 9.9 g/m*3 15.7 C 0 km/h
2027 07-07-2008 21:39:02 15.5 C 9.91 g/m*3 15.5 C 0 km/h
2028 07-07-2008 21:51:02 15.6 C 10.11 g/m*3 15.6 C 0 km/h
2029 07-07-2008 22:03:01 15.7 C 9.77 g/m*3 15.7 C 0 km/h
2030 07-07-2008 22:15:01 15.7 C 9.37 g/m*3 15.7 C 0 km/h
2031 07-07-2008 22:27:01 15.6 C 9.18 g/m*3 15.6 C 0 km/h
2032 07-07-2008 22:40:02 15.4 C 9.2 g/m*3 15.4 C 0 km/h
2033 07-07-2008 22:52:02 15.4 C 9.07 g/m*3 15.4 C 0 km/h
2034 07-07-2008 23:04:02 15.7 C 8.96 g/m*3 15.7 C 0 km/h
2035 07-07-2008 23:16:03 15.9 C 8.94 g/m*3 15.9 C 0 km/h
2036 07-07-2008 23:28:03 16 C 8.86 g/m*3 16 C 0 km/h
2037 07-07-2008 23:40:03 15.3 C 9.66 g/m*3 15.3 C 0 km/h
2038 07-07-2008 23:52:03 14.7 C 9.95 g/m*3 14.7 C 0 km/h
2039 08-07-2008 00:04:03 15 C 9.87 g/m*3 15 C 0 km/h
2040 08-07-2008 00:16:03 15 C 9.62 g/m*3 15 C 0 km/h
2041 08-07-2008 00:28:03 15 C 9.62 g/m*3 15 C 0 km/h
2042 08-07-2008 00:40:03 14.8 C 9.75 g/m*3 14.8 C 0 km/h
2043 08-07-2008 00:52:03 14.7 C 9.57 g/m*3 14.7 C 0 km/h
2044 08-07-2008 01:04:03 14.8 C 9.37 g/m*3 14.8 C 0 km/h
2045 08-07-2008 01:16:03 15.1 C 9.16 g/m*3 15.1 C 0 km/h
2046 08-07-2008 01:28:03 15.3 C 9.14 g/m*3 15.3 C 0 km/h
2047 08-07-2008 01:40:03 15.3 C 9.01 g/m*3 15.3 C 0 km/h
2048 08-07-2008 01:52:03 15.3 C 8.88 g/m*3 15.3 C 0 km/h
2049 08-07-2008 02:04:03 15.8 C 8.88 g/m*3 15.8 C 0 km/h
2050 08-07-2008 02:16:03 15.9 C 8.8 g/m*3 15.9 C 0 km/h
Sensor: Nr:Datum:Temp:Abs-Feuchte:Windchill:Wind:
Aussen-T/F 2051 08-07-2008 02:28:03 16 C 8.72 g/m*3 16 C 0 km/h
2052 08-07-2008 02:40:03 15.9 C 8.67 g/m*3 15.9 C 0 km/h
2053 08-07-2008 02:52:03 16 C 8.72 g/m*3 16 C 0 km/h
2054 08-07-2008 03:04:04 15.7 C 9.1 g/m*3 15.7 C 0 km/h
2055 08-07-2008 03:16:04 15.3 C 9.4 g/m*3 15.3 C 0 km/h
2056 08-07-2008 03:28:04 14.8 C 9.88 g/m*3 14.8 C 0 km/h
2057 08-07-2008 03:40:04 14.6 C 10.14 g/m*3 14.6 C 0 km/h
2058 08-07-2008 03:52:04 14.4 C 10.01 g/m*3 14.4 C 0 km/h
2059 08-07-2008 04:04:04 14.7 C 10.07 g/m*3 14.7 C 0 km/h
2060 08-07-2008 04:16:04 14.7 C 9.95 g/m*3 14.7 C 0 km/h
2061 08-07-2008 04:28:04 14.7 C 9.69 g/m*3 14.7 C 0 km/h
2062 08-07-2008 04:40:04 14.5 C 9.58 g/m*3 14.5 C 0 km/h
2063 08-07-2008 04:52:04 14.5 C 9.45 g/m*3 14.5 C 0 km/h
2064 08-07-2008 05:04:04 14.5 C 9.33 g/m*3 14.5 C 0 km/h
2065 08-07-2008 05:16:04 14.7 C 9.32 g/m*3 14.7 C 0 km/h
2066 08-07-2008 05:28:04 14.7 C 9.19 g/m*3 14.7 C 0 km/h
2067 08-07-2008 05:40:04 14.8 C 9.25 g/m*3 14.8 C 0 km/h
2068 08-07-2008 05:52:04 15 C 9.23 g/m*3 15 C 0 km/h
2069 08-07-2008 06:04:04 15.1 C 9.03 g/m*3 15.1 C 0 km/h
2070 08-07-2008 06:16:04 15.3 C 8.88 g/m*3 15.3 C 0 km/h
2071 08-07-2008 06:28:04 15.4 C 8.93 g/m*3 15.4 C 0 km/h
2072 08-07-2008 06:40:02 15.6 C 8.91 g/m*3 15.6 C 0 km/h
2073 08-07-2008 06:52:02 15 C 9.23 g/m*3 15 C 0 km/h
2074 08-07-2008 07:04:02 14.7 C 9.57 g/m*3 14.7 C 0 km/h
2075 08-07-2008 07:16:02 14.3 C 9.95 g/m*3 14.3 C 0 km/h
Sensor: Nr:Datum:Temp:Abs-Feuchte:Windchill:Wind:
Aussen-T/F 2076 08-07-2008 07:28:02 14.2 C 10.26 g/m*3 14.2 C 0 km/h
2077 08-07-2008 07:40:02 14.1 C 10.32 g/m*3 14.1 C 0 km/h
2078 08-07-2008 07:52:02 14.3 C 10.57 g/m*3 14.3 C 0 km/h
2079 08-07-2008 08:04:01 14.6 C 10.39 g/m*3 14.6 C 0 km/h
2080 08-07-2008 08:16:01 15.1 C 10.19 g/m*3 15.1 C 0 km/h
2081 08-07-2008 08:28:01 15.8 C 9.83 g/m*3 15.8 C 0 km/h
2082 08-07-2008 08:40:02 15.9 C 9.48 g/m*3 15.9 C 0 km/h
2083 08-07-2008 08:52:02 15.8 C 9.15 g/m*3 15.8 C 0 km/h
2084 08-07-2008 09:04:02 16.4 C 9.07 g/m*3 16.4 C 0 km/h
2085 08-07-2008 09:16:02 16.2 C 8.96 g/m*3 16.2 C 0 km/h
2086 08-07-2008 09:28:02 16.9 C 8.92 g/m*3 16.9 C 0 km/h
2087 08-07-2008 09:40:02 16.9 C 8.77 g/m*3 16.9 C 0 km/h
2088 08-07-2008 09:52:02 17.1 C 8.59 g/m*3 17.1 C 0 km/h
2089 08-07-2008 10:04:02 17.2 C 8.35 g/m*3 17.2 C 0 km/h
2090 08-07-2008 10:16:02 17.6 C 8.55 g/m*3 17.6 C 0 km/h
2091 08-07-2008 10:28:02 17.7 C 8.15 g/m*3 17.7 C 0 km/h
2092 08-07-2008 10:40:02 18.2 C 8.39 g/m*3 18.2 C 0 km/h
2093 08-07-2008 10:52:02 19 C 8.31 g/m*3 19 C 0 km/h
2094 08-07-2008 11:04:02 19.7 C 8.15 g/m*3 19.7 C 0 km/h
2095 08-07-2008 11:16:02 18.7 C 8.17 g/m*3 18.7 C 0 km/h
2096 08-07-2008 11:28:02 19.2 C 8.41 g/m*3 19.2 C 0 km/h
2097 08-07-2008 11:40:02 20 C 7.95 g/m*3 20 C 0 km/h
2098 08-07-2008 11:52:02 19.9 C 8.08 g/m*3 19.9 C 0 km/h
2099 08-07-2008 12:04:02 20.2 C 8.04 g/m*3 20.2 C 0 km/h
2100 08-07-2008 12:16:02 18.9 C 8.42 g/m*3 18.9 C 0 km/h
Sensor: Nr:Datum:Temp:Abs-Feuchte:Windchill:Wind:
Aussen-T/F 2101 08-07-2008 12:28:02 17.8 C 9.71 g/m*3 17.8 C 0 km/h
2102 08-07-2008 12:40:02 19.8 C 8.88 g/m*3 19.8 C 0 km/h
2103 08-07-2008 12:52:01 20.3 C 8.62 g/m*3 20.3 C 0 km/h
2104 08-07-2008 13:04:02 21.3 C 7.83 g/m*3 21.3 C 0 km/h
2105 08-07-2008 13:16:01 21.6 C 7.78 g/m*3 21.6 C 0 km/h
2106 08-07-2008 13:28:01 22.5 C 7.59 g/m*3 22.5 C 0 km/h
2107 08-07-2008 13:40:02 21.8 C 7.48 g/m*3 21.8 C 0 km/h
2108 08-07-2008 13:52:02 21.2 C 7.41 g/m*3 21.2 C 0 km/h
2109 08-07-2008 14:04:02 21.7 C 7.25 g/m*3 21.7 C 0 km/h
2110 08-07-2008 14:16:02 20.3 C 7.39 g/m*3 20.3 C 0 km/h
2111 08-07-2008 14:28:02 20.7 C 7.38 g/m*3 20.7 C 0 km/h
2112 08-07-2008 14:40:02 21.9 C 7.33 g/m*3 21.9 C 0 km/h
2113 08-07-2008 14:52:02 21.6 C 7.21 g/m*3 21.6 C 0 km/h
2114 08-07-2008 15:04:01 20.4 C 7.08 g/m*3 20.4 C 0 km/h
2115 08-07-2008 15:16:02 20 C 7.26 g/m*3 20 C 0 km/h
2116 08-07-2008 15:28:02 21.2 C 7.23 g/m*3 21.2 C 0 km/h
2117 08-07-2008 15:40:01 21.2 C 6.67 g/m*3 21.2 C 0 km/h
2118 08-07-2008 15:52:03 20.9 C 6.92 g/m*3 20.9 C 0 km/h
2119 08-07-2008 16:04:02 18.3 C 8.13 g/m*3 18.3 C 0 km/h
2120 08-07-2008 16:16:03 19 C 7.82 g/m*3 19 C 0 km/h
2121 08-07-2008 16:28:03 20.4 C 7.61 g/m*3 20.4 C 0 km/h
2122 08-07-2008 16:40:02 19.2 C 7.75 g/m*3 19.2 C 0 km/h
2123 08-07-2008 16:52:03 19.2 C 8.24 g/m*3 19.2 C 0 km/h
2124 08-07-2008 17:04:02 19.8 C 8.03 g/m*3 19.8 C 0 km/h
2125 08-07-2008 17:16:03 19.4 C 8.18 g/m*3 19.4 C 0 km/h
Sensor: Nr:Datum:Temp:Abs-Feuchte:Windchill:Wind:
Aussen-T/F 2126 08-07-2008 17:28:03 17.1 C 9.46 g/m*3 17.1 C 0 km/h
2127 08-07-2008 17:40:02 17 C 9.12 g/m*3 17 C 0 km/h
2128 08-07-2008 17:52:02 17.7 C 8.75 g/m*3 17.7 C 0 km/h
2129 08-07-2008 18:04:03 18.6 C 8.12 g/m*3 18.6 C 0 km/h
2130 08-07-2008 18:16:02 19.1 C 7.87 g/m*3 19.1 C 0 km/h
2131 08-07-2008 18:28:02 19.4 C 7.67 g/m*3 19.4 C 0 km/h
2132 08-07-2008 18:40:03 19.4 C 7.67 g/m*3 19.4 C 0 km/h
2133 08-07-2008 18:52:02 19 C 7.82 g/m*3 19 C 0 km/h
2134 08-07-2008 19:04:02 18.4 C 7.71 g/m*3 18.4 C 0 km/h
2135 08-07-2008 19:16:02 16.8 C 8.58 g/m*3 16.8 C 0 km/h
2136 08-07-2008 19:28:02 16.2 C 8.55 g/m*3 16.2 C 0 km/h
2137 08-07-2008 19:40:02 16.6 C 7.91 g/m*3 16.6 C 0 km/h
2138 08-07-2008 19:52:02 17.8 C 7.59 g/m*3 17.8 C 0 km/h
2139 08-07-2008 20:04:02 19.1 C 7.38 g/m*3 19.1 C 0 km/h
2140 08-07-2008 20:16:02 19.3 C 6.97 g/m*3 19.3 C 0 km/h
2141 08-07-2008 20:28:03 18.9 C 6.97 g/m*3 18.9 C 0 km/h
2142 08-07-2008 20:40:02 18.3 C 7.19 g/m*3 18.3 C 0 km/h
2143 08-07-2008 20:52:03 17.7 C 7.54 g/m*3 17.7 C 0 km/h
2144 08-07-2008 21:04:02 17.3 C 7.51 g/m*3 17.3 C 0 km/h
2145 08-07-2008 21:16:02 17.1 C 7.42 g/m*3 17.1 C 0 km/h
2146 08-07-2008 21:28:02 16.9 C 7.48 g/m*3 16.9 C 0 km/h
2147 08-07-2008 21:40:02 16.8 C 7.58 g/m*3 16.8 C 0 km/h
2148 08-07-2008 21:52:02 16.4 C 7.82 g/m*3 16.4 C 0 km/h
2149 08-07-2008 22:04:02 16 C 7.77 g/m*3 16 C 0 km/h
2150 08-07-2008 22:16:02 15.7 C 7.89 g/m*3 15.7 C 0 km/h
Sensor: Nr:Datum:Temp:Abs-Feuchte:Windchill:Wind:
Aussen-T/F 2151 08-07-2008 22:28:02 15.7 C 8.03 g/m*3 15.7 C 0 km/h
2152 08-07-2008 22:40:02 15.8 C 7.94 g/m*3 15.8 C 0 km/h
2153 08-07-2008 22:53:02 15.8 C 7.94 g/m*3 15.8 C 0 km/h
2154 08-07-2008 23:05:02 15.8 C 7.81 g/m*3 15.8 C 0 km/h
2155 08-07-2008 23:17:02 15.8 C 7.67 g/m*3 15.8 C 0 km/h
2156 08-07-2008 23:29:02 15.6 C 7.71 g/m*3 15.6 C 0 km/h
2157 08-07-2008 23:41:02 15.3 C 7.84 g/m*3 15.3 C 0 km/h
2158 08-07-2008 23:53:02 15.1 C 7.87 g/m*3 15.1 C 0 km/h
2159 09-07-2008 00:05:02 15.1 C 7.74 g/m*3 15.1 C 0 km/h
2160 09-07-2008 00:17:03 15 C 7.69 g/m*3 15 C 0 km/h
2161 09-07-2008 00:29:03 15 C 7.69 g/m*3 15 C 0 km/h
2162 09-07-2008 00:41:03 15.1 C 7.61 g/m*3 15.1 C 0 km/h
2163 09-07-2008 00:53:03 15.1 C 7.61 g/m*3 15.1 C 0 km/h
2164 09-07-2008 01:05:03 15.3 C 7.57 g/m*3 15.3 C 0 km/h
2165 09-07-2008 01:17:03 15.3 C 7.57 g/m*3 15.3 C 0 km/h
2166 09-07-2008 01:29:03 15.1 C 7.48 g/m*3 15.1 C 0 km/h
2167 09-07-2008 01:41:03 15.1 C 7.48 g/m*3 15.1 C 0 km/h
2168 09-07-2008 01:53:03 14.9 C 7.65 g/m*3 14.9 C 0 km/h
2169 09-07-2008 02:05:03 14.7 C 7.55 g/m*3 14.7 C 0 km/h
2170 09-07-2008 02:17:03 14.6 C 7.63 g/m*3 14.6 C 0 km/h
2171 09-07-2008 02:29:03 14.5 C 7.71 g/m*3 14.5 C 0 km/h
2172 09-07-2008 02:41:03 14.5 C 7.84 g/m*3 14.5 C 0 km/h
2173 09-07-2008 02:53:03 14.4 C 7.79 g/m*3 14.4 C 0 km/h
2174 09-07-2008 03:05:03 14.4 C 7.79 g/m*3 14.4 C 0 km/h
2175 09-07-2008 03:17:03 14.1 C 7.77 g/m*3 14.1 C 0 km/h
Sensor: Nr:Datum:Temp:Abs-Feuchte:Windchill:Wind:
Aussen-T/F 2176 09-07-2008 03:29:03 14.2 C 7.94 g/m*3 14.2 C 0 km/h
2177 09-07-2008 03:41:03 14.2 C 8.06 g/m*3 14.2 C 0 km/h
2178 09-07-2008 03:53:03 14.1 C 8.13 g/m*3 14.1 C 0 km/h
2179 09-07-2008 04:05:04 14 C 8.08 g/m*3 14 C 0 km/h
2180 09-07-2008 04:17:04 13.8 C 8.22 g/m*3 13.8 C 0 km/h
2181 09-07-2008 04:29:04 13.8 C 8.22 g/m*3 13.8 C 0 km/h
2182 09-07-2008 04:41:04 13.8 C 8.22 g/m*3 13.8 C 0 km/h
2183 09-07-2008 04:53:04 13.8 C 8.34 g/m*3 13.8 C 0 km/h
2184 09-07-2008 05:05:04 13.8 C 8.22 g/m*3 13.8 C 0 km/h
2185 09-07-2008 05:17:04 14.1 C 8.13 g/m*3 14.1 C 0 km/h
2186 09-07-2008 05:29:04 14.2 C 8.06 g/m*3 14.2 C 0 km/h
2187 09-07-2008 05:41:04 14.3 C 8.11 g/m*3 14.3 C 0 km/h
2188 09-07-2008 05:53:04 14.3 C 7.99 g/m*3 14.3 C 0 km/h
2189 09-07-2008 06:05:04 14.2 C 8.06 g/m*3 14.2 C 0 km/h
2190 09-07-2008 06:17:03 14.2 C 8.18 g/m*3 14.2 C 0 km/h
2191 09-07-2008 06:29:03 14.1 C 8.13 g/m*3 14.1 C 0 km/h
2192 09-07-2008 06:41:02 14.1 C 8.13 g/m*3 14.1 C 0 km/h
2193 09-07-2008 06:53:03 14 C 8.08 g/m*3 14 C 0 km/h
2194 09-07-2008 07:05:02 14 C 8.08 g/m*3 14 C 0 km/h
2195 09-07-2008 07:17:02 14.1 C 8.25 g/m*3 14.1 C 0 km/h
2196 09-07-2008 07:29:02 14.1 C 8.25 g/m*3 14.1 C 0 km/h
2197 09-07-2008 07:41:03 14.3 C 8.11 g/m*3 14.3 C 0 km/h
2198 09-07-2008 07:53:02 14.5 C 8.08 g/m*3 14.5 C 0 km/h
2199 09-07-2008 08:05:02 14.6 C 8.13 g/m*3 14.6 C 0 km/h
2200 09-07-2008 08:17:02 14.7 C 8.06 g/m*3 14.7 C 0 km/h
Sensor: Nr:Datum:Temp:Abs-Feuchte:Windchill:Wind:
Aussen-T/F 2201 09-07-2008 08:29:02 14.8 C 8.11 g/m*3 14.8 C 0 km/h
2202 09-07-2008 08:41:02 15.2 C 8.05 g/m*3 15.2 C 0 km/h
2203 09-07-2008 08:53:02 15.5 C 7.8 g/m*3 15.5 C 0 km/h
2204 09-07-2008 09:05:02 16 C 7.63 g/m*3 16 C 0 km/h
2205 09-07-2008 09:17:02 16.5 C 7.3 g/m*3 16.5 C 0 km/h
2206 09-07-2008 09:29:02 17.2 C 6.88 g/m*3 17.2 C 0 km/h
2207 09-07-2008 09:41:02 17.5 C 7.01 g/m*3 17.5 C 0 km/h
2208 09-07-2008 09:53:01 17.8 C 6.68 g/m*3 17.8 C 0 km/h
2209 09-07-2008 10:05:02 18.3 C 6.41 g/m*3 18.3 C 0 km/h
2210 09-07-2008 10:17:02 18.4 C 6.61 g/m*3 18.4 C 0 km/h
2211 09-07-2008 10:29:02 18.7 C 6.88 g/m*3 18.7 C 0 km/h
2212 09-07-2008 10:41:02 19.5 C 6.88 g/m*3 19.5 C 0 km/h
2213 09-07-2008 10:53:02 19.8 C 6.66 g/m*3 19.8 C 0 km/h
2214 09-07-2008 11:05:02 19.6 C 6.75 g/m*3 19.6 C 0 km/h
2215 09-07-2008 11:17:01 19.5 C 6.88 g/m*3 19.5 C 0 km/h
2216 09-07-2008 11:29:01 19.5 C 6.55 g/m*3 19.5 C 0 km/h
2217 09-07-2008 11:41:02 19.9 C 6.53 g/m*3 19.9 C 0 km/h
2218 09-07-2008 11:53:02 21.2 C 6.67 g/m*3 21.2 C 0 km/h
2219 09-07-2008 12:05:02 21.3 C 6.34 g/m*3 21.3 C 0 km/h
2220 09-07-2008 12:17:02 21.7 C 6.29 g/m*3 21.7 C 0 km/h
2221 09-07-2008 12:29:02 22.1 C 6.25 g/m*3 22.1 C 0 km/h
2222 09-07-2008 12:41:02 22.5 C 5.99 g/m*3 22.5 C 0 km/h
2223 09-07-2008 12:53:01 21.8 C 5.95 g/m*3 21.8 C 0 km/h
2224 09-07-2008 13:05:02 21.6 C 6.26 g/m*3 21.6 C 0 km/h
2225 09-07-2008 13:17:01 21.9 C 6.37 g/m*3 21.9 C 0 km/h
Sensor: Nr:Datum:Temp:Abs-Feuchte:Windchill:Wind:
Aussen-T/F 2226 09-07-2008 13:29:01 22.3 C 6.32 g/m*3 22.3 C 0 km/h
2227 09-07-2008 13:41:02 21.8 C 6.52 g/m*3 21.8 C 0 km/h
2228 09-07-2008 13:53:02 21.5 C 6.41 g/m*3 21.5 C 0 km/h
2229 09-07-2008 14:05:03 21.3 C 6.52 g/m*3 21.3 C 0 km/h
2230 09-07-2008 14:17:02 22 C 6.6 g/m*3 22 C 0 km/h
2231 09-07-2008 14:29:02 21.5 C 6.6 g/m*3 21.5 C 0 km/h
2232 09-07-2008 14:41:02 21.5 C 6.6 g/m*3 21.5 C 0 km/h
2233 09-07-2008 14:53:02 21.2 C 6.67 g/m*3 21.2 C 0 km/h
2234 09-07-2008 15:05:02 21.4 C 6.75 g/m*3 21.4 C 0 km/h
2235 09-07-2008 15:17:02 21.1 C 6.82 g/m*3 21.1 C 0 km/h
2236 09-07-2008 15:29:02 20.9 C 7.47 g/m*3 20.9 C 0 km/h
2237 09-07-2008 15:41:02 20.8 C 7.42 g/m*3 20.8 C 0 km/h
2238 09-07-2008 15:53:02 20.9 C 7.65 g/m*3 20.9 C 0 km/h
2239 09-07-2008 16:05:02 20.5 C 8.01 g/m*3 20.5 C 0 km/h
2240 09-07-2008 16:17:02 20.4 C 7.96 g/m*3 20.4 C 0 km/h
2241 09-07-2008 16:29:02 19.7 C 8.49 g/m*3 19.7 C 0 km/h
2242 09-07-2008 16:41:03 19.7 C 8.83 g/m*3 19.7 C 0 km/h
2243 09-07-2008 16:53:02 19.6 C 9.28 g/m*3 19.6 C 0 km/h
2244 09-07-2008 17:05:02 19.1 C 9.84 g/m*3 19.1 C 0 km/h
2245 09-07-2008 17:17:02 18.6 C 9.71 g/m*3 18.6 C 0 km/h
2246 09-07-2008 17:29:02 19 C 10.43 g/m*3 19 C 0 km/h
2247 09-07-2008 17:41:02 19.5 C 10.74 g/m*3 19.5 C 0 km/h
2248 09-07-2008 17:53:02 19.7 C 11.21 g/m*3 19.7 C 0 km/h
2249 09-07-2008 18:05:02 18.9 C 11.34 g/m*3 18.9 C 0 km/h
2250 09-07-2008 18:17:02 17.5 C 11.48 g/m*3 17.5 C 0 km/h
Sensor: Nr:Datum:Temp:Abs-Feuchte:Windchill:Wind:
Aussen-T/F 2251 09-07-2008 18:29:02 17 C 11.58 g/m*3 17 C 0 km/h
2252 09-07-2008 18:41:02 17.2 C 12.15 g/m*3 17.2 C 0 km/h
2253 09-07-2008 18:53:01 16.8 C 12.01 g/m*3 16.8 C 0 km/h
2254 09-07-2008 19:05:02 17 C 12.15 g/m*3 17 C 0 km/h
2255 09-07-2008 19:17:02 17 C 11.58 g/m*3 17 C 0 km/h
2256 09-07-2008 19:29:02 16.7 C 11.37 g/m*3 16.7 C 0 km/h
2257 09-07-2008 19:41:02 16.8 C 11.44 g/m*3 16.8 C 0 km/h
2258 09-07-2008 19:53:01 17 C 11.58 g/m*3 17 C 0 km/h
2259 09-07-2008 20:05:02 17.1 C 11.65 g/m*3 17.1 C 0 km/h
2260 09-07-2008 20:17:01 17.2 C 11.57 g/m*3 17.2 C 0 km/h
2261 09-07-2008 20:29:01 17.1 C 11.5 g/m*3 17.1 C 0 km/h
2262 09-07-2008 20:41:02 16.7 C 11.37 g/m*3 16.7 C 0 km/h
2263 09-07-2008 20:53:02 16.2 C 11.45 g/m*3 16.2 C 0 km/h
2264 09-07-2008 21:05:02 16.1 C 11.51 g/m*3 16.1 C 0 km/h
2265 09-07-2008 21:17:02 15.9 C 11.65 g/m*3 15.9 C 0 km/h
2266 09-07-2008 21:29:02 15.9 C 11.65 g/m*3 15.9 C 0 km/h
2267 09-07-2008 21:41:02 16 C 11.72 g/m*3 16 C 0 km/h
2268 09-07-2008 21:53:02 16.1 C 11.79 g/m*3 16.1 C 0 km/h
2269 09-07-2008 22:05:03 16 C 11.72 g/m*3 16 C 0 km/h
2270 09-07-2008 22:17:02 15.8 C 11.71 g/m*3 15.8 C 0 km/h
2271 09-07-2008 22:29:02 15.5 C 11.5 g/m*3 15.5 C 0 km/h
2272 09-07-2008 22:42:03 15.2 C 11.42 g/m*3 15.2 C 0 km/h
2273 09-07-2008 22:54:03 15 C 11.28 g/m*3 15 C 0 km/h
2274 09-07-2008 23:06:03 15.1 C 11.48 g/m*3 15.1 C 0 km/h
2275 09-07-2008 23:18:03 15 C 11.54 g/m*3 15 C 0 km/h
Sensor: Nr:Datum:Temp:Abs-Feuchte:Windchill:Wind:
Aussen-T/F 2276 09-07-2008 23:30:03 15 C 11.54 g/m*3 15 C 0 km/h
2277 09-07-2008 23:42:03 15 C 11.54 g/m*3 15 C 0 km/h
2278 09-07-2008 23:54:03 15.2 C 11.81 g/m*3 15.2 C 0 km/h
2279 10-07-2008 00:06:03 15.2 C 11.81 g/m*3 15.2 C 0 km/h
2280 10-07-2008 00:18:03 15.3 C 11.88 g/m*3 15.3 C 0 km/h
2281 10-07-2008 00:30:03 15.3 C 11.88 g/m*3 15.3 C 0 km/h
2282 10-07-2008 00:42:03 15.3 C 11.88 g/m*3 15.3 C 0 km/h
2283 10-07-2008 00:54:03 15.2 C 11.81 g/m*3 15.2 C 0 km/h
2284 10-07-2008 01:06:03 15.2 C 11.81 g/m*3 15.2 C 0 km/h
2285 10-07-2008 01:18:03 15.2 C 11.81 g/m*3 15.2 C 0 km/h
2286 10-07-2008 01:30:03 15 C 11.67 g/m*3 15 C 0 km/h
2287 10-07-2008 01:42:04 15 C 11.67 g/m*3 15 C 0 km/h
2288 10-07-2008 01:54:04 15 C 11.67 g/m*3 15 C 0 km/h
2289 10-07-2008 02:06:04 15.2 C 11.81 g/m*3 15.2 C 0 km/h
2290 10-07-2008 02:18:04 15.2 C 11.81 g/m*3 15.2 C 0 km/h
2291 10-07-2008 02:30:04 15.2 C 11.68 g/m*3 15.2 C 0 km/h
2292 10-07-2008 02:42:04 15.1 C 11.61 g/m*3 15.1 C 0 km/h
2293 10-07-2008 02:54:04 14.9 C 11.6 g/m*3 14.9 C 0 km/h
2294 10-07-2008 03:06:04 14.7 C 11.46 g/m*3 14.7 C 0 km/h
2295 10-07-2008 03:18:04 14.7 C 11.46 g/m*3 14.7 C 0 km/h
2296 10-07-2008 03:30:04 14.4 C 11.25 g/m*3 14.4 C 0 km/h
2297 10-07-2008 03:42:04 14.3 C 11.18 g/m*3 14.3 C 0 km/h
2298 10-07-2008 03:54:04 14.3 C 11.18 g/m*3 14.3 C 0 km/h
2299 10-07-2008 04:06:04 14.2 C 11.11 g/m*3 14.2 C 0 km/h
2300 10-07-2008 04:18:04 14.6 C 11.51 g/m*3 14.6 C 0 km/h
Sensor: Nr:Datum:Temp:Abs-Feuchte:Windchill:Wind:
Aussen-T/F 2301 10-07-2008 04:30:04 14.7 C 11.58 g/m*3 14.7 C 0 km/h
2302 10-07-2008 04:42:04 14.9 C 11.73 g/m*3 14.9 C 0 km/h
2303 10-07-2008 04:54:04 14.9 C 11.73 g/m*3 14.9 C 0 km/h
2304 10-07-2008 05:06:04 15 C 11.67 g/m*3 15 C 0 km/h
2305 10-07-2008 05:18:04 14.9 C 11.6 g/m*3 14.9 C 0 km/h
2306 10-07-2008 05:30:04 14.8 C 11.53 g/m*3 14.8 C 0 km/h
2307 10-07-2008 05:42:04 14.6 C 11.39 g/m*3 14.6 C 0 km/h
2308 10-07-2008 05:54:05 14.5 C 11.19 g/m*3 14.5 C 0 km/h
2309 10-07-2008 06:06:05 14.5 C 11.19 g/m*3 14.5 C 0 km/h
2310 10-07-2008 06:18:05 14.5 C 11.32 g/m*3 14.5 C 0 km/h
2311 10-07-2008 06:30:05 14.6 C 11.39 g/m*3 14.6 C 0 km/h
2312 10-07-2008 06:42:03 14.8 C 11.53 g/m*3 14.8 C 0 km/h
2313 10-07-2008 06:54:02 15 C 11.54 g/m*3 15 C 0 km/h
2314 10-07-2008 07:06:02 15.4 C 11.96 g/m*3 15.4 C 0 km/h
2315 10-07-2008 07:18:02 15.8 C 12.25 g/m*3 15.8 C 0 km/h
2316 10-07-2008 07:30:02 16.1 C 12.2 g/m*3 16.1 C 0 km/h
2317 10-07-2008 07:42:02 16.4 C 12.14 g/m*3 16.4 C 0 km/h
2318 10-07-2008 07:54:02 16.7 C 12.22 g/m*3 16.7 C 0 km/h
2319 10-07-2008 08:06:03 16.8 C 12.01 g/m*3 16.8 C 0 km/h
2320 10-07-2008 08:18:02 17 C 11.87 g/m*3 17 C 0 km/h
2321 10-07-2008 08:30:02 17.2 C 12.01 g/m*3 17.2 C 0 km/h
2322 10-07-2008 08:42:02 17.2 C 11.86 g/m*3 17.2 C 0 km/h
2323 10-07-2008 08:54:02 17.4 C 11.41 g/m*3 17.4 C 0 km/h
2324 10-07-2008 09:06:02 17.7 C 11.32 g/m*3 17.7 C 0 km/h
2325 10-07-2008 09:18:02 18.3 C 11.41 g/m*3 18.3 C 0 km/h
Sensor: Nr:Datum:Temp:Abs-Feuchte:Windchill:Wind:
Aussen-T/F 2326 10-07-2008 09:30:02 19.3 C 11.78 g/m*3 19.3 C 0 km/h
2327 10-07-2008 09:42:02 20.5 C 11.74 g/m*3 20.5 C 0 km/h
2328 10-07-2008 09:54:02 20.9 C 10.93 g/m*3 20.9 C 0 km/h
2329 10-07-2008 10:06:02 21.2 C 10.19 g/m*3 21.2 C 0 km/h
2330 10-07-2008 10:18:02 21.6 C 10.24 g/m*3 21.6 C 0 km/h
2331 10-07-2008 10:30:02 22.2 C 10.01 g/m*3 22.2 C 0 km/h
2332 10-07-2008 10:42:03 22.7 C 9.9 g/m*3 22.7 C 0 km/h
2333 10-07-2008 10:54:02 23.6 C 9.57 g/m*3 23.6 C 0 km/h
2334 10-07-2008 11:06:01 24.1 C 8.97 g/m*3 24.1 C 0 km/h
2335 10-07-2008 11:18:02 24.2 C 8.8 g/m*3 24.2 C 0 km/h
2336 10-07-2008 11:30:03 23.9 C 8.87 g/m*3 23.9 C 0 km/h
2337 10-07-2008 11:42:01 23.8 C 8.82 g/m*3 23.8 C 0 km/h
2338 10-07-2008 11:54:02 24.9 C 8.93 g/m*3 24.9 C 0 km/h
2339 10-07-2008 12:06:01 25.3 C 8.19 g/m*3 25.3 C 0 km/h
2340 10-07-2008 12:18:02 25.8 C 8.19 g/m*3 25.8 C 0 km/h
2341 10-07-2008 12:30:02 26.5 C 8.01 g/m*3 26.5 C 0 km/h
2342 10-07-2008 12:42:01 26.7 C 7.85 g/m*3 26.7 C 0 km/h
2343 10-07-2008 12:54:02 26.8 C 7.89 g/m*3 26.8 C 0 km/h
2344 10-07-2008 13:06:01 27.9 C 8.11 g/m*3 27.9 C 0 km/h
2345 10-07-2008 13:18:02 28.9 C 7.71 g/m*3 28.9 C 0 km/h
2346 10-07-2008 13:30:02 27.7 C 6.95 g/m*3 27.7 C 0 km/h
2347 10-07-2008 13:42:01 29.2 C 7.26 g/m*3 29.2 C 0 km/h
2348 10-07-2008 13:54:01 29.5 C 7.08 g/m*3 29.5 C 0 km/h
2349 10-07-2008 14:06:01 29.7 C 7.16 g/m*3 29.7 C 0 km/h
2350 10-07-2008 14:18:02 29.4 C 7.34 g/m*3 29.4 C 0 km/h
Sensor: Nr:Datum:Temp:Abs-Feuchte:Windchill:Wind:
Aussen-T/F 2351 10-07-2008 14:30:02 29.3 C 7.3 g/m*3 29.3 C 0 km/h
2352 10-07-2008 14:42:01 29.5 C 7.08 g/m*3 29.5 C 0 km/h
2353 10-07-2008 14:54:01 30 C 6.67 g/m*3 30 C 0 km/h
2354 10-07-2008 15:06:01 29.7 C 6.56 g/m*3 29.7 C 0 km/h
2355 10-07-2008 15:18:01 29.7 C 6.56 g/m*3 29.7 C 0 km/h
2356 10-07-2008 15:30:01 29.9 C 6.64 g/m*3 29.9 C 0 km/h
2357 10-07-2008 15:42:01 29.6 C 6.23 g/m*3 29.6 C 0 km/h
2358 10-07-2008 15:54:01 29.6 C 6.53 g/m*3 29.6 C 0 km/h
2359 10-07-2008 16:06:02 29.8 C 6.9 g/m*3 29.8 C 0 km/h
2360 10-07-2008 16:18:01 29.7 C 6.56 g/m*3 29.7 C 0 km/h
2361 10-07-2008 16:30:01 30 C 6.67 g/m*3 30 C 0 km/h
2362 10-07-2008 16:42:02 30.3 C 6.47 g/m*3 30.3 C 0 km/h
2363 10-07-2008 16:54:02 30.6 C 6.26 g/m*3 30.6 C 0 km/h
2364 10-07-2008 17:06:02 30.7 C 6.3 g/m*3 30.7 C 0 km/h
2365 10-07-2008 17:18:01 30.9 C 6.37 g/m*3 30.9 C 0 km/h
2366 10-07-2008 17:30:01 30.3 C 6.47 g/m*3 30.3 C 0 km/h
2367 10-07-2008 17:42:02 30.4 C 6.2 g/m*3 30.4 C 0 km/h
2368 10-07-2008 17:54:02 31 C 6.4 g/m*3 31 C 0 km/h
2369 10-07-2008 18:06:03 30.7 C 6.3 g/m*3 30.7 C 0 km/h
2370 10-07-2008 18:18:02 30.3 C 6.16 g/m*3 30.3 C 0 km/h
2371 10-07-2008 18:30:02 30.1 C 6.1 g/m*3 30.1 C 0 km/h
2372 10-07-2008 18:42:03 29.7 C 6.27 g/m*3 29.7 C 0 km/h
2373 10-07-2008 18:54:02 29.3 C 6.42 g/m*3 29.3 C 0 km/h
2374 10-07-2008 19:06:01 28.9 C 6.57 g/m*3 28.9 C 0 km/h
2375 10-07-2008 19:18:02 29.8 C 6.6 g/m*3 29.8 C 0 km/h
Sensor: Nr:Datum:Temp:Abs-Feuchte:Windchill:Wind:
Aussen-T/F 2376 10-07-2008 19:30:03 30 C 6.37 g/m*3 30 C 0 km/h
2377 10-07-2008 19:42:01 29.6 C 6.53 g/m*3 29.6 C 0 km/h
2378 10-07-2008 19:54:02 29 C 7.18 g/m*3 29 C 0 km/h
2379 10-07-2008 20:06:01 28.5 C 6.99 g/m*3 28.5 C 0 km/h
2380 10-07-2008 20:18:02 28 C 7.34 g/m*3 28 C 0 km/h
2381 10-07-2008 20:30:02 27.3 C 7.85 g/m*3 27.3 C 0 km/h
2382 10-07-2008 20:42:01 26.5 C 8.01 g/m*3 26.5 C 0 km/h
2383 10-07-2008 20:54:02 26 C 8.03 g/m*3 26 C 0 km/h
2384 10-07-2008 21:06:01 25.7 C 7.9 g/m*3 25.7 C 0 km/h
2385 10-07-2008 21:18:02 25.4 C 8 g/m*3 25.4 C 0 km/h
2386 10-07-2008 21:30:02 24.8 C 8.42 g/m*3 24.8 C 0 km/h
2387 10-07-2008 21:42:01 24.4 C 8.23 g/m*3 24.4 C 0 km/h
2388 10-07-2008 21:54:01 24.1 C 8.31 g/m*3 24.1 C 0 km/h
2389 10-07-2008 22:06:01 23.7 C 8.34 g/m*3 23.7 C 0 km/h
2390 10-07-2008 22:18:02 23.7 C 8.56 g/m*3 23.7 C 0 km/h
2391 10-07-2008 22:30:02 23.5 C 8.67 g/m*3 23.5 C 0 km/h
2392 10-07-2008 22:42:01 23.4 C 8.62 g/m*3 23.4 C 0 km/h
2393 10-07-2008 22:55:01 23.2 C 8.73 g/m*3 23.2 C 0 km/h
2394 10-07-2008 23:07:01 23.1 C 8.89 g/m*3 23.1 C 0 km/h
2395 10-07-2008 23:19:01 23 C 8.84 g/m*3 23 C 0 km/h
2396 10-07-2008 23:31:01 22.9 C 9.2 g/m*3 22.9 C 0 km/h
2397 10-07-2008 23:43:01 22.8 C 9.14 g/m*3 22.8 C 0 km/h
2398 10-07-2008 23:55:02 22.5 C 9.39 g/m*3 22.5 C 0 km/h
2399 11-07-2008 00:07:02 22.3 C 9.87 g/m*3 22.3 C 0 km/h
2400 11-07-2008 00:19:02 20.3 C 11.61 g/m*3 20.3 C 0 km/h
Sensor: Nr:Datum:Temp:Abs-Feuchte:Windchill:Wind:
Aussen-T/F 2401 11-07-2008 00:31:02 20.5 C 11.74 g/m*3 20.5 C 0 km/h
2402 11-07-2008 00:43:02 20.7 C 11.88 g/m*3 20.7 C 0 km/h
2403 11-07-2008 00:55:02 20.6 C 11.28 g/m*3 20.6 C 0 km/h
2404 11-07-2008 01:07:02 20.6 C 10.92 g/m*3 20.6 C 0 km/h
2405 11-07-2008 01:19:02 20.6 C 10.74 g/m*3 20.6 C 0 km/h
2406 11-07-2008 01:31:02 20.4 C 10.61 g/m*3 20.4 C 0 km/h
2407 11-07-2008 01:43:02 20.5 C 10.85 g/m*3 20.5 C 0 km/h
2408 11-07-2008 01:55:02 20.4 C 11.14 g/m*3 20.4 C 0 km/h
2409 11-07-2008 02:07:02 19.9 C 11.34 g/m*3 19.9 C 0 km/h
2410 11-07-2008 02:19:02 19.7 C 11.21 g/m*3 19.7 C 0 km/h
2411 11-07-2008 02:31:02 19.7 C 11.21 g/m*3 19.7 C 0 km/h
2412 11-07-2008 02:43:02 19.6 C 11.48 g/m*3 19.6 C 0 km/h
2413 11-07-2008 02:55:02 19.4 C 11.51 g/m*3 19.4 C 0 km/h
2414 11-07-2008 03:07:02 19.3 C 11.44 g/m*3 19.3 C 0 km/h
2415 11-07-2008 03:19:02 19.1 C 11.47 g/m*3 19.1 C 0 km/h
2416 11-07-2008 03:31:02 19.2 C 11.21 g/m*3 19.2 C 0 km/h
2417 11-07-2008 03:43:02 19.5 C 11.08 g/m*3 19.5 C 0 km/h
2418 11-07-2008 03:55:03 19.5 C 11.08 g/m*3 19.5 C 0 km/h
2419 11-07-2008 04:07:03 19.4 C 11.18 g/m*3 19.4 C 0 km/h
2420 11-07-2008 04:19:03 19.5 C 10.91 g/m*3 19.5 C 0 km/h
2421 11-07-2008 04:31:03 19.5 C 11.24 g/m*3 19.5 C 0 km/h
2422 11-07-2008 04:43:03 19.4 C 11.18 g/m*3 19.4 C 0 km/h
2423 11-07-2008 04:55:03 19.3 C 11.11 g/m*3 19.3 C 0 km/h
2424 11-07-2008 05:07:03 19.1 C 10.98 g/m*3 19.1 C 0 km/h
2425 11-07-2008 05:19:03 19.2 C 11.05 g/m*3 19.2 C 0 km/h
Sensor: Nr:Datum:Temp:Abs-Feuchte:Windchill:Wind:
Aussen-T/F 2426 11-07-2008 05:31:03 19 C 11.08 g/m*3 19 C 0 km/h
2427 11-07-2008 05:43:03 18.8 C 11.43 g/m*3 18.8 C 0 km/h
2428 11-07-2008 05:55:03 18.9 C 11.66 g/m*3 18.9 C 0 km/h
2429 11-07-2008 06:07:03 19.1 C 11.31 g/m*3 19.1 C 0 km/h
2430 11-07-2008 06:19:03 19.1 C 11.31 g/m*3 19.1 C 0 km/h
2431 11-07-2008 06:31:03 19 C 11.57 g/m*3 19 C 0 km/h
2432 11-07-2008 06:43:03 18.8 C 11.92 g/m*3 18.8 C 0 km/h
2433 11-07-2008 06:55:03 18.8 C 12.08 g/m*3 18.8 C 0 km/h
2434 11-07-2008 07:07:02 19.2 C 12.04 g/m*3 19.2 C 0 km/h
2435 11-07-2008 07:19:02 19.6 C 11.99 g/m*3 19.6 C 0 km/h
2436 11-07-2008 07:31:01 19.9 C 11.68 g/m*3 19.9 C 0 km/h
2437 11-07-2008 07:43:01 20 C 11.41 g/m*3 20 C 0 km/h
2438 11-07-2008 07:55:03 19.7 C 11.55 g/m*3 19.7 C 0 km/h
2439 11-07-2008 08:07:02 19.7 C 11.72 g/m*3 19.7 C 0 km/h
2440 11-07-2008 08:19:03 20.3 C 11.61 g/m*3 20.3 C 0 km/h
2441 11-07-2008 08:31:02 21.2 C 11.3 g/m*3 21.2 C 0 km/h
2442 11-07-2008 08:43:02 21.5 C 11.31 g/m*3 21.5 C 0 km/h
2443 11-07-2008 08:55:02 21.7 C 11.45 g/m*3 21.7 C 0 km/h
2444 11-07-2008 09:07:02 21.6 C 11.38 g/m*3 21.6 C 0 km/h
2445 11-07-2008 09:19:03 21.5 C 11.31 g/m*3 21.5 C 0 km/h
2446 11-07-2008 09:31:02 22 C 11.06 g/m*3 22 C 0 km/h
2447 11-07-2008 09:43:02 22.6 C 11.05 g/m*3 22.6 C 0 km/h
2448 11-07-2008 09:55:02 23 C 10.89 g/m*3 23 C 0 km/h
2449 11-07-2008 10:07:02 23 C 10.69 g/m*3 23 C 0 km/h
2450 11-07-2008 10:19:02 23.2 C 10.6 g/m*3 23.2 C 0 km/h
Sensor: Nr:Datum:Temp:Abs-Feuchte:Windchill:Wind:
Aussen-T/F 2451 11-07-2008 10:31:02 22.9 C 10.83 g/m*3 22.9 C 0 km/h
2452 11-07-2008 10:43:02 22.7 C 10.91 g/m*3 22.7 C 0 km/h
2453 11-07-2008 10:55:01 22.5 C 10.59 g/m*3 22.5 C 0 km/h
2454 11-07-2008 11:07:02 22.3 C 10.47 g/m*3 22.3 C 0 km/h
2455 11-07-2008 11:19:01 21.9 C 10.81 g/m*3 21.9 C 0 km/h
2456 11-07-2008 11:31:02 22.5 C 10.59 g/m*3 22.5 C 0 km/h
2457 11-07-2008 11:43:03 23.6 C 10.21 g/m*3 23.6 C 0 km/h
2458 11-07-2008 11:55:02 23.5 C 9.94 g/m*3 23.5 C 0 km/h
2459 11-07-2008 12:07:02 22.8 C 10.16 g/m*3 22.8 C 0 km/h
2460 11-07-2008 12:19:01 22.4 C 10.33 g/m*3 22.4 C 0 km/h
2461 11-07-2008 12:31:02 23 C 10.28 g/m*3 23 C 0 km/h
2462 11-07-2008 12:43:02 22.6 C 10.45 g/m*3 22.6 C 0 km/h
2463 11-07-2008 12:55:02 22.9 C 10.42 g/m*3 22.9 C 0 km/h
2464 11-07-2008 13:07:02 23.5 C 10.36 g/m*3 23.5 C 0 km/h
2465 11-07-2008 13:19:02 23.7 C 10.05 g/m*3 23.7 C 0 km/h
2466 11-07-2008 13:31:03 24.2 C 10.12 g/m*3 24.2 C 0 km/h
2467 11-07-2008 13:43:03 23 C 10.07 g/m*3 23 C 0 km/h
2468 11-07-2008 13:55:02 22 C 10.29 g/m*3 22 C 0 km/h
2469 11-07-2008 14:07:01 22.1 C 10.15 g/m*3 22.1 C 0 km/h
2470 11-07-2008 14:19:02 22.4 C 10.13 g/m*3 22.4 C 0 km/h
2471 11-07-2008 14:31:01 22.1 C 10.35 g/m*3 22.1 C 0 km/h
2472 11-07-2008 14:43:01 20.8 C 11.41 g/m*3 20.8 C 0 km/h
2473 11-07-2008 14:55:02 20.1 C 11.99 g/m*3 20.1 C 0 km/h
2474 11-07-2008 15:07:01 20.4 C 12.21 g/m*3 20.4 C 0 km/h
2475 11-07-2008 15:19:02 20.7 C 11.52 g/m*3 20.7 C 0 km/h
Sensor: Nr:Datum:Temp:Abs-Feuchte:Windchill:Wind:
Aussen-T/F 2476 11-07-2008 15:31:01 20.9 C 11.47 g/m*3 20.9 C 0 km/h
2477 11-07-2008 15:43:01 21.2 C 11.3 g/m*3 21.2 C 0 km/h
2478 11-07-2008 15:55:01 21.3 C 11 g/m*3 21.3 C 0 km/h
2479 11-07-2008 16:07:01 21.5 C 10.94 g/m*3 21.5 C 0 km/h
2480 11-07-2008 16:19:02 21.9 C 11 g/m*3 21.9 C 0 km/h
2481 11-07-2008 16:31:01 21.7 C 10.68 g/m*3 21.7 C 0 km/h
2482 11-07-2008 16:43:01 20.9 C 10.93 g/m*3 20.9 C 0 km/h
2483 11-07-2008 16:55:01 20.7 C 11.16 g/m*3 20.7 C 0 km/h
2484 11-07-2008 17:07:02 21.2 C 11.3 g/m*3 21.2 C 0 km/h
2485 11-07-2008 17:19:01 22 C 11.06 g/m*3 22 C 0 km/h
2486 11-07-2008 17:31:01 22 C 10.67 g/m*3 22 C 0 km/h
2487 11-07-2008 17:43:01 22 C 10.67 g/m*3 22 C 0 km/h
2488 11-07-2008 17:55:01 22.6 C 10.45 g/m*3 22.6 C 0 km/h
2489 11-07-2008 18:07:02 23.5 C 10.15 g/m*3 23.5 C 0 km/h
2490 11-07-2008 18:19:01 23.4 C 9.67 g/m*3 23.4 C 0 km/h
2491 11-07-2008 18:31:02 22.9 C 9.61 g/m*3 22.9 C 0 km/h
2492 11-07-2008 18:43:02 22.2 C 9.42 g/m*3 22.2 C 0 km/h
2493 11-07-2008 18:55:02 21.7 C 9.73 g/m*3 21.7 C 0 km/h
2494 11-07-2008 19:07:02 21.5 C 9.99 g/m*3 21.5 C 0 km/h
2495 11-07-2008 19:19:02 21.6 C 9.86 g/m*3 21.6 C 0 km/h
2496 11-07-2008 19:31:02 21.5 C 9.99 g/m*3 21.5 C 0 km/h
2497 11-07-2008 19:43:02 19.7 C 11.72 g/m*3 19.7 C 0 km/h
2498 11-07-2008 19:55:02 18.6 C 12.57 g/m*3 18.6 C 0 km/h
2499 11-07-2008 20:07:01 18.3 C 12.82 g/m*3 18.3 C 0 km/h
2500 11-07-2008 20:19:01 18 C 12.59 g/m*3 18 C 0 km/h
Sensor: Nr:Datum:Temp:Abs-Feuchte:Windchill:Wind:
Aussen-T/F 2501 11-07-2008 20:31:02 18.3 C 12.51 g/m*3 18.3 C 0 km/h
2502 11-07-2008 20:43:02 18.1 C 11.43 g/m*3 18.1 C 0 km/h
2503 11-07-2008 20:55:02 17.9 C 11.3 g/m*3 17.9 C 0 km/h
2504 11-07-2008 21:07:02 17.8 C 11.23 g/m*3 17.8 C 0 km/h
2505 11-07-2008 21:19:02 17.6 C 11.1 g/m*3 17.6 C 0 km/h
2506 11-07-2008 21:31:02 17.5 C 11.18 g/m*3 17.5 C 0 km/h
2507 11-07-2008 21:43:02 17.4 C 11.12 g/m*3 17.4 C 0 km/h
2508 11-07-2008 21:55:02 17.5 C 11.33 g/m*3 17.5 C 0 km/h
2509 11-07-2008 22:07:02 17.2 C 11.13 g/m*3 17.2 C 0 km/h
2510 11-07-2008 22:19:02 17.2 C 11.28 g/m*3 17.2 C 0 km/h
2511 11-07-2008 22:31:02 17.2 C 11.28 g/m*3 17.2 C 0 km/h
2512 11-07-2008 22:43:02 17.2 C 11.28 g/m*3 17.2 C 0 km/h
2513 11-07-2008 22:55:02 17.2 C 11.42 g/m*3 17.2 C 0 km/h
2514 11-07-2008 23:07:02 17.7 C 11.62 g/m*3 17.7 C 0 km/h
2515 11-07-2008 23:19:02 17.5 C 11.33 g/m*3 17.5 C 0 km/h
2516 11-07-2008 23:31:02 17.6 C 11.25 g/m*3 17.6 C 0 km/h
2517 11-07-2008 23:43:02 17.5 C 11.18 g/m*3 17.5 C 0 km/h
2518 11-07-2008 23:55:01 17.6 C 11.1 g/m*3 17.6 C 0 km/h
2519 12-07-2008 00:08:03 17.4 C 11.12 g/m*3 17.4 C 0 km/h
2520 12-07-2008 00:20:03 17.5 C 11.03 g/m*3 17.5 C 0 km/h
2521 12-07-2008 00:32:03 17.2 C 10.84 g/m*3 17.2 C 0 km/h
2522 12-07-2008 00:44:03 17.1 C 10.92 g/m*3 17.1 C 0 km/h
2523 12-07-2008 00:56:03 17.1 C 10.92 g/m*3 17.1 C 0 km/h
2524 12-07-2008 01:08:03 17.1 C 10.77 g/m*3 17.1 C 0 km/h
2525 12-07-2008 01:20:03 17.2 C 10.84 g/m*3 17.2 C 0 km/h
Sensor: Nr:Datum:Temp:Abs-Feuchte:Windchill:Wind:
Aussen-T/F 2526 12-07-2008 01:32:03 17.1 C 10.77 g/m*3 17.1 C 0 km/h
2527 12-07-2008 01:44:03 17 C 10.71 g/m*3 17 C 0 km/h
2528 12-07-2008 01:56:03 16.9 C 10.79 g/m*3 16.9 C 0 km/h
2529 12-07-2008 02:08:03 16.9 C 10.79 g/m*3 16.9 C 0 km/h
2530 12-07-2008 02:20:03 16.8 C 10.72 g/m*3 16.8 C 0 km/h
2531 12-07-2008 02:32:03 16.7 C 10.66 g/m*3 16.7 C 0 km/h
2532 12-07-2008 02:44:03 16.8 C 10.58 g/m*3 16.8 C 0 km/h
2533 12-07-2008 02:56:03 16.9 C 10.64 g/m*3 16.9 C 0 km/h
2534 12-07-2008 03:08:03 16.9 C 10.5 g/m*3 16.9 C 0 km/h
2535 12-07-2008 03:20:04 16.8 C 10.44 g/m*3 16.8 C 0 km/h
2536 12-07-2008 03:32:04 16.7 C 10.37 g/m*3 16.7 C 0 km/h
2537 12-07-2008 03:44:04 16.7 C 10.37 g/m*3 16.7 C 0 km/h
2538 12-07-2008 03:56:04 16.7 C 10.37 g/m*3 16.7 C 0 km/h
2539 12-07-2008 04:08:04 16.8 C 10.58 g/m*3 16.8 C 0 km/h
2540 12-07-2008 04:20:04 16.9 C 10.5 g/m*3 16.9 C 0 km/h
2541 12-07-2008 04:32:04 16.9 C 10.5 g/m*3 16.9 C 0 km/h
2542 12-07-2008 04:44:04 17 C 10.27 g/m*3 17 C 0 km/h
2543 12-07-2008 04:56:04 17.1 C 10.19 g/m*3 17.1 C 0 km/h
2544 12-07-2008 05:08:04 17 C 10.13 g/m*3 17 C 0 km/h
2545 12-07-2008 05:20:04 16.8 C 10.29 g/m*3 16.8 C 0 km/h
2546 12-07-2008 05:32:04 16.6 C 10.31 g/m*3 16.6 C 0 km/h
2547 12-07-2008 05:44:04 16.4 C 10.19 g/m*3 16.4 C 0 km/h
2548 12-07-2008 05:56:04 16.2 C 10.2 g/m*3 16.2 C 0 km/h
2549 12-07-2008 06:08:04 16 C 10.22 g/m*3 16 C 0 km/h
2550 12-07-2008 06:20:04 15.8 C 10.36 g/m*3 15.8 C 0 km/h
Sensor: Nr:Datum:Temp:Abs-Feuchte:Windchill:Wind:
Aussen-T/F 2551 12-07-2008 06:32:04 15.8 C 10.5 g/m*3 15.8 C 0 km/h
2552 12-07-2008 06:44:04 15.8 C 10.5 g/m*3 15.8 C 0 km/h
2553 12-07-2008 06:56:04 16 C 10.49 g/m*3 16 C 0 km/h
2554 12-07-2008 07:08:04 16.1 C 10.55 g/m*3 16.1 C 0 km/h
2555 12-07-2008 07:20:04 16.3 C 10.41 g/m*3 16.3 C 0 km/h
2556 12-07-2008 07:32:05 16.6 C 10.31 g/m*3 16.6 C 0 km/h
2557 12-07-2008 07:44:05 16.8 C 10.01 g/m*3 16.8 C 0 km/h
2558 12-07-2008 07:56:05 17 C 9.69 g/m*3 17 C 0 km/h
2559 12-07-2008 08:08:05 17.2 C 9.67 g/m*3 17.2 C 0 km/h
2560 12-07-2008 08:20:02 17.4 C 9.34 g/m*3 17.4 C 0 km/h
2561 12-07-2008 08:32:02 17.8 C 9.26 g/m*3 17.8 C 0 km/h
2562 12-07-2008 08:44:02 17.9 C 9.01 g/m*3 17.9 C 0 km/h
2563 12-07-2008 08:56:02 18.1 C 8.65 g/m*3 18.1 C 0 km/h
2564 12-07-2008 09:08:02 18.2 C 8.7 g/m*3 18.2 C 0 km/h
2565 12-07-2008 09:20:03 18 C 8.6 g/m*3 18 C 0 km/h
2566 12-07-2008 09:32:02 18.5 C 8.86 g/m*3 18.5 C 0 km/h
2567 12-07-2008 09:44:02 18.5 C 9.18 g/m*3 18.5 C 0 km/h
2568 12-07-2008 09:56:01 16.2 C 10.34 g/m*3 16.2 C 0 km/h
2569 12-07-2008 10:08:02 16 C 10.9 g/m*3 16 C 0 km/h
2570 12-07-2008 10:20:01 16 C 11.04 g/m*3 16 C 0 km/h
2571 12-07-2008 10:32:01 16.7 C 11.51 g/m*3 16.7 C 0 km/h
2572 12-07-2008 10:44:01 18 C 11.21 g/m*3 18 C 0 km/h
2573 12-07-2008 10:56:01 19.3 C 10.62 g/m*3 19.3 C 0 km/h
2574 12-07-2008 11:08:02 20.3 C 9.5 g/m*3 20.3 C 0 km/h
2575 12-07-2008 11:20:01 19.6 C 8.78 g/m*3 19.6 C 0 km/h
Sensor: Nr:Datum:Temp:Abs-Feuchte:Windchill:Wind:
Aussen-T/F 2576 12-07-2008 11:32:02 17.6 C 10.05 g/m*3 17.6 C 0 km/h
2577 12-07-2008 11:44:03 15.7 C 10.17 g/m*3 15.7 C 0 km/h
2578 12-07-2008 11:56:02 15.5 C 10.57 g/m*3 15.5 C 0 km/h
2579 12-07-2008 12:08:02 16.6 C 11.3 g/m*3 16.6 C 0 km/h
2580 12-07-2008 12:20:02 17.5 C 11.03 g/m*3 17.5 C 0 km/h
2581 12-07-2008 12:32:02 18.9 C 11.02 g/m*3 18.9 C 0 km/h
2582 12-07-2008 12:44:02 20.7 C 10.26 g/m*3 20.7 C 0 km/h
2583 12-07-2008 12:56:01 21.4 C 9.37 g/m*3 21.4 C 0 km/h
2584 12-07-2008 13:08:02 20.1 C 8.69 g/m*3 20.1 C 0 km/h
2585 12-07-2008 13:20:01 19.7 C 8.66 g/m*3 19.7 C 0 km/h
2586 12-07-2008 13:32:02 19.4 C 8.34 g/m*3 19.4 C 0 km/h
2587 12-07-2008 13:44:02 19.3 C 9.62 g/m*3 19.3 C 0 km/h
2588 12-07-2008 13:56:01 20 C 8.64 g/m*3 20 C 0 km/h
2589 12-07-2008 14:08:01 20.8 C 8.69 g/m*3 20.8 C 0 km/h
2590 12-07-2008 14:20:02 21.6 C 7.78 g/m*3 21.6 C 0 km/h
2591 12-07-2008 14:32:01 21.6 C 8.16 g/m*3 21.6 C 0 km/h
2592 12-07-2008 14:44:01 21.5 C 7.92 g/m*3 21.5 C 0 km/h
2593 12-07-2008 14:56:01 21.4 C 7.5 g/m*3 21.4 C 0 km/h
2594 12-07-2008 15:08:02 20.3 C 7.39 g/m*3 20.3 C 0 km/h
2595 12-07-2008 15:20:01 21.2 C 7.78 g/m*3 21.2 C 0 km/h
2596 12-07-2008 15:32:03 21.1 C 7.55 g/m*3 21.1 C 0 km/h
2597 12-07-2008 15:44:03 20.4 C 7.43 g/m*3 20.4 C 0 km/h
2598 12-07-2008 15:56:03 19.1 C 7.54 g/m*3 19.1 C 0 km/h
2599 12-07-2008 16:08:02 18.6 C 8.59 g/m*3 18.6 C 0 km/h
2600 12-07-2008 16:20:03 19.6 C 8.27 g/m*3 19.6 C 0 km/h
Sensor: Nr:Datum:Temp:Abs-Feuchte:Windchill:Wind:
Aussen-T/F 2601 12-07-2008 16:32:02 20.3 C 7.91 g/m*3 20.3 C 0 km/h
2602 12-07-2008 16:44:02 20.4 C 7.61 g/m*3 20.4 C 0 km/h
2603 12-07-2008 16:56:02 18.9 C 8.75 g/m*3 18.9 C 0 km/h
2604 12-07-2008 17:08:02 17.1 C 9.75 g/m*3 17.1 C 0 km/h
2605 12-07-2008 17:20:03 17.2 C 10.4 g/m*3 17.2 C 0 km/h
2606 12-07-2008 17:32:02 17.2 C 10.54 g/m*3 17.2 C 0 km/h
2607 12-07-2008 17:44:02 17.3 C 10.31 g/m*3 17.3 C 0 km/h
2608 12-07-2008 17:56:02 16.4 C 10.33 g/m*3 16.4 C 0 km/h
2609 12-07-2008 18:08:02 16.3 C 10.68 g/m*3 16.3 C 0 km/h
2610 12-07-2008 18:20:02 16.4 C 10.89 g/m*3 16.4 C 0 km/h
2611 12-07-2008 18:32:02 17.1 C 10.77 g/m*3 17.1 C 0 km/h
2612 12-07-2008 18:44:02 17.8 C 11.23 g/m*3 17.8 C 0 km/h
2613 12-07-2008 18:56:01 19.7 C 9.68 g/m*3 19.7 C 0 km/h
2614 12-07-2008 19:08:01 19.7 C 9.51 g/m*3 19.7 C 0 km/h
2615 12-07-2008 19:20:01 20.3 C 9.67 g/m*3 20.3 C 0 km/h
2616 12-07-2008 19:32:01 19.7 C 9 g/m*3 19.7 C 0 km/h
2617 12-07-2008 19:44:02 19 C 9.29 g/m*3 19 C 0 km/h
2618 12-07-2008 19:56:01 18.7 C 9.29 g/m*3 18.7 C 0 km/h
2619 12-07-2008 20:08:02 18.4 C 9.12 g/m*3 18.4 C 0 km/h
2620 12-07-2008 20:20:01 18 C 9.68 g/m*3 18 C 0 km/h
2621 12-07-2008 20:32:02 17.6 C 9.75 g/m*3 17.6 C 0 km/h
2622 12-07-2008 20:44:02 17 C 9.55 g/m*3 17 C 0 km/h
2623 12-07-2008 20:56:02 16.6 C 9.75 g/m*3 16.6 C 0 km/h
2624 12-07-2008 21:08:02 16.5 C 9.41 g/m*3 16.5 C 0 km/h
2625 12-07-2008 21:20:02 16.2 C 9.24 g/m*3 16.2 C 0 km/h
Sensor: Nr:Datum:Temp:Abs-Feuchte:Windchill:Wind:
Aussen-T/F 2626 12-07-2008 21:32:02 16 C 9.4 g/m*3 16 C 0 km/h
2627 12-07-2008 21:44:02 16.1 C 9.46 g/m*3 16.1 C 0 km/h
2628 12-07-2008 21:56:02 16 C 9.54 g/m*3 16 C 0 km/h
2629 12-07-2008 22:08:01 15.9 C 9.75 g/m*3 15.9 C 0 km/h
2630 12-07-2008 22:20:01 15.8 C 9.83 g/m*3 15.8 C 0 km/h
2631 12-07-2008 22:32:02 15.8 C 9.83 g/m*3 15.8 C 0 km/h
2632 12-07-2008 22:44:02 15.7 C 9.9 g/m*3 15.7 C 0 km/h
2633 12-07-2008 22:56:02 15.7 C 9.9 g/m*3 15.7 C 0 km/h
2634 12-07-2008 23:08:02 15.8 C 9.96 g/m*3 15.8 C 0 km/h
2635 12-07-2008 23:20:02 15.6 C 9.84 g/m*3 15.6 C 0 km/h
2636 12-07-2008 23:33:03 15.5 C 9.78 g/m*3 15.5 C 0 km/h
2637 12-07-2008 23:45:03 15.5 C 9.78 g/m*3 15.5 C 0 km/h
2638 12-07-2008 23:57:03 15.5 C 9.78 g/m*3 15.5 C 0 km/h
2639 13-07-2008 00:09:03 15.2 C 9.61 g/m*3 15.2 C 0 km/h
2640 13-07-2008 00:21:03 14.9 C 9.56 g/m*3 14.9 C 0 km/h
2641 13-07-2008 00:33:03 14.8 C 9.63 g/m*3 14.8 C 0 km/h
2642 13-07-2008 00:45:03 14.7 C 9.57 g/m*3 14.7 C 0 km/h
2643 13-07-2008 00:57:03 14.4 C 9.52 g/m*3 14.4 C 0 km/h
2644 13-07-2008 01:09:03 14.2 C 9.52 g/m*3 14.2 C 0 km/h
2645 13-07-2008 01:21:03 14.2 C 9.65 g/m*3 14.2 C 0 km/h
2646 13-07-2008 01:33:03 14.2 C 9.77 g/m*3 14.2 C 0 km/h
2647 13-07-2008 01:45:03 14.2 C 9.65 g/m*3 14.2 C 0 km/h
2648 13-07-2008 01:57:03 14.2 C 9.65 g/m*3 14.2 C 0 km/h
2649 13-07-2008 02:09:03 14.1 C 9.71 g/m*3 14.1 C 0 km/h
2650 13-07-2008 02:21:03 14 C 9.65 g/m*3 14 C 0 km/h
Sensor: Nr:Datum:Temp:Abs-Feuchte:Windchill:Wind:
Aussen-T/F 2651 13-07-2008 02:33:03 14 C 9.77 g/m*3 14 C 0 km/h
2652 13-07-2008 02:45:03 13.9 C 9.83 g/m*3 13.9 C 0 km/h
2653 13-07-2008 02:57:03 13.8 C 9.77 g/m*3 13.8 C 0 km/h
2654 13-07-2008 03:09:04 13.8 C 9.77 g/m*3 13.8 C 0 km/h
2655 13-07-2008 03:21:04 14 C 9.89 g/m*3 14 C 0 km/h
2656 13-07-2008 03:33:04 14.1 C 9.95 g/m*3 14.1 C 0 km/h
2657 13-07-2008 03:45:04 14.1 C 9.95 g/m*3 14.1 C 0 km/h
2658 13-07-2008 03:57:04 13.9 C 9.95 g/m*3 13.9 C 0 km/h
2659 13-07-2008 04:09:04 13.8 C 9.89 g/m*3 13.8 C 0 km/h
2660 13-07-2008 04:21:04 13.8 C 10.01 g/m*3 13.8 C 0 km/h
2661 13-07-2008 04:33:04 13.9 C 10.07 g/m*3 13.9 C 0 km/h
2662 13-07-2008 04:45:04 14 C 10.01 g/m*3 14 C 0 km/h
2663 13-07-2008 04:57:04 13.9 C 9.95 g/m*3 13.9 C 0 km/h
2664 13-07-2008 05:09:04 14 C 10.01 g/m*3 14 C 0 km/h
2665 13-07-2008 05:21:04 13.8 C 10.01 g/m*3 13.8 C 0 km/h
2666 13-07-2008 05:33:04 13.8 C 10.01 g/m*3 13.8 C 0 km/h
2667 13-07-2008 05:45:04 13.8 C 10.01 g/m*3 13.8 C 0 km/h
2668 13-07-2008 05:57:04 13.8 C 10.01 g/m*3 13.8 C 0 km/h
2669 13-07-2008 06:09:04 13.8 C 10.01 g/m*3 13.8 C 0 km/h
2670 13-07-2008 06:21:04 13.8 C 9.89 g/m*3 13.8 C 0 km/h
2671 13-07-2008 06:33:04 13.9 C 9.95 g/m*3 13.9 C 0 km/h
2672 13-07-2008 06:45:04 13.9 C 9.95 g/m*3 13.9 C 0 km/h
2673 13-07-2008 06:57:04 13.9 C 9.83 g/m*3 13.9 C 0 km/h
2674 13-07-2008 07:09:05 14 C 9.53 g/m*3 14 C 0 km/h
2675 13-07-2008 07:21:05 14.1 C 9.47 g/m*3 14.1 C 0 km/h
Sensor: Nr:Datum:Temp:Abs-Feuchte:Windchill:Wind:
Aussen-T/F 2676 13-07-2008 07:33:05 14.2 C 9.52 g/m*3 14.2 C 0 km/h
2677 13-07-2008 07:45:05 14.4 C 9.39 g/m*3 14.4 C 0 km/h
2678 13-07-2008 07:57:05 14.6 C 9.51 g/m*3 14.6 C 0 km/h
2679 13-07-2008 08:09:05 14.7 C 9.44 g/m*3 14.7 C 0 km/h
2680 13-07-2008 08:21:05 15 C 9.1 g/m*3 15 C 0 km/h
2681 13-07-2008 08:33:03 15.1 C 8.64 g/m*3 15.1 C 0 km/h
2682 13-07-2008 08:45:02 15.2 C 8.57 g/m*3 15.2 C 0 km/h
2683 13-07-2008 08:57:02 15.6 C 8.64 g/m*3 15.6 C 0 km/h
2684 13-07-2008 09:09:02 16.1 C 8.64 g/m*3 16.1 C 0 km/h
2685 13-07-2008 09:21:02 16.2 C 8.55 g/m*3 16.2 C 0 km/h
2686 13-07-2008 09:33:02 15.7 C 8.03 g/m*3 15.7 C 0 km/h
2687 13-07-2008 09:45:01 15.7 C 8.3 g/m*3 15.7 C 0 km/h
2688 13-07-2008 09:57:01 16.2 C 8.55 g/m*3 16.2 C 0 km/h
2689 13-07-2008 10:09:02 17.8 C 8.2 g/m*3 17.8 C 0 km/h
2690 13-07-2008 10:21:01 18.1 C 7.88 g/m*3 18.1 C 0 km/h
2691 13-07-2008 10:33:02 17.8 C 7.74 g/m*3 17.8 C 0 km/h
2692 13-07-2008 10:45:02 17.9 C 7.79 g/m*3 17.9 C 0 km/h
2693 13-07-2008 10:57:02 18.6 C 7.48 g/m*3 18.6 C 0 km/h
2694 13-07-2008 11:09:02 18.8 C 6.6 g/m*3 18.8 C 0 km/h
2695 13-07-2008 11:21:01 19 C 6.52 g/m*3 19 C 0 km/h
2696 13-07-2008 11:33:02 19.8 C 6.83 g/m*3 19.8 C 0 km/h
2697 13-07-2008 11:45:02 20.2 C 6.29 g/m*3 20.2 C 0 km/h
2698 13-07-2008 11:57:02 19.9 C 6.01 g/m*3 19.9 C 0 km/h
2699 13-07-2008 12:09:02 21.3 C 5.78 g/m*3 21.3 C 0 km/h
2700 13-07-2008 12:21:02 21.2 C 5.93 g/m*3 21.2 C 0 km/h
Sensor: Nr:Datum:Temp:Abs-Feuchte:Windchill:Wind:
Aussen-T/F 2701 13-07-2008 12:33:03 22.1 C 5.86 g/m*3 22.1 C 0 km/h
2702 13-07-2008 12:45:02 22 C 5.43 g/m*3 22 C 0 km/h
2703 13-07-2008 12:57:02 21.4 C 5.81 g/m*3 21.4 C 0 km/h
2704 13-07-2008 13:09:01 21 C 5.5 g/m*3 21 C 0 km/h
2705 13-07-2008 13:21:02 21.1 C 5.53 g/m*3 21.1 C 0 km/h
2706 13-07-2008 13:33:01 21.2 C 6.12 g/m*3 21.2 C 0 km/h
2707 13-07-2008 13:45:02 22.5 C 6.19 g/m*3 22.5 C 0 km/h
2708 13-07-2008 13:57:02 23.6 C 5.96 g/m*3 23.6 C 0 km/h
2709 13-07-2008 14:09:02 23.6 C 5.53 g/m*3 23.6 C 0 km/h
2710 13-07-2008 14:21:01 21.4 C 5.62 g/m*3 21.4 C 0 km/h
2711 13-07-2008 14:33:02 20.4 C 5.66 g/m*3 20.4 C 0 km/h
2712 13-07-2008 14:45:02 19.4 C 5.84 g/m*3 19.4 C 0 km/h
2713 13-07-2008 14:57:02 19.9 C 6.19 g/m*3 19.9 C 0 km/h
2714 13-07-2008 15:09:02 21.5 C 5.66 g/m*3 21.5 C 0 km/h
2715 13-07-2008 15:21:02 23.7 C 5.78 g/m*3 23.7 C 0 km/h
2716 13-07-2008 15:33:02 23.3 C 4.81 g/m*3 23.3 C 0 km/h
2717 13-07-2008 15:45:02 22.5 C 4.99 g/m*3 22.5 C 0 km/h
2718 13-07-2008 15:57:02 21.6 C 5.12 g/m*3 21.6 C 0 km/h
2719 13-07-2008 16:09:03 21.6 C 5.12 g/m*3 21.6 C 0 km/h
2720 13-07-2008 16:21:02 23.5 C 5.08 g/m*3 23.5 C 0 km/h
2721 13-07-2008 16:33:02 23.5 C 5.08 g/m*3 23.5 C 0 km/h
2722 13-07-2008 16:45:02 22.2 C 5.1 g/m*3 22.2 C 0 km/h
2723 13-07-2008 16:57:02 21.5 C 5.47 g/m*3 21.5 C 0 km/h
2724 13-07-2008 17:09:01 21.3 C 5.78 g/m*3 21.3 C 0 km/h
2725 13-07-2008 17:21:02 21.2 C 5.93 g/m*3 21.2 C 0 km/h
Sensor: Nr:Datum:Temp:Abs-Feuchte:Windchill:Wind:
Aussen-T/F 2726 13-07-2008 17:33:02 20.9 C 5.83 g/m*3 20.9 C 0 km/h
2727 13-07-2008 17:45:02 20.5 C 6.23 g/m*3 20.5 C 0 km/h
2728 13-07-2008 17:57:03 20.4 C 6.01 g/m*3 20.4 C 0 km/h
2729 13-07-2008 18:09:02 21 C 5.86 g/m*3 21 C 0 km/h
2730 13-07-2008 18:21:02 21.6 C 5.69 g/m*3 21.6 C 0 km/h
2731 13-07-2008 18:33:02 21.6 C 5.5 g/m*3 21.6 C 0 km/h
2732 13-07-2008 18:45:02 23 C 5.34 g/m*3 23 C 0 km/h
2733 13-07-2008 18:57:02 23.2 C 5.2 g/m*3 23.2 C 0 km/h
2734 13-07-2008 19:09:02 22 C 4.85 g/m*3 22 C 0 km/h
2735 13-07-2008 19:21:02 22.2 C 5.1 g/m*3 22.2 C 0 km/h
2736 13-07-2008 19:33:01 22.3 C 4.94 g/m*3 22.3 C 0 km/h
2737 13-07-2008 19:45:02 22.7 C 5.46 g/m*3 22.7 C 0 km/h
2738 13-07-2008 19:57:02 22.7 C 5.25 g/m*3 22.7 C 0 km/h
2739 13-07-2008 20:09:01 22.7 C 5.05 g/m*3 22.7 C 0 km/h
2740 13-07-2008 20:21:02 22.6 C 5.22 g/m*3 22.6 C 0 km/h
2741 13-07-2008 20:33:01 22.1 C 5.27 g/m*3 22.1 C 0 km/h
2742 13-07-2008 20:45:02 21.6 C 6.07 g/m*3 21.6 C 0 km/h
2743 13-07-2008 20:57:02 21 C 5.68 g/m*3 21 C 0 km/h
2744 13-07-2008 21:09:01 20.1 C 5.91 g/m*3 20.1 C 0 km/h
2745 13-07-2008 21:21:01 19.3 C 5.81 g/m*3 19.3 C 0 km/h
2746 13-07-2008 21:33:01 18.8 C 5.96 g/m*3 18.8 C 0 km/h
2747 13-07-2008 21:45:01 18 C 6.3 g/m*3 18 C 0 km/h
2748 13-07-2008 21:57:01 17.3 C 6.19 g/m*3 17.3 C 0 km/h
2749 13-07-2008 22:09:02 16.9 C 6.33 g/m*3 16.9 C 0 km/h
2750 13-07-2008 22:21:01 16.6 C 6.5 g/m*3 16.6 C 0 km/h
Sensor: Nr:Datum:Temp:Abs-Feuchte:Windchill:Wind:
Aussen-T/F 2751 13-07-2008 22:33:02 16.4 C 6.42 g/m*3 16.4 C 0 km/h
2752 13-07-2008 22:45:02 16.1 C 6.58 g/m*3 16.1 C 0 km/h
2753 13-07-2008 22:57:02 15.8 C 6.73 g/m*3 15.8 C 0 km/h
2754 13-07-2008 23:10:02 15.4 C 6.83 g/m*3 15.4 C 0 km/h
2755 13-07-2008 23:22:02 15.1 C 6.97 g/m*3 15.1 C 0 km/h
2756 13-07-2008 23:34:02 14.9 C 7.01 g/m*3 14.9 C 0 km/h
2757 13-07-2008 23:46:02 14.7 C 7.05 g/m*3 14.7 C 0 km/h
2758 13-07-2008 23:58:02 14.2 C 7.2 g/m*3 14.2 C 0 km/h
2759 14-07-2008 00:10:02 14 C 7.24 g/m*3 14 C 0 km/h
2760 14-07-2008 00:22:02 13.8 C 7.39 g/m*3 13.8 C 0 km/h
2761 14-07-2008 00:34:02 13.6 C 7.53 g/m*3 13.6 C 0 km/h
2762 14-07-2008 00:46:02 13.4 C 7.44 g/m*3 13.4 C 0 km/h
2763 14-07-2008 00:58:02 13.2 C 7.58 g/m*3 13.2 C 0 km/h
2764 14-07-2008 01:10:02 13.1 C 7.65 g/m*3 13.1 C 0 km/h
2765 14-07-2008 01:22:03 13 C 7.6 g/m*3 13 C 0 km/h
2766 14-07-2008 01:34:03 13 C 7.71 g/m*3 13 C 0 km/h
2767 14-07-2008 01:46:03 12.8 C 7.73 g/m*3 12.8 C 0 km/h
2768 14-07-2008 01:58:03 12.7 C 7.68 g/m*3 12.7 C 0 km/h
2769 14-07-2008 02:10:03 12.4 C 7.76 g/m*3 12.4 C 0 km/h
2770 14-07-2008 02:22:03 12.3 C 7.82 g/m*3 12.3 C 0 km/h
2771 14-07-2008 02:34:03 12.1 C 7.83 g/m*3 12.1 C 0 km/h
2772 14-07-2008 02:46:03 12 C 7.78 g/m*3 12 C 0 km/h
2773 14-07-2008 02:58:03 11.8 C 7.89 g/m*3 11.8 C 0 km/h
2774 14-07-2008 03:10:03 11.5 C 7.75 g/m*3 11.5 C 0 km/h
2775 14-07-2008 03:22:03 11.4 C 7.8 g/m*3 11.4 C 0 km/h
Sensor: Nr:Datum:Temp:Abs-Feuchte:Windchill:Wind:
Aussen-T/F 2776 14-07-2008 03:34:03 11.3 C 7.85 g/m*3 11.3 C 0 km/h
2777 14-07-2008 03:46:03 11.2 C 7.8 g/m*3 11.2 C 0 km/h
2778 14-07-2008 03:58:03 11 C 7.81 g/m*3 11 C 0 km/h
2779 14-07-2008 04:10:03 10.9 C 7.86 g/m*3 10.9 C 0 km/h
2780 14-07-2008 04:22:03 10.8 C 7.81 g/m*3 10.8 C 0 km/h
2781 14-07-2008 04:34:03 10.7 C 7.86 g/m*3 10.7 C 0 km/h
2782 14-07-2008 04:46:03 10.4 C 7.81 g/m*3 10.4 C 0 km/h
2783 14-07-2008 04:58:03 10.4 C 7.81 g/m*3 10.4 C 0 km/h
2784 14-07-2008 05:10:03 10.3 C 7.76 g/m*3 10.3 C 0 km/h
2785 14-07-2008 05:22:04 10.2 C 7.8 g/m*3 10.2 C 0 km/h
2786 14-07-2008 05:34:04 10.1 C 7.75 g/m*3 10.1 C 0 km/h
2787 14-07-2008 05:46:04 10 C 7.8 g/m*3 10 C 0 km/h
2788 14-07-2008 05:58:04 10 C 7.8 g/m*3 10 C 0 km/h
2789 14-07-2008 06:10:04 9.9 C 7.84 g/m*3 9.9 C 0 km/h
2790 14-07-2008 06:22:04 9.9 C 7.94 g/m*3 9.9 C 0 km/h
2791 14-07-2008 06:34:04 10 C 7.89 g/m*3 10 C 0 km/h
2792 14-07-2008 06:46:04 9.9 C 7.94 g/m*3 9.9 C 0 km/h
2793 14-07-2008 06:58:04 9.9 C 7.84 g/m*3 9.9 C 0 km/h
2794 14-07-2008 07:10:03 10.1 C 7.85 g/m*3 10.1 C 0 km/h
2795 14-07-2008 07:22:02 10.2 C 7.9 g/m*3 10.2 C 0 km/h
2796 14-07-2008 07:34:03 10.5 C 7.95 g/m*3 10.5 C 0 km/h
2797 14-07-2008 07:46:02 10.8 C 8.11 g/m*3 10.8 C 0 km/h
2798 14-07-2008 07:58:02 11.1 C 8.06 g/m*3 11.1 C 0 km/h
2799 14-07-2008 08:10:02 11.3 C 8.06 g/m*3 11.3 C 0 km/h
2800 14-07-2008 08:22:02 11.7 C 8.16 g/m*3 11.7 C 0 km/h
Sensor: Nr:Datum:Temp:Abs-Feuchte:Windchill:Wind:
Aussen-T/F 2801 14-07-2008 08:34:02 12.5 C 8.69 g/m*3 12.5 C 0 km/h
2802 14-07-2008 08:46:02 12.9 C 8.68 g/m*3 12.9 C 0 km/h
2803 14-07-2008 08:58:02 13.5 C 8.66 g/m*3 13.5 C 0 km/h
2804 14-07-2008 09:10:02 14.4 C 9.02 g/m*3 14.4 C 0 km/h
2805 14-07-2008 09:22:01 15.2 C 8.96 g/m*3 15.2 C 0 km/h
2806 14-07-2008 09:34:02 16.2 C 8.83 g/m*3 16.2 C 0 km/h
2807 14-07-2008 09:46:02 17.3 C 8.84 g/m*3 17.3 C 0 km/h
2808 14-07-2008 09:58:02 16.8 C 8.15 g/m*3 16.8 C 0 km/h
2809 14-07-2008 10:10:02 16.6 C 8.19 g/m*3 16.6 C 0 km/h
2810 14-07-2008 10:22:02 17.4 C 8 g/m*3 17.4 C 0 km/h
2811 14-07-2008 10:34:02 16.8 C 7.15 g/m*3 16.8 C 0 km/h
2812 14-07-2008 10:46:01 18.1 C 7.88 g/m*3 18.1 C 0 km/h
2813 14-07-2008 10:58:01 19.2 C 7.09 g/m*3 19.2 C 0 km/h
2814 14-07-2008 11:10:02 18.5 C 6.8 g/m*3 18.5 C 0 km/h
2815 14-07-2008 11:22:01 19.2 C 6.76 g/m*3 19.2 C 0 km/h
2816 14-07-2008 11:34:01 19.5 C 6.88 g/m*3 19.5 C 0 km/h
2817 14-07-2008 11:46:02 20.7 C 7.02 g/m*3 20.7 C 0 km/h
2818 14-07-2008 11:58:02 20.2 C 6.99 g/m*3 20.2 C 0 km/h
2819 14-07-2008 12:10:02 21.6 C 6.83 g/m*3 21.6 C 0 km/h
2820 14-07-2008 12:22:02 22 C 6.79 g/m*3 22 C 0 km/h
2821 14-07-2008 12:34:03 22.1 C 6.44 g/m*3 22.1 C 0 km/h
2822 14-07-2008 12:46:02 23.2 C 6.65 g/m*3 23.2 C 0 km/h
2823 14-07-2008 12:58:03 23.2 C 6.24 g/m*3 23.2 C 0 km/h
2824 14-07-2008 13:10:01 24.2 C 6.16 g/m*3 24.2 C 0 km/h
2825 14-07-2008 13:22:02 25.8 C 6.02 g/m*3 25.8 C 0 km/h
Sensor: Nr:Datum:Temp:Abs-Feuchte:Windchill:Wind:
Aussen-T/F 2826 14-07-2008 13:34:01 26 C 5.36 g/m*3 26 C 0 km/h
2827 14-07-2008 13:46:02 25.5 C 5.21 g/m*3 25.5 C 0 km/h
2828 14-07-2008 13:58:02 24.5 C 5.15 g/m*3 24.5 C 0 km/h
2829 14-07-2008 14:10:01 25.5 C 5.45 g/m*3 25.5 C 0 km/h
2830 14-07-2008 14:22:01 24.3 C 5.09 g/m*3 24.3 C 0 km/h
2831 14-07-2008 14:34:01 24.1 C 5.47 g/m*3 24.1 C 0 km/h
2832 14-07-2008 14:46:02 24.5 C 5.6 g/m*3 24.5 C 0 km/h
2833 14-07-2008 14:58:02 25.8 C 5.54 g/m*3 25.8 C 0 km/h
2834 14-07-2008 15:10:02 25.7 C 5.03 g/m*3 25.7 C 0 km/h
2835 14-07-2008 15:22:02 25.6 C 5.48 g/m*3 25.6 C 0 km/h
2836 14-07-2008 15:34:02 25.7 C 4.79 g/m*3 25.7 C 0 km/h
2837 14-07-2008 15:46:01 26.3 C 5.2 g/m*3 26.3 C 0 km/h
2838 14-07-2008 15:58:01 26.8 C 5.09 g/m*3 26.8 C 0 km/h
2839 14-07-2008 16:10:02 27 C 5.15 g/m*3 27 C 0 km/h
2840 14-07-2008 16:22:02 27.6 C 5.32 g/m*3 27.6 C 0 km/h
2841 14-07-2008 16:34:02 27.4 C 5.26 g/m*3 27.4 C 0 km/h
2842 14-07-2008 16:46:02 27.5 C 5.29 g/m*3 27.5 C 0 km/h
2843 14-07-2008 16:58:02 26.9 C 5.12 g/m*3 26.9 C 0 km/h
2844 14-07-2008 17:10:02 27.3 C 5.23 g/m*3 27.3 C 0 km/h
2845 14-07-2008 17:22:02 27.3 C 5.23 g/m*3 27.3 C 0 km/h
2846 14-07-2008 17:34:02 27.2 C 5.2 g/m*3 27.2 C 0 km/h
2847 14-07-2008 17:46:02 27 C 5.15 g/m*3 27 C 0 km/h
2848 14-07-2008 17:58:02 27.9 C 5.41 g/m*3 27.9 C 0 km/h
2849 14-07-2008 18:10:02 27.1 C 5.18 g/m*3 27.1 C 0 km/h
2850 14-07-2008 18:22:01 25.1 C 5.56 g/m*3 25.1 C 0 km/h
Sensor: Nr:Datum:Temp:Abs-Feuchte:Windchill:Wind:
Aussen-T/F 2851 14-07-2008 18:34:02 24.2 C 5.5 g/m*3 24.2 C 0 km/h
2852 14-07-2008 18:46:02 25.3 C 5.38 g/m*3 25.3 C 0 km/h
2853 14-07-2008 18:58:02 24.8 C 5.01 g/m*3 24.8 C 0 km/h
2854 14-07-2008 19:10:02 24.6 C 5.18 g/m*3 24.6 C 0 km/h
2855 14-07-2008 19:22:02 23.8 C 5.38 g/m*3 23.8 C 0 km/h
2856 14-07-2008 19:34:03 23.7 C 5.56 g/m*3 23.7 C 0 km/h
2857 14-07-2008 19:46:02 24.5 C 5.6 g/m*3 24.5 C 0 km/h
2858 14-07-2008 19:58:02 25.3 C 5.62 g/m*3 25.3 C 0 km/h
2859 14-07-2008 20:10:02 25.4 C 4.94 g/m*3 25.4 C 0 km/h
2860 14-07-2008 20:22:02 24.6 C 4.95 g/m*3 24.6 C 0 km/h
2861 14-07-2008 20:34:02 23.9 C 5.41 g/m*3 23.9 C 0 km/h
2862 14-07-2008 20:46:02 23.4 C 5.68 g/m*3 23.4 C 0 km/h
2863 14-07-2008 20:58:02 23.1 C 5.79 g/m*3 23.1 C 0 km/h
2864 14-07-2008 21:10:02 22.6 C 6.23 g/m*3 22.6 C 0 km/h
2865 14-07-2008 21:22:02 21.7 C 6.49 g/m*3 21.7 C 0 km/h
2866 14-07-2008 21:34:03 20.8 C 6.7 g/m*3 20.8 C 0 km/h
2867 14-07-2008 21:46:02 20.2 C 6.64 g/m*3 20.2 C 0 km/h
2868 14-07-2008 21:58:02 19.9 C 6.87 g/m*3 19.9 C 0 km/h
2869 14-07-2008 22:10:02 19.7 C 6.96 g/m*3 19.7 C 0 km/h
2870 14-07-2008 22:22:02 19.3 C 6.97 g/m*3 19.3 C 0 km/h
2871 14-07-2008 22:34:01 19 C 7.01 g/m*3 19 C 0 km/h
2872 14-07-2008 22:46:02 18.7 C 7.2 g/m*3 18.7 C 0 km/h
2873 14-07-2008 22:58:02 18.4 C 7.08 g/m*3 18.4 C 0 km/h
2874 14-07-2008 23:10:01 18 C 7.22 g/m*3 18 C 0 km/h
2875 14-07-2008 23:22:02 17.7 C 7.39 g/m*3 17.7 C 0 km/h
Sensor: Nr:Datum:Temp:Abs-Feuchte:Windchill:Wind:
Aussen-T/F 2876 14-07-2008 23:35:02 17.6 C 7.35 g/m*3 17.6 C 0 km/h
2877 14-07-2008 23:47:02 17.2 C 7.18 g/m*3 17.2 C 0 km/h
2878 14-07-2008 23:59:02 16.8 C 7.43 g/m*3 16.8 C 0 km/h
2879 15-07-2008 00:11:03 16.4 C 7.54 g/m*3 16.4 C 0 km/h
2880 15-07-2008 00:23:03 16.3 C 7.49 g/m*3 16.3 C 0 km/h
2881 15-07-2008 00:35:03 16.2 C 7.45 g/m*3 16.2 C 0 km/h
2882 15-07-2008 00:47:03 15.8 C 7.67 g/m*3 15.8 C 0 km/h
2883 15-07-2008 00:59:03 15.6 C 7.85 g/m*3 15.6 C 0 km/h
2884 15-07-2008 01:11:03 15.3 C 7.84 g/m*3 15.3 C 0 km/h
2885 15-07-2008 01:23:03 15.2 C 7.66 g/m*3 15.2 C 0 km/h
2886 15-07-2008 01:35:03 15 C 7.69 g/m*3 15 C 0 km/h
2887 15-07-2008 01:47:03 14.8 C 7.85 g/m*3 14.8 C 0 km/h
2888 15-07-2008 01:59:03 14.7 C 7.93 g/m*3 14.7 C 0 km/h
2889 15-07-2008 02:11:03 14.3 C 7.74 g/m*3 14.3 C 0 km/h
2890 15-07-2008 02:23:03 14.3 C 7.74 g/m*3 14.3 C 0 km/h
2891 15-07-2008 02:35:03 14.1 C 7.77 g/m*3 14.1 C 0 km/h
2892 15-07-2008 02:47:03 14 C 7.84 g/m*3 14 C 0 km/h
2893 15-07-2008 02:59:03 13.8 C 7.98 g/m*3 13.8 C 0 km/h
2894 15-07-2008 03:11:03 13.7 C 7.93 g/m*3 13.7 C 0 km/h
2895 15-07-2008 03:23:03 13.6 C 7.89 g/m*3 13.6 C 0 km/h
2896 15-07-2008 03:35:03 13.5 C 7.84 g/m*3 13.5 C 0 km/h
2897 15-07-2008 03:47:03 13.4 C 7.79 g/m*3 13.4 C 0 km/h
2898 15-07-2008 03:59:04 13.4 C 7.9 g/m*3 13.4 C 0 km/h
2899 15-07-2008 04:11:04 13.2 C 7.81 g/m*3 13.2 C 0 km/h
2900 15-07-2008 04:23:04 13.1 C 7.87 g/m*3 13.1 C 0 km/h
Sensor: Nr:Datum:Temp:Abs-Feuchte:Windchill:Wind:
Aussen-T/F 2901 15-07-2008 04:35:04 12.9 C 7.89 g/m*3 12.9 C 0 km/h
2902 15-07-2008 04:47:04 12.8 C 7.95 g/m*3 12.8 C 0 km/h
2903 15-07-2008 04:59:04 12.7 C 7.9 g/m*3 12.7 C 0 km/h
2904 15-07-2008 05:11:04 12.7 C 7.9 g/m*3 12.7 C 0 km/h
2905 15-07-2008 05:23:04 12.5 C 7.81 g/m*3 12.5 C 0 km/h
2906 15-07-2008 05:35:04 12.5 C 7.92 g/m*3 12.5 C 0 km/h
2907 15-07-2008 05:47:04 12.4 C 7.98 g/m*3 12.4 C 0 km/h
2908 15-07-2008 05:59:04 12.3 C 7.93 g/m*3 12.3 C 0 km/h
2909 15-07-2008 06:11:04 12.1 C 8.04 g/m*3 12.1 C 0 km/h
2910 15-07-2008 06:23:04 12.1 C 8.04 g/m*3 12.1 C 0 km/h
2911 15-07-2008 06:35:04 12.4 C 8.19 g/m*3 12.4 C 0 km/h
2912 15-07-2008 06:47:04 12.6 C 8.19 g/m*3 12.6 C 0 km/h
2913 15-07-2008 06:59:04 12.8 C 8.29 g/m*3 12.8 C 0 km/h
2914 15-07-2008 07:11:02 13 C 8.28 g/m*3 13 C 0 km/h
2915 15-07-2008 07:23:02 13.2 C 8.15 g/m*3 13.2 C 0 km/h
2916 15-07-2008 07:35:03 13.4 C 8.37 g/m*3 13.4 C 0 km/h
2917 15-07-2008 07:47:02 13.5 C 8.3 g/m*3 13.5 C 0 km/h
2918 15-07-2008 07:59:02 13.8 C 8.46 g/m*3 13.8 C 0 km/h
2919 15-07-2008 08:11:02 14.1 C 8.5 g/m*3 14.1 C 0 km/h
2920 15-07-2008 08:23:02 14.5 C 8.58 g/m*3 14.5 C 0 km/h
2921 15-07-2008 08:35:02 15 C 8.59 g/m*3 15 C 0 km/h
2922 15-07-2008 08:47:01 15.7 C 8.56 g/m*3 15.7 C 0 km/h
2923 15-07-2008 08:59:01 16.4 C 8.37 g/m*3 16.4 C 0 km/h
2924 15-07-2008 09:11:02 17 C 8.25 g/m*3 17 C 0 km/h
2925 15-07-2008 09:23:01 17.8 C 8.2 g/m*3 17.8 C 0 km/h
Sensor: Nr:Datum:Temp:Abs-Feuchte:Windchill:Wind:
Aussen-T/F 2926 15-07-2008 09:35:02 18.4 C 8.02 g/m*3 18.4 C 0 km/h
2927 15-07-2008 09:47:02 19 C 7.99 g/m*3 19 C 0 km/h
2928 15-07-2008 09:59:03 19.5 C 8.06 g/m*3 19.5 C 0 km/h
2929 15-07-2008 10:11:02 20.3 C 7.91 g/m*3 20.3 C 0 km/h
2930 15-07-2008 10:23:02 21.1 C 7.74 g/m*3 21.1 C 0 km/h
2931 15-07-2008 10:35:01 21.5 C 7.73 g/m*3 21.5 C 0 km/h
2932 15-07-2008 10:47:02 22 C 7.38 g/m*3 22 C 0 km/h
2933 15-07-2008 10:59:02 22.6 C 7.23 g/m*3 22.6 C 0 km/h
2934 15-07-2008 11:11:01 22.8 C 7.32 g/m*3 22.8 C 0 km/h
2935 15-07-2008 11:23:02 23.2 C 7.28 g/m*3 23.2 C 0 km/h
2936 15-07-2008 11:35:01 23.2 C 7.07 g/m*3 23.2 C 0 km/h
2937 15-07-2008 11:47:02 24 C 6.96 g/m*3 24 C 0 km/h
2938 15-07-2008 11:59:02 24.1 C 7 g/m*3 24.1 C 0 km/h
2939 15-07-2008 12:11:01 24.9 C 6.87 g/m*3 24.9 C 0 km/h
2940 15-07-2008 12:23:02 25.4 C 6.36 g/m*3 25.4 C 0 km/h
2941 15-07-2008 12:35:01 25.8 C 6.26 g/m*3 25.8 C 0 km/h
2942 15-07-2008 12:47:02 25.7 C 6.22 g/m*3 25.7 C 0 km/h
2943 15-07-2008 12:59:02 26.2 C 6.15 g/m*3 26.2 C 0 km/h
2944 15-07-2008 13:11:02 26.7 C 5.82 g/m*3 26.7 C 0 km/h
2945 15-07-2008 13:23:02 27.9 C 5.68 g/m*3 27.9 C 0 km/h
2946 15-07-2008 13:35:02 28.3 C 5.53 g/m*3 28.3 C 0 km/h
2947 15-07-2008 13:47:01 27.8 C 5.65 g/m*3 27.8 C 0 km/h
2948 15-07-2008 13:59:01 27.4 C 5.53 g/m*3 27.4 C 0 km/h
2949 15-07-2008 14:11:01 27.3 C 5.49 g/m*3 27.3 C 0 km/h
2950 15-07-2008 14:19:01 27.4 C 5.53 g/m*3 27.4 C 0 km/h
Sensor: Nr:Datum:Temp:Abs-Feuchte:Windchill:Wind:
Aussen-T/F 2951 15-07-2008 14:49:01 28.2 C 6.05 g/m*3 28.2 C 0 km/h
2952 15-07-2008 15:19:01 28.8 C 5.97 g/m*3 28.8 C 0 km/h
2953 15-07-2008 15:49:01 29 C 6.32 g/m*3 29 C 0 km/h
2954 15-07-2008 16:19:02 30 C 6.37 g/m*3 30 C 0 km/h
2955 15-07-2008 16:49:01 30 C 6.06 g/m*3 30 C 0 km/h
2956 15-07-2008 17:19:02 30.6 C 6.26 g/m*3 30.6 C 0 km/h
2957 15-07-2008 17:49:03 31 C 6.4 g/m*3 31 C 0 km/h
2958 15-07-2008 18:19:02 30.7 C 6.3 g/m*3 30.7 C 0 km/h
2959 15-07-2008 18:49:01 30.6 C 6.26 g/m*3 30.6 C 0 km/h
2960 15-07-2008 19:19:01 30.4 C 6.2 g/m*3 30.4 C 0 km/h
2961 15-07-2008 19:49:01 29.3 C 6.42 g/m*3 29.3 C 0 km/h
2962 15-07-2008 20:19:01 28.2 C 6.87 g/m*3 28.2 C 0 km/h
2963 15-07-2008 20:49:01 26.6 C 7.55 g/m*3 26.6 C 0 km/h
2964 15-07-2008 21:19:02 25.8 C 7.7 g/m*3 25.8 C 0 km/h
2965 15-07-2008 21:49:01 24.4 C 9.79 g/m*3 24.4 C 0 km/h
2966 15-07-2008 22:19:02 23.4 C 10.3 g/m*3 23.4 C 0 km/h
2967 15-07-2008 22:49:01 22.7 C 10.3 g/m*3 22.7 C 0 km/h
2968 15-07-2008 23:19:02 21.9 C 10.42 g/m*3 21.9 C 0 km/h
2969 15-07-2008 23:49:02 21.4 C 10.31 g/m*3 21.4 C 0 km/h
2970 16-07-2008 00:19:02 21.5 C 10.37 g/m*3 21.5 C 0 km/h
2971 16-07-2008 00:49:01 21.5 C 10.37 g/m*3 21.5 C 0 km/h
2972 16-07-2008 01:19:02 21.4 C 10.5 g/m*3 21.4 C 0 km/h
2973 16-07-2008 01:49:01 21.5 C 10.56 g/m*3 21.5 C 0 km/h
2974 16-07-2008 02:19:02 21 C 10.62 g/m*3 21 C 0 km/h
2975 16-07-2008 02:49:02 20.8 C 10.68 g/m*3 20.8 C 0 km/h
Sensor: Nr:Datum:Temp:Abs-Feuchte:Windchill:Wind:
Aussen-T/F 2976 16-07-2008 03:19:01 20.2 C 10.84 g/m*3 20.2 C 0 km/h
2977 16-07-2008 03:49:01 20 C 10.71 g/m*3 20 C 0 km/h
2978 16-07-2008 04:19:01 20.2 C 10.32 g/m*3 20.2 C 0 km/h
2979 16-07-2008 04:49:01 20 C 10.02 g/m*3 20 C 0 km/h
2980 16-07-2008 05:19:01 19.6 C 10.3 g/m*3 19.6 C 0 km/h
2981 16-07-2008 05:49:01 19.6 C 10.3 g/m*3 19.6 C 0 km/h
2982 16-07-2008 06:35:05 19.5 C 10.41 g/m*3 19.5 C 0 km/h
2983 16-07-2008 07:05:05 19.3 C 10.45 g/m*3 19.3 C 0 km/h
2984 16-07-2008 07:35:05 19.6 C 10.64 g/m*3 19.6 C 0 km/h
2985 16-07-2008 08:05:05 19.8 C 10.76 g/m*3 19.8 C 0 km/h
2986 16-07-2008 08:35:06 20.7 C 10.62 g/m*3 20.7 C 0 km/h
2987 16-07-2008 09:05:06 21 C 10.26 g/m*3 21 C 0 km/h
2988 16-07-2008 09:35:06 21.7 C 9.92 g/m*3 21.7 C 0 km/h
2989 16-07-2008 10:05:06 22.5 C 8.99 g/m*3 22.5 C 0 km/h
2990 16-07-2008 10:35:06 22.7 C 9.09 g/m*3 22.7 C 0 km/h
2991 16-07-2008 11:05:06 24 C 8.7 g/m*3 24 C 0 km/h
2992 16-07-2008 11:35:06 24.1 C 8.1 g/m*3 24.1 C 0 km/h
2993 16-07-2008 12:05:06 24.7 C 8.15 g/m*3 24.7 C 0 km/h
2994 16-07-2008 12:35:06 25.7 C 7.42 g/m*3 25.7 C 0 km/h
2995 16-07-2008 13:05:06 26.4 C 7.22 g/m*3 26.4 C 0 km/h
2996 16-07-2008 13:35:06 26.6 C 7.05 g/m*3 26.6 C 0 km/h
2997 16-07-2008 14:05:06 25.5 C 7.34 g/m*3 25.5 C 0 km/h
2998 16-07-2008 14:35:06 24.5 C 7.83 g/m*3 24.5 C 0 km/h
2999 16-07-2008 15:05:06 22.8 C 9.14 g/m*3 22.8 C 0 km/h
3000 16-07-2008 15:35:06 19.2 C 11.05 g/m*3 19.2 C 0 km/h
Sensor: Nr:Datum:Temp:Abs-Feuchte:Windchill:Wind:
Aussen-T/F 3001 16-07-2008 16:05:06 18.1 C 12.98 g/m*3 18.1 C 0 km/h
3002 16-07-2008 16:35:06 17 C 12.15 g/m*3 17 C 0 km/h
3003 16-07-2008 17:05:06 17.3 C 12.67 g/m*3 17.3 C 0 km/h
3004 16-07-2008 17:35:06 17.5 C 12.67 g/m*3 17.5 C 0 km/h
3005 16-07-2008 18:05:07 17.6 C 12.9 g/m*3 17.6 C 0 km/h
3006 16-07-2008 18:35:07 18.4 C 13.05 g/m*3 18.4 C 0 km/h
3007 16-07-2008 19:05:07 18.5 C 12.34 g/m*3 18.5 C 0 km/h
3008 16-07-2008 19:35:07 19.9 C 12.03 g/m*3 19.9 C 0 km/h
3009 16-07-2008 20:05:07 19.1 C 11.64 g/m*3 19.1 C 0 km/h
3010 16-07-2008 20:35:07 17.8 C 11.84 g/m*3 17.8 C 0 km/h
3011 16-07-2008 21:05:07 17.2 C 11.72 g/m*3 17.2 C 0 km/h
3012 16-07-2008 21:35:07 16.9 C 11.65 g/m*3 16.9 C 0 km/h
3013 16-07-2008 22:05:07 16.4 C 11.17 g/m*3 16.4 C 0 km/h
3014 16-07-2008 22:35:07 16 C 10.9 g/m*3 16 C 0 km/h
3015 16-07-2008 23:05:07 16.2 C 11.17 g/m*3 16.2 C 0 km/h
3016 16-07-2008 23:35:07 16.5 C 11.37 g/m*3 16.5 C 0 km/h
3017 17-07-2008 00:05:07 16.5 C 11.51 g/m*3 16.5 C 0 km/h
3018 17-07-2008 00:35:07 16.5 C 11.23 g/m*3 16.5 C 0 km/h
3019 17-07-2008 01:05:07 16 C 10.22 g/m*3 16 C 0 km/h
3020 17-07-2008 01:35:07 15.5 C 9.91 g/m*3 15.5 C 0 km/h
3021 17-07-2008 02:05:07 15.1 C 9.42 g/m*3 15.1 C 0 km/h
3022 17-07-2008 02:35:07 14.7 C 9.32 g/m*3 14.7 C 0 km/h
3023 17-07-2008 03:05:07 14.7 C 9.07 g/m*3 14.7 C 0 km/h
3024 17-07-2008 03:35:08 14.7 C 8.69 g/m*3 14.7 C 0 km/h
3025 17-07-2008 04:05:08 14.5 C 8.83 g/m*3 14.5 C 0 km/h
Sensor: Nr:Datum:Temp:Abs-Feuchte:Windchill:Wind:
Aussen-T/F 3026 17-07-2008 04:35:08 14.2 C 8.67 g/m*3 14.2 C 0 km/h
3027 17-07-2008 05:05:08 14 C 8.44 g/m*3 14 C 0 km/h
3028 17-07-2008 05:35:08 13.8 C 8.7 g/m*3 13.8 C 0 km/h
3029 17-07-2008 06:05:08 13.4 C 8.95 g/m*3 13.4 C 0 km/h
3030 17-07-2008 06:35:08 13.5 C 9.12 g/m*3 13.5 C 0 km/h
3031 17-07-2008 07:05:08 13.9 C 9.23 g/m*3 13.9 C 0 km/h
3032 17-07-2008 07:35:08 14.4 C 9.02 g/m*3 14.4 C 0 km/h
3033 17-07-2008 08:05:08 14.9 C 9.43 g/m*3 14.9 C 0 km/h
3034 17-07-2008 08:35:08 15.4 C 9.33 g/m*3 15.4 C 0 km/h
3035 17-07-2008 09:05:08 16 C 9.13 g/m*3 16 C 0 km/h
3036 17-07-2008 09:35:08 17 C 8.54 g/m*3 17 C 0 km/h
3037 17-07-2008 10:05:08 17.9 C 8.4 g/m*3 17.9 C 0 km/h
3038 17-07-2008 10:35:08 18.3 C 7.35 g/m*3 18.3 C 0 km/h
3039 17-07-2008 11:05:08 19.2 C 7.09 g/m*3 19.2 C 0 km/h
3040 17-07-2008 11:35:08 19.1 C 7.05 g/m*3 19.1 C 0 km/h
3041 17-07-2008 12:05:08 19.8 C 6.83 g/m*3 19.8 C 0 km/h
3042 17-07-2008 12:35:08 20.8 C 6.88 g/m*3 20.8 C 0 km/h
3043 17-07-2008 13:05:08 21.9 C 6.56 g/m*3 21.9 C 0 km/h
3044 17-07-2008 13:35:08 23 C 6.17 g/m*3 23 C 0 km/h
3045 17-07-2008 14:05:09 22.4 C 6.16 g/m*3 22.4 C 0 km/h
3046 17-07-2008 14:35:09 22.5 C 6.39 g/m*3 22.5 C 0 km/h
3047 17-07-2008 15:05:09 21.8 C 6.91 g/m*3 21.8 C 0 km/h
3048 17-07-2008 15:35:09 20.2 C 7.17 g/m*3 20.2 C 0 km/h
3049 17-07-2008 16:05:09 19.5 C 7.55 g/m*3 19.5 C 0 km/h
3050 17-07-2008 16:35:09 19.6 C 7.6 g/m*3 19.6 C 0 km/h
Sensor: Nr:Datum:Temp:Abs-Feuchte:Windchill:Wind:
Aussen-T/F 3051 17-07-2008 17:05:09 19.7 C 8.15 g/m*3 19.7 C 0 km/h
3052 17-07-2008 17:35:09 19.9 C 8.42 g/m*3 19.9 C 0 km/h
3053 17-07-2008 18:05:09 20.3 C 8.44 g/m*3 20.3 C 0 km/h
3054 17-07-2008 18:35:09 20.3 C 8.27 g/m*3 20.3 C 0 km/h
3055 17-07-2008 19:05:09 19.8 C 8.37 g/m*3 19.8 C 0 km/h
3056 17-07-2008 19:35:09 18.9 C 8.42 g/m*3 18.9 C 0 km/h
3057 17-07-2008 20:05:09 17.3 C 8.84 g/m*3 17.3 C 0 km/h
3058 17-07-2008 20:35:09 16.2 C 9.65 g/m*3 16.2 C 0 km/h
3059 17-07-2008 21:05:09 15.6 C 9.84 g/m*3 15.6 C 0 km/h
3060 17-07-2008 21:35:09 15.6 C 9.84 g/m*3 15.6 C 0 km/h
3061 17-07-2008 22:05:09 14.5 C 10.2 g/m*3 14.5 C 0 km/h
3062 17-07-2008 22:35:09 14.4 C 10.51 g/m*3 14.4 C 0 km/h
3063 17-07-2008 23:05:09 14.8 C 10.64 g/m*3 14.8 C 0 km/h
3064 17-07-2008 23:35:09 15 C 10.51 g/m*3 15 C 0 km/h
3065 18-07-2008 00:05:10 14.9 C 10.32 g/m*3 14.9 C 0 km/h
3066 18-07-2008 00:35:10 14.8 C 10.26 g/m*3 14.8 C 0 km/h
3067 18-07-2008 01:05:10 14.5 C 10.45 g/m*3 14.5 C 0 km/h
3068 18-07-2008 01:35:10 14.1 C 10.32 g/m*3 14.1 C 0 km/h
3069 18-07-2008 02:05:10 13.8 C 10.37 g/m*3 13.8 C 0 km/h
3070 18-07-2008 02:35:10 14 C 10.37 g/m*3 14 C 0 km/h
3071 18-07-2008 03:05:10 14 C 10.49 g/m*3 14 C 0 km/h
3072 18-07-2008 03:35:10 13.7 C 10.54 g/m*3 13.7 C 0 km/h
3073 18-07-2008 04:05:10 13.6 C 10.59 g/m*3 13.6 C 0 km/h
3074 18-07-2008 04:35:10 13.5 C 10.53 g/m*3 13.5 C 0 km/h
3075 18-07-2008 05:05:10 13.9 C 10.19 g/m*3 13.9 C 0 km/h
Sensor: Nr:Datum:Temp:Abs-Feuchte:Windchill:Wind:
Aussen-T/F 3076 18-07-2008 05:35:10 13.8 C 10.13 g/m*3 13.8 C 0 km/h
3077 18-07-2008 06:05:10 13.8 C 10.25 g/m*3 13.8 C 0 km/h
3078 18-07-2008 06:35:10 13.9 C 9.95 g/m*3 13.9 C 0 km/h
3079 18-07-2008 07:05:10 14.1 C 9.71 g/m*3 14.1 C 0 km/h
3080 18-07-2008 07:35:10 14.5 C 9.33 g/m*3 14.5 C 0 km/h
3081 18-07-2008 08:05:10 14.7 C 9.32 g/m*3 14.7 C 0 km/h
3082 18-07-2008 08:35:10 14.8 C 9.25 g/m*3 14.8 C 0 km/h
3083 18-07-2008 09:05:10 15.5 C 9.12 g/m*3 15.5 C 0 km/h
3084 18-07-2008 09:35:10 16 C 9.26 g/m*3 16 C 0 km/h
3085 18-07-2008 10:05:10 15.6 C 9.44 g/m*3 15.6 C 0 km/h
3086 18-07-2008 10:35:11 16.7 C 9.24 g/m*3 16.7 C 0 km/h
3087 18-07-2008 11:05:11 17.8 C 8.95 g/m*3 17.8 C 0 km/h
3088 18-07-2008 11:35:11 16.5 C 8.99 g/m*3 16.5 C 0 km/h
3089 18-07-2008 12:05:11 16.8 C 9.29 g/m*3 16.8 C 0 km/h
3090 18-07-2008 12:35:11 16.7 C 9.38 g/m*3 16.7 C 0 km/h
3091 18-07-2008 13:05:11 17.8 C 9.11 g/m*3 17.8 C 0 km/h
3092 18-07-2008 13:35:11 20.2 C 8.57 g/m*3 20.2 C 0 km/h
3093 18-07-2008 14:05:11 19.7 C 8.66 g/m*3 19.7 C 0 km/h
3094 18-07-2008 14:35:11 20.2 C 7.87 g/m*3 20.2 C 0 km/h
3095 18-07-2008 15:05:11 21.3 C 8.02 g/m*3 21.3 C 0 km/h
3096 18-07-2008 15:35:11 20.4 C 8.14 g/m*3 20.4 C 0 km/h
3097 18-07-2008 16:05:11 20.7 C 7.92 g/m*3 20.7 C 0 km/h
3098 18-07-2008 16:35:11 20.3 C 7.56 g/m*3 20.3 C 0 km/h
3099 18-07-2008 17:05:11 19.2 C 8.08 g/m*3 19.2 C 0 km/h
3100 18-07-2008 17:35:11 17.5 C 10.73 g/m*3 17.5 C 0 km/h
Sensor: Nr:Datum:Temp:Abs-Feuchte:Windchill:Wind:
Aussen-T/F 3101 18-07-2008 18:05:11 18 C 10.44 g/m*3 18 C 0 km/h
3102 18-07-2008 18:35:11 17.9 C 10.54 g/m*3 17.9 C 0 km/h
3103 18-07-2008 19:05:11 18.5 C 10.44 g/m*3 18.5 C 0 km/h
3104 18-07-2008 19:35:11 18.9 C 10.53 g/m*3 18.9 C 0 km/h
3105 18-07-2008 20:05:11 18.2 C 10.26 g/m*3 18.2 C 0 km/h
3106 18-07-2008 20:35:12 17.7 C 10.11 g/m*3 17.7 C 0 km/h
3107 18-07-2008 21:05:12 17.5 C 9.69 g/m*3 17.5 C 0 km/h
3108 18-07-2008 21:35:12 17.4 C 9.48 g/m*3 17.4 C 0 km/h
3109 18-07-2008 22:05:12 17.1 C 9.17 g/m*3 17.1 C 0 km/h
3110 18-07-2008 22:35:12 17.2 C 9.23 g/m*3 17.2 C 0 km/h
3111 18-07-2008 23:05:12 17.1 C 9.32 g/m*3 17.1 C 0 km/h
3112 18-07-2008 23:35:12 17.1 C 9.17 g/m*3 17.1 C 0 km/h
3113 19-07-2008 00:05:12 16.9 C 9.49 g/m*3 16.9 C 0 km/h
3114 19-07-2008 00:35:12 16.7 C 9.52 g/m*3 16.7 C 0 km/h
3115 19-07-2008 01:05:12 16.4 C 9.91 g/m*3 16.4 C 0 km/h
3116 19-07-2008 01:35:12 16.8 C 9.72 g/m*3 16.8 C 0 km/h
3117 19-07-2008 02:05:12 16.7 C 9.38 g/m*3 16.7 C 0 km/h
3118 19-07-2008 02:35:12 16.6 C 9.32 g/m*3 16.6 C 0 km/h
3119 19-07-2008 03:05:12 16.9 C 9.06 g/m*3 16.9 C 0 km/h
3120 19-07-2008 03:35:12 17 C 8.83 g/m*3 17 C 0 km/h
3121 19-07-2008 04:05:12 17.5 C 8.5 g/m*3 17.5 C 0 km/h
3122 19-07-2008 04:35:12 17.1 C 9.03 g/m*3 17.1 C 0 km/h
3123 19-07-2008 05:05:12 16.2 C 9.52 g/m*3 16.2 C 0 km/h
3124 19-07-2008 05:35:12 17 C 9.26 g/m*3 17 C 0 km/h
3125 19-07-2008 06:05:12 16.8 C 9.44 g/m*3 16.8 C 0 km/h
Sensor: Nr:Datum:Temp:Abs-Feuchte:Windchill:Wind:
Aussen-T/F 3126 19-07-2008 06:35:12 16.6 C 9.61 g/m*3 16.6 C 0 km/h
3127 19-07-2008 07:05:13 17.2 C 9.52 g/m*3 17.2 C 0 km/h
3128 19-07-2008 07:35:13 17.5 C 9.69 g/m*3 17.5 C 0 km/h
3129 19-07-2008 08:05:13 17.8 C 9.71 g/m*3 17.8 C 0 km/h
3130 19-07-2008 08:35:13 18.5 C 9.97 g/m*3 18.5 C 0 km/h
3131 19-07-2008 09:05:13 19.3 C 9.45 g/m*3 19.3 C 0 km/h
3132 19-07-2008 09:35:13 19.4 C 9.34 g/m*3 19.4 C 0 km/h
3133 19-07-2008 10:05:13 21 C 9.34 g/m*3 21 C 0 km/h
3134 19-07-2008 10:35:13 21.5 C 9.43 g/m*3 21.5 C 0 km/h
3135 19-07-2008 11:05:13 21.8 C 9.4 g/m*3 21.8 C 0 km/h
3136 19-07-2008 11:35:13 22.4 C 9.33 g/m*3 22.4 C 0 km/h
3137 19-07-2008 12:05:13 23.3 C 9.41 g/m*3 23.3 C 0 km/h
3138 19-07-2008 12:35:13 24.3 C 8.63 g/m*3 24.3 C 0 km/h
3139 19-07-2008 13:05:13 24.9 C 8.47 g/m*3 24.9 C 0 km/h
3140 19-07-2008 13:35:13 24.8 C 8.88 g/m*3 24.8 C 0 km/h
3141 19-07-2008 14:05:13 26.1 C 7.83 g/m*3 26.1 C 0 km/h
3142 19-07-2008 14:35:13 26.3 C 7.67 g/m*3 26.3 C 0 km/h
3143 19-07-2008 15:05:13 25.2 C 7.92 g/m*3 25.2 C 0 km/h
3144 19-07-2008 15:35:13 20.4 C 11.5 g/m*3 20.4 C 0 km/h
3145 19-07-2008 16:05:13 23 C 13.77 g/m*3 23 C 0 km/h
3146 19-07-2008 16:35:13 24.4 C 10.46 g/m*3 24.4 C 0 km/h
3147 19-07-2008 17:05:14 23.6 C 10.21 g/m*3 23.6 C 0 km/h
3148 19-07-2008 17:35:14 24.5 C 9.4 g/m*3 24.5 C 0 km/h
3149 19-07-2008 18:05:14 25.4 C 8.71 g/m*3 25.4 C 0 km/h
3150 19-07-2008 18:35:14 25.6 C 7.14 g/m*3 25.6 C 0 km/h
Sensor: Nr:Datum:Temp:Abs-Feuchte:Windchill:Wind:
Aussen-T/F 3151 19-07-2008 19:05:14 17.2 C 5.42 g/m*3 17.2 C 0 km/h
3152 19-07-2008 19:35:14 17 C 11.43 g/m*3 17 C 0 km/h
3153 19-07-2008 20:05:14 17.4 C 11.26 g/m*3 17.4 C 0 km/h
3154 19-07-2008 20:35:14 17.7 C 12.07 g/m*3 17.7 C 0 km/h
3155 19-07-2008 21:05:14 17.7 C 12.07 g/m*3 17.7 C 0 km/h
3156 19-07-2008 21:35:14 17.5 C 11.93 g/m*3 17.5 C 0 km/h
3157 19-07-2008 22:05:14 16.6 C 11.58 g/m*3 16.6 C 0 km/h
3158 19-07-2008 22:35:14 16.1 C 10.97 g/m*3 16.1 C 0 km/h
3159 19-07-2008 23:05:14 15.6 C 10.37 g/m*3 15.6 C 0 km/h
3160 19-07-2008 23:35:14 15.4 C 10.25 g/m*3 15.4 C 0 km/h
3161 20-07-2008 00:05:14 15 C 10.13 g/m*3 15 C 0 km/h
3162 20-07-2008 00:35:14 14.8 C 10.01 g/m*3 14.8 C 0 km/h
3163 20-07-2008 01:05:14 14.9 C 9.3 g/m*3 14.9 C 0 km/h
3164 20-07-2008 01:35:14 14.4 C 9.15 g/m*3 14.4 C 0 km/h
3165 20-07-2008 02:05:14 14.8 C 8.99 g/m*3 14.8 C 0 km/h
3166 20-07-2008 02:35:14 14.4 C 8.9 g/m*3 14.4 C 0 km/h
3167 20-07-2008 03:05:15 14.2 C 8.91 g/m*3 14.2 C 0 km/h
3168 20-07-2008 03:35:15 14.1 C 8.86 g/m*3 14.1 C 0 km/h
3169 20-07-2008 04:05:15 14 C 8.56 g/m*3 14 C 0 km/h
3170 20-07-2008 04:35:15 13.7 C 8.64 g/m*3 13.7 C 0 km/h
3171 20-07-2008 05:05:15 13.3 C 8.78 g/m*3 13.3 C 0 km/h
3172 20-07-2008 05:35:15 12.7 C 8.91 g/m*3 12.7 C 0 km/h
3173 20-07-2008 06:05:15 12.4 C 8.96 g/m*3 12.4 C 0 km/h
3174 20-07-2008 06:35:15 12.6 C 9.07 g/m*3 12.6 C 0 km/h
3175 20-07-2008 07:05:15 12.9 C 9.24 g/m*3 12.9 C 0 km/h
Sensor: Nr:Datum:Temp:Abs-Feuchte:Windchill:Wind:
Aussen-T/F 3176 20-07-2008 07:35:15 13.3 C 9.13 g/m*3 13.3 C 0 km/h
3177 20-07-2008 08:05:15 13.7 C 8.88 g/m*3 13.7 C 0 km/h
3178 20-07-2008 08:35:15 14.1 C 8.62 g/m*3 14.1 C 0 km/h
3179 20-07-2008 09:05:15 14.7 C 8.69 g/m*3 14.7 C 0 km/h
3180 20-07-2008 09:35:15 15.8 C 8.62 g/m*3 15.8 C 0 km/h
3181 20-07-2008 10:05:15 16.5 C 8.43 g/m*3 16.5 C 0 km/h
3182 20-07-2008 10:35:15 17.1 C 8.59 g/m*3 17.1 C 0 km/h
3183 20-07-2008 11:05:15 18 C 8.29 g/m*3 18 C 0 km/h
3184 20-07-2008 11:35:15 18.8 C 8.7 g/m*3 18.8 C 0 km/h
3185 20-07-2008 12:05:15 20 C 8.12 g/m*3 20 C 0 km/h
3186 20-07-2008 12:35:15 19.5 C 8.06 g/m*3 19.5 C 0 km/h
3187 20-07-2008 13:05:15 19.5 C 7.89 g/m*3 19.5 C 0 km/h
3188 20-07-2008 13:35:16 18.8 C 8.05 g/m*3 18.8 C 0 km/h
3189 20-07-2008 14:05:16 19.7 C 7.81 g/m*3 19.7 C 0 km/h
3190 20-07-2008 14:35:16 21.2 C 7.41 g/m*3 21.2 C 0 km/h
3191 20-07-2008 15:05:16 21.8 C 6.72 g/m*3 21.8 C 0 km/h
3192 20-07-2008 15:35:16 22.6 C 6.63 g/m*3 22.6 C 0 km/h
3193 20-07-2008 16:05:16 14.5 C 9.7 g/m*3 14.5 C 0 km/h
3194 20-07-2008 16:35:16 14.8 C 10.51 g/m*3 14.8 C 0 km/h
3195 20-07-2008 17:05:16 15.9 C 10.02 g/m*3 15.9 C 0 km/h
3196 20-07-2008 17:35:16 15.4 C 9.72 g/m*3 15.4 C 0 km/h
3197 20-07-2008 18:05:16 14.3 C 9.95 g/m*3 14.3 C 0 km/h
3198 20-07-2008 18:35:16 16.5 C 9.83 g/m*3 16.5 C 0 km/h
3199 20-07-2008 19:05:16 16.8 C 9.29 g/m*3 16.8 C 0 km/h
3200 20-07-2008 19:35:16 16.4 C 9.21 g/m*3 16.4 C 0 km/h
Sensor: Nr:Datum:Temp:Abs-Feuchte:Windchill:Wind:
Aussen-T/F 3201 20-07-2008 20:05:16 16.4 C 9.91 g/m*3 16.4 C 0 km/h
3202 20-07-2008 20:35:16 13.3 C 9.01 g/m*3 13.3 C 0 km/h
3203 20-07-2008 21:05:16 13.8 C 9.89 g/m*3 13.8 C 0 km/h
3204 20-07-2008 21:35:16 13 C 9.3 g/m*3 13 C 0 km/h
3205 20-07-2008 22:05:16 12.9 C 9.58 g/m*3 12.9 C 0 km/h
3206 20-07-2008 22:35:16 12.4 C 9.29 g/m*3 12.4 C 0 km/h
3207 20-07-2008 23:05:16 11.9 C 9.11 g/m*3 11.9 C 0 km/h
3208 20-07-2008 23:35:16 11.7 C 8.99 g/m*3 11.7 C 0 km/h
3209 21-07-2008 00:05:17 11.1 C 8.76 g/m*3 11.1 C 0 km/h
3210 21-07-2008 00:35:17 11.5 C 9.09 g/m*3 11.5 C 0 km/h
3211 21-07-2008 01:05:17 11 C 8.71 g/m*3 11 C 0 km/h
3212 21-07-2008 01:35:17 10.7 C 8.55 g/m*3 10.7 C 0 km/h
3213 21-07-2008 02:05:17 10.5 C 8.53 g/m*3 10.5 C 0 km/h
3214 21-07-2008 02:35:17 10.3 C 8.33 g/m*3 10.3 C 0 km/h
3215 21-07-2008 03:05:17 10.1 C 8.04 g/m*3 10.1 C 0 km/h
3216 21-07-2008 03:35:17 10.1 C 7.56 g/m*3 10.1 C 0 km/h
3217 21-07-2008 04:05:17 10 C 7.61 g/m*3 10 C 0 km/h
3218 21-07-2008 04:35:17 10.4 C 7.61 g/m*3 10.4 C 0 km/h
3219 21-07-2008 05:05:17 10.4 C 7.71 g/m*3 10.4 C 0 km/h
3220 21-07-2008 05:35:17 10.3 C 7.85 g/m*3 10.3 C 0 km/h
3221 21-07-2008 06:05:17 10.6 C 7.71 g/m*3 10.6 C 0 km/h
3222 21-07-2008 06:35:17 10.9 C 7.66 g/m*3 10.9 C 0 km/h
3223 21-07-2008 07:05:17 11.3 C 7.75 g/m*3 11.3 C 0 km/h
3224 21-07-2008 07:35:17 11.8 C 7.89 g/m*3 11.8 C 0 km/h
3225 21-07-2008 08:05:17 12.6 C 7.97 g/m*3 12.6 C 0 km/h
Sensor: Nr:Datum:Temp:Abs-Feuchte:Windchill:Wind:
Aussen-T/F 3226 21-07-2008 08:35:17 13 C 7.71 g/m*3 13 C 0 km/h
3227 21-07-2008 09:05:17 13.1 C 7.65 g/m*3 13.1 C 0 km/h
3228 21-07-2008 09:35:18 15.1 C 7.48 g/m*3 15.1 C 0 km/h
3229 21-07-2008 10:05:18 15.8 C 7.4 g/m*3 15.8 C 0 km/h
3230 21-07-2008 10:35:18 17 C 6.66 g/m*